<?xml version="1.0" encoding="UTF-8" standalone="no" ?>
<gpx xmlns="http://www.topografix.com/GPX/1/1" xmlns:xsi="http://www.w3.org/2001/XMLSchema-instance" xsi:schemaLocation="http://www.topografix.com/GPX/1/1 http://www.topografix.com/GPX/1/1/gpx.xsd" version="1.1" creator="VisuGPX - https://www.visugpx.com">
  <metadata>
    <name>Saillagouse, Vedrinyans, vallée du Sègre ...</name>
    <desc><![CDATA[Retour par Llo.]]></desc>
  </metadata>
  <trk>
    <name><![CDATA[21-JUIL-15 16:32:25]]></name>
    <trkseg>
      <trkpt lat="42.45732" lon="2.04237">
        <ele>1213.32</ele>
        <time>2015-07-21T08:43:05Z</time>
      </trkpt>
      <trkpt lat="42.45731" lon="2.04233">
        <ele>1212.84</ele>
        <time>2015-07-21T08:43:10Z</time>
      </trkpt>
      <trkpt lat="42.45727" lon="2.04215">
        <ele>1212.36</ele>
        <time>2015-07-21T08:43:20Z</time>
      </trkpt>
      <trkpt lat="42.45726" lon="2.04197">
        <ele>1218.13</ele>
        <time>2015-07-21T08:43:29Z</time>
      </trkpt>
      <trkpt lat="42.45726" lon="2.04196">
        <ele>1218.13</ele>
        <time>2015-07-21T08:43:30Z</time>
      </trkpt>
      <trkpt lat="42.45726" lon="2.0419">
        <ele>1221.49</ele>
        <time>2015-07-21T08:43:32Z</time>
      </trkpt>
      <trkpt lat="42.45726" lon="2.04188">
        <ele>1224.38</ele>
        <time>2015-07-21T08:43:33Z</time>
      </trkpt>
      <trkpt lat="42.45726" lon="2.04182">
        <ele>1230.14</ele>
        <time>2015-07-21T08:43:35Z</time>
      </trkpt>
      <trkpt lat="42.45726" lon="2.04178">
        <ele>1232.55</ele>
        <time>2015-07-21T08:43:36Z</time>
      </trkpt>
      <trkpt lat="42.45727" lon="2.04173">
        <ele>1237.83</ele>
        <time>2015-07-21T08:43:42Z</time>
      </trkpt>
      <trkpt lat="42.45729" lon="2.04172">
        <ele>1242.64</ele>
        <time>2015-07-21T08:43:44Z</time>
      </trkpt>
      <trkpt lat="42.45729" lon="2.04171">
        <ele>1246.97</ele>
        <time>2015-07-21T08:43:46Z</time>
      </trkpt>
      <trkpt lat="42.4573" lon="2.0417">
        <ele>1248.89</ele>
        <time>2015-07-21T08:43:48Z</time>
      </trkpt>
      <trkpt lat="42.45731" lon="2.04162">
        <ele>1253.22</ele>
        <time>2015-07-21T08:43:52Z</time>
      </trkpt>
      <trkpt lat="42.45733" lon="2.04156">
        <ele>1255.14</ele>
        <time>2015-07-21T08:43:54Z</time>
      </trkpt>
      <trkpt lat="42.45733" lon="2.04138">
        <ele>1258.5</ele>
        <time>2015-07-21T08:44:02Z</time>
      </trkpt>
      <trkpt lat="42.45733" lon="2.04137">
        <ele>1261.87</ele>
        <time>2015-07-21T08:44:04Z</time>
      </trkpt>
      <trkpt lat="42.45733" lon="2.04135">
        <ele>1265.23</ele>
        <time>2015-07-21T08:44:06Z</time>
      </trkpt>
      <trkpt lat="42.45735" lon="2.04127">
        <ele>1268.6</ele>
        <time>2015-07-21T08:44:10Z</time>
      </trkpt>
      <trkpt lat="42.45736" lon="2.04122">
        <ele>1271.96</ele>
        <time>2015-07-21T08:44:13Z</time>
      </trkpt>
      <trkpt lat="42.45737" lon="2.04115">
        <ele>1277.25</ele>
        <time>2015-07-21T08:44:17Z</time>
      </trkpt>
      <trkpt lat="42.45739" lon="2.04109">
        <ele>1280.13</ele>
        <time>2015-07-21T08:44:20Z</time>
      </trkpt>
      <trkpt lat="42.45741" lon="2.04101">
        <ele>1283.98</ele>
        <time>2015-07-21T08:44:24Z</time>
      </trkpt>
      <trkpt lat="42.45743" lon="2.04093">
        <ele>1287.34</ele>
        <time>2015-07-21T08:44:28Z</time>
      </trkpt>
      <trkpt lat="42.45743" lon="2.04086">
        <ele>1289.27</ele>
        <time>2015-07-21T08:44:32Z</time>
      </trkpt>
      <trkpt lat="42.45746" lon="2.04082">
        <ele>1292.63</ele>
        <time>2015-07-21T08:44:38Z</time>
      </trkpt>
      <trkpt lat="42.45753" lon="2.04049">
        <ele>1294.07</ele>
        <time>2015-07-21T08:44:48Z</time>
      </trkpt>
      <trkpt lat="42.45753" lon="2.04046">
        <ele>1294.07</ele>
        <time>2015-07-21T08:44:49Z</time>
      </trkpt>
      <trkpt lat="42.45764" lon="2.04031">
        <ele>1295.03</ele>
        <time>2015-07-21T08:45:00Z</time>
      </trkpt>
      <trkpt lat="42.45777" lon="2.04012">
        <ele>1297.44</ele>
        <time>2015-07-21T08:45:12Z</time>
      </trkpt>
      <trkpt lat="42.45783" lon="2.04005">
        <ele>1297.44</ele>
        <time>2015-07-21T08:45:15Z</time>
      </trkpt>
      <trkpt lat="42.45784" lon="2.04002">
        <ele>1297.44</ele>
        <time>2015-07-21T08:45:17Z</time>
      </trkpt>
      <trkpt lat="42.45787" lon="2.04">
        <ele>1298.88</ele>
        <time>2015-07-21T08:45:26Z</time>
      </trkpt>
      <trkpt lat="42.45803" lon="2.03981">
        <ele>1299.84</ele>
        <time>2015-07-21T08:45:37Z</time>
      </trkpt>
      <trkpt lat="42.458" lon="2.03972">
        <ele>1299.36</ele>
        <time>2015-07-21T08:45:45Z</time>
      </trkpt>
      <trkpt lat="42.45799" lon="2.03971">
        <ele>1299.36</ele>
        <time>2015-07-21T08:45:46Z</time>
      </trkpt>
      <trkpt lat="42.45798" lon="2.03967">
        <ele>1299.36</ele>
        <time>2015-07-21T08:45:48Z</time>
      </trkpt>
      <trkpt lat="42.45802" lon="2.03957">
        <ele>1298.88</ele>
        <time>2015-07-21T08:45:52Z</time>
      </trkpt>
      <trkpt lat="42.45809" lon="2.03941">
        <ele>1297.92</ele>
        <time>2015-07-21T08:46:04Z</time>
      </trkpt>
      <trkpt lat="42.45807" lon="2.03938">
        <ele>1297.92</ele>
        <time>2015-07-21T08:46:08Z</time>
      </trkpt>
      <trkpt lat="42.458" lon="2.03937">
        <ele>1298.4</ele>
        <time>2015-07-21T08:46:12Z</time>
      </trkpt>
      <trkpt lat="42.45778" lon="2.03942">
        <ele>1298.88</ele>
        <time>2015-07-21T08:46:22Z</time>
      </trkpt>
      <trkpt lat="42.45775" lon="2.03943">
        <ele>1299.36</ele>
        <time>2015-07-21T08:46:25Z</time>
      </trkpt>
      <trkpt lat="42.45774" lon="2.03942">
        <ele>1299.36</ele>
        <time>2015-07-21T08:46:30Z</time>
      </trkpt>
      <trkpt lat="42.45775" lon="2.03941">
        <ele>1299.36</ele>
        <time>2015-07-21T08:46:35Z</time>
      </trkpt>
      <trkpt lat="42.45765" lon="2.03973">
        <ele>1299.36</ele>
        <time>2015-07-21T08:46:43Z</time>
      </trkpt>
      <trkpt lat="42.45764" lon="2.03976">
        <ele>1299.36</ele>
        <time>2015-07-21T08:46:44Z</time>
      </trkpt>
      <trkpt lat="42.45758" lon="2.03989">
        <ele>1299.36</ele>
        <time>2015-07-21T08:46:55Z</time>
      </trkpt>
      <trkpt lat="42.45756" lon="2.03988">
        <ele>1299.84</ele>
        <time>2015-07-21T08:47:00Z</time>
      </trkpt>
      <trkpt lat="42.45753" lon="2.03991">
        <ele>1299.84</ele>
        <time>2015-07-21T08:47:02Z</time>
      </trkpt>
      <trkpt lat="42.45748" lon="2.04001">
        <ele>1299.84</ele>
        <time>2015-07-21T08:47:06Z</time>
      </trkpt>
      <trkpt lat="42.4574" lon="2.04012">
        <ele>1299.84</ele>
        <time>2015-07-21T08:47:11Z</time>
      </trkpt>
      <trkpt lat="42.45732" lon="2.04037">
        <ele>1300.32</ele>
        <time>2015-07-21T08:47:18Z</time>
      </trkpt>
      <trkpt lat="42.45722" lon="2.04038">
        <ele>1301.28</ele>
        <time>2015-07-21T08:47:29Z</time>
      </trkpt>
      <trkpt lat="42.45707" lon="2.0404">
        <ele>1302.24</ele>
        <time>2015-07-21T08:47:41Z</time>
      </trkpt>
      <trkpt lat="42.45694" lon="2.04038">
        <ele>1303.2</ele>
        <time>2015-07-21T08:47:55Z</time>
      </trkpt>
      <trkpt lat="42.45691" lon="2.04037">
        <ele>1303.69</ele>
        <time>2015-07-21T08:48:11Z</time>
      </trkpt>
      <trkpt lat="42.45689" lon="2.04034">
        <ele>1304.17</ele>
        <time>2015-07-21T08:48:38Z</time>
      </trkpt>
      <trkpt lat="42.45686" lon="2.04036">
        <ele>1304.17</ele>
        <time>2015-07-21T08:49:05Z</time>
      </trkpt>
      <trkpt lat="42.45684" lon="2.04059">
        <ele>1305.61</ele>
        <time>2015-07-21T08:49:16Z</time>
      </trkpt>
      <trkpt lat="42.45684" lon="2.04065">
        <ele>1306.09</ele>
        <time>2015-07-21T08:49:21Z</time>
      </trkpt>
      <trkpt lat="42.45676" lon="2.0408">
        <ele>1308.49</ele>
        <time>2015-07-21T08:49:33Z</time>
      </trkpt>
      <trkpt lat="42.45676" lon="2.0408">
        <ele>1308.49</ele>
        <time>2015-07-21T08:49:34Z</time>
      </trkpt>
      <trkpt lat="42.45664" lon="2.0409">
        <ele>1310.41</ele>
        <time>2015-07-21T08:49:44Z</time>
      </trkpt>
      <trkpt lat="42.45663" lon="2.0409">
        <ele>1310.41</ele>
        <time>2015-07-21T08:49:45Z</time>
      </trkpt>
      <trkpt lat="42.4566" lon="2.0409">
        <ele>1310.9</ele>
        <time>2015-07-21T08:49:47Z</time>
      </trkpt>
      <trkpt lat="42.45638" lon="2.04098">
        <ele>1312.34</ele>
        <time>2015-07-21T08:50:01Z</time>
      </trkpt>
      <trkpt lat="42.45624" lon="2.041">
        <ele>1313.3</ele>
        <time>2015-07-21T08:50:12Z</time>
      </trkpt>
      <trkpt lat="42.45608" lon="2.04104">
        <ele>1313.78</ele>
        <time>2015-07-21T08:50:25Z</time>
      </trkpt>
      <trkpt lat="42.45607" lon="2.04105">
        <ele>1313.78</ele>
        <time>2015-07-21T08:50:27Z</time>
      </trkpt>
      <trkpt lat="42.45604" lon="2.04104">
        <ele>1314.26</ele>
        <time>2015-07-21T08:50:39Z</time>
      </trkpt>
      <trkpt lat="42.45601" lon="2.04104">
        <ele>1314.26</ele>
        <time>2015-07-21T08:50:59Z</time>
      </trkpt>
      <trkpt lat="42.456" lon="2.04104">
        <ele>1314.74</ele>
        <time>2015-07-21T08:51:02Z</time>
      </trkpt>
      <trkpt lat="42.45592" lon="2.04101">
        <ele>1315.22</ele>
        <time>2015-07-21T08:51:18Z</time>
      </trkpt>
      <trkpt lat="42.45585" lon="2.04097">
        <ele>1315.7</ele>
        <time>2015-07-21T08:51:33Z</time>
      </trkpt>
      <trkpt lat="42.45577" lon="2.04096">
        <ele>1316.18</ele>
        <time>2015-07-21T08:51:42Z</time>
      </trkpt>
      <trkpt lat="42.45571" lon="2.04089">
        <ele>1316.66</ele>
        <time>2015-07-21T08:51:54Z</time>
      </trkpt>
      <trkpt lat="42.45568" lon="2.04089">
        <ele>1317.14</ele>
        <time>2015-07-21T08:52:05Z</time>
      </trkpt>
      <trkpt lat="42.45567" lon="2.04088">
        <ele>1317.14</ele>
        <time>2015-07-21T08:52:16Z</time>
      </trkpt>
      <trkpt lat="42.45563" lon="2.04091">
        <ele>1317.14</ele>
        <time>2015-07-21T08:52:39Z</time>
      </trkpt>
      <trkpt lat="42.45564" lon="2.04092">
        <ele>1317.14</ele>
        <time>2015-07-21T08:52:59Z</time>
      </trkpt>
      <trkpt lat="42.45564" lon="2.04092">
        <ele>1317.14</ele>
        <time>2015-07-21T08:53:15Z</time>
      </trkpt>
      <trkpt lat="42.45563" lon="2.0409">
        <ele>1317.14</ele>
        <time>2015-07-21T08:53:26Z</time>
      </trkpt>
      <trkpt lat="42.45563" lon="2.0409">
        <ele>1317.62</ele>
        <time>2015-07-21T08:53:37Z</time>
      </trkpt>
      <trkpt lat="42.45561" lon="2.0409">
        <ele>1317.62</ele>
        <time>2015-07-21T08:53:39Z</time>
      </trkpt>
      <trkpt lat="42.45546" lon="2.04097">
        <ele>1318.59</ele>
        <time>2015-07-21T08:53:49Z</time>
      </trkpt>
      <trkpt lat="42.4554" lon="2.04098">
        <ele>1319.07</ele>
        <time>2015-07-21T08:53:53Z</time>
      </trkpt>
      <trkpt lat="42.45536" lon="2.04097">
        <ele>1319.55</ele>
        <time>2015-07-21T08:54:05Z</time>
      </trkpt>
      <trkpt lat="42.45521" lon="2.04101">
        <ele>1320.99</ele>
        <time>2015-07-21T08:54:17Z</time>
      </trkpt>
      <trkpt lat="42.4551" lon="2.04104">
        <ele>1321.47</ele>
        <time>2015-07-21T08:54:21Z</time>
      </trkpt>
      <trkpt lat="42.45503" lon="2.04104">
        <ele>1322.91</ele>
        <time>2015-07-21T08:54:27Z</time>
      </trkpt>
      <trkpt lat="42.45486" lon="2.04107">
        <ele>1324.35</ele>
        <time>2015-07-21T08:54:38Z</time>
      </trkpt>
      <trkpt lat="42.45471" lon="2.04111">
        <ele>1325.8</ele>
        <time>2015-07-21T08:54:48Z</time>
      </trkpt>
      <trkpt lat="42.45459" lon="2.04113">
        <ele>1327.72</ele>
        <time>2015-07-21T08:54:56Z</time>
      </trkpt>
      <trkpt lat="42.45457" lon="2.04112">
        <ele>1327.24</ele>
        <time>2015-07-21T08:54:58Z</time>
      </trkpt>
      <trkpt lat="42.45446" lon="2.04116">
        <ele>1328.68</ele>
        <time>2015-07-21T08:55:09Z</time>
      </trkpt>
      <trkpt lat="42.45428" lon="2.04124">
        <ele>1330.12</ele>
        <time>2015-07-21T08:55:19Z</time>
      </trkpt>
      <trkpt lat="42.45414" lon="2.04128">
        <ele>1331.08</ele>
        <time>2015-07-21T08:55:30Z</time>
      </trkpt>
      <trkpt lat="42.45404" lon="2.04134">
        <ele>1332.04</ele>
        <time>2015-07-21T08:55:40Z</time>
      </trkpt>
      <trkpt lat="42.45386" lon="2.04147">
        <ele>1333.97</ele>
        <time>2015-07-21T08:55:54Z</time>
      </trkpt>
      <trkpt lat="42.45378" lon="2.04152">
        <ele>1335.41</ele>
        <time>2015-07-21T08:56:03Z</time>
      </trkpt>
      <trkpt lat="42.45369" lon="2.04166">
        <ele>1336.37</ele>
        <time>2015-07-21T08:56:13Z</time>
      </trkpt>
      <trkpt lat="42.45364" lon="2.04182">
        <ele>1338.77</ele>
        <time>2015-07-21T08:56:26Z</time>
      </trkpt>
      <trkpt lat="42.45354" lon="2.04206">
        <ele>1340.22</ele>
        <time>2015-07-21T08:56:40Z</time>
      </trkpt>
      <trkpt lat="42.45349" lon="2.04214">
        <ele>1341.18</ele>
        <time>2015-07-21T08:56:46Z</time>
      </trkpt>
      <trkpt lat="42.4534" lon="2.04227">
        <ele>1343.1</ele>
        <time>2015-07-21T08:56:59Z</time>
      </trkpt>
      <trkpt lat="42.45331" lon="2.04247">
        <ele>1344.54</ele>
        <time>2015-07-21T08:57:14Z</time>
      </trkpt>
      <trkpt lat="42.45324" lon="2.04262">
        <ele>1346.94</ele>
        <time>2015-07-21T08:57:26Z</time>
      </trkpt>
      <trkpt lat="42.45322" lon="2.04264">
        <ele>1346.94</ele>
        <time>2015-07-21T08:57:28Z</time>
      </trkpt>
      <trkpt lat="42.45321" lon="2.04268">
        <ele>1347.91</ele>
        <time>2015-07-21T08:57:31Z</time>
      </trkpt>
      <trkpt lat="42.45317" lon="2.04276">
        <ele>1348.39</ele>
        <time>2015-07-21T08:57:37Z</time>
      </trkpt>
      <trkpt lat="42.45306" lon="2.04286">
        <ele>1350.79</ele>
        <time>2015-07-21T08:57:50Z</time>
      </trkpt>
      <trkpt lat="42.45295" lon="2.04283">
        <ele>1352.71</ele>
        <time>2015-07-21T08:58:00Z</time>
      </trkpt>
      <trkpt lat="42.45286" lon="2.04265">
        <ele>1354.15</ele>
        <time>2015-07-21T08:58:12Z</time>
      </trkpt>
      <trkpt lat="42.4528" lon="2.04247">
        <ele>1355.12</ele>
        <time>2015-07-21T08:58:23Z</time>
      </trkpt>
      <trkpt lat="42.45277" lon="2.04232">
        <ele>1356.08</ele>
        <time>2015-07-21T08:58:33Z</time>
      </trkpt>
      <trkpt lat="42.45272" lon="2.04216">
        <ele>1357.04</ele>
        <time>2015-07-21T08:58:43Z</time>
      </trkpt>
      <trkpt lat="42.45267" lon="2.04198">
        <ele>1357.52</ele>
        <time>2015-07-21T08:58:53Z</time>
      </trkpt>
      <trkpt lat="42.45265" lon="2.04196">
        <ele>1357.52</ele>
        <time>2015-07-21T08:58:55Z</time>
      </trkpt>
      <trkpt lat="42.45256" lon="2.0418">
        <ele>1357.52</ele>
        <time>2015-07-21T08:59:06Z</time>
      </trkpt>
      <trkpt lat="42.45251" lon="2.04176">
        <ele>1358</ele>
        <time>2015-07-21T08:59:10Z</time>
      </trkpt>
      <trkpt lat="42.45243" lon="2.04169">
        <ele>1358.48</ele>
        <time>2015-07-21T08:59:17Z</time>
      </trkpt>
      <trkpt lat="42.45227" lon="2.04168">
        <ele>1359.44</ele>
        <time>2015-07-21T08:59:32Z</time>
      </trkpt>
      <trkpt lat="42.45211" lon="2.04171">
        <ele>1361.84</ele>
        <time>2015-07-21T08:59:49Z</time>
      </trkpt>
      <trkpt lat="42.45197" lon="2.04174">
        <ele>1364.73</ele>
        <time>2015-07-21T09:00:05Z</time>
      </trkpt>
      <trkpt lat="42.45185" lon="2.04185">
        <ele>1366.17</ele>
        <time>2015-07-21T09:00:15Z</time>
      </trkpt>
      <trkpt lat="42.45174" lon="2.04197">
        <ele>1370.5</ele>
        <time>2015-07-21T09:00:32Z</time>
      </trkpt>
      <trkpt lat="42.45171" lon="2.04203">
        <ele>1371.46</ele>
        <time>2015-07-21T09:00:39Z</time>
      </trkpt>
      <trkpt lat="42.4517" lon="2.04217">
        <ele>1373.86</ele>
        <time>2015-07-21T09:00:52Z</time>
      </trkpt>
      <trkpt lat="42.45168" lon="2.04227">
        <ele>1377.23</ele>
        <time>2015-07-21T09:01:03Z</time>
      </trkpt>
      <trkpt lat="42.45167" lon="2.04233">
        <ele>1378.19</ele>
        <time>2015-07-21T09:01:09Z</time>
      </trkpt>
      <trkpt lat="42.45164" lon="2.0424">
        <ele>1380.11</ele>
        <time>2015-07-21T09:01:16Z</time>
      </trkpt>
      <trkpt lat="42.45156" lon="2.04255">
        <ele>1383.96</ele>
        <time>2015-07-21T09:01:33Z</time>
      </trkpt>
      <trkpt lat="42.45148" lon="2.0427">
        <ele>1386.36</ele>
        <time>2015-07-21T09:01:50Z</time>
      </trkpt>
      <trkpt lat="42.45141" lon="2.04281">
        <ele>1389.24</ele>
        <time>2015-07-21T09:02:00Z</time>
      </trkpt>
      <trkpt lat="42.45142" lon="2.04296">
        <ele>1390.2</ele>
        <time>2015-07-21T09:02:11Z</time>
      </trkpt>
      <trkpt lat="42.45148" lon="2.04297">
        <ele>1390.2</ele>
        <time>2015-07-21T09:02:18Z</time>
      </trkpt>
      <trkpt lat="42.4515" lon="2.04301">
        <ele>1390.68</ele>
        <time>2015-07-21T09:02:22Z</time>
      </trkpt>
      <trkpt lat="42.45154" lon="2.04307">
        <ele>1391.65</ele>
        <time>2015-07-21T09:02:26Z</time>
      </trkpt>
      <trkpt lat="42.45167" lon="2.0432">
        <ele>1392.61</ele>
        <time>2015-07-21T09:02:38Z</time>
      </trkpt>
      <trkpt lat="42.45168" lon="2.04322">
        <ele>1393.09</ele>
        <time>2015-07-21T09:02:40Z</time>
      </trkpt>
      <trkpt lat="42.45171" lon="2.04338">
        <ele>1392.13</ele>
        <time>2015-07-21T09:02:51Z</time>
      </trkpt>
      <trkpt lat="42.45171" lon="2.04347">
        <ele>1392.61</ele>
        <time>2015-07-21T09:02:58Z</time>
      </trkpt>
      <trkpt lat="42.45167" lon="2.04355">
        <ele>1392.13</ele>
        <time>2015-07-21T09:03:04Z</time>
      </trkpt>
      <trkpt lat="42.45162" lon="2.04371">
        <ele>1392.61</ele>
        <time>2015-07-21T09:03:16Z</time>
      </trkpt>
      <trkpt lat="42.45162" lon="2.04371">
        <ele>1392.61</ele>
        <time>2015-07-21T09:03:18Z</time>
      </trkpt>
      <trkpt lat="42.45164" lon="2.04361">
        <ele>1392.61</ele>
        <time>2015-07-21T09:03:25Z</time>
      </trkpt>
      <trkpt lat="42.45169" lon="2.04347">
        <ele>1392.61</ele>
        <time>2015-07-21T09:03:35Z</time>
      </trkpt>
      <trkpt lat="42.45171" lon="2.04355">
        <ele>1390.68</ele>
        <time>2015-07-21T09:03:49Z</time>
      </trkpt>
      <trkpt lat="42.45169" lon="2.04351">
        <ele>1391.17</ele>
        <time>2015-07-21T09:04:04Z</time>
      </trkpt>
      <trkpt lat="42.45169" lon="2.04351">
        <ele>1391.17</ele>
        <time>2015-07-21T09:04:25Z</time>
      </trkpt>
      <trkpt lat="42.45168" lon="2.0436">
        <ele>1390.68</ele>
        <time>2015-07-21T09:04:41Z</time>
      </trkpt>
      <trkpt lat="42.45167" lon="2.04389">
        <ele>1387.8</ele>
        <time>2015-07-21T09:04:54Z</time>
      </trkpt>
      <trkpt lat="42.45165" lon="2.04413">
        <ele>1385.4</ele>
        <time>2015-07-21T09:05:08Z</time>
      </trkpt>
      <trkpt lat="42.45164" lon="2.04422">
        <ele>1383.47</ele>
        <time>2015-07-21T09:05:12Z</time>
      </trkpt>
      <trkpt lat="42.45165" lon="2.04438">
        <ele>1382.99</ele>
        <time>2015-07-21T09:05:21Z</time>
      </trkpt>
      <trkpt lat="42.45165" lon="2.04444">
        <ele>1382.51</ele>
        <time>2015-07-21T09:05:25Z</time>
      </trkpt>
      <trkpt lat="42.45163" lon="2.0446">
        <ele>1380.59</ele>
        <time>2015-07-21T09:05:35Z</time>
      </trkpt>
      <trkpt lat="42.45158" lon="2.04486">
        <ele>1377.23</ele>
        <time>2015-07-21T09:05:49Z</time>
      </trkpt>
      <trkpt lat="42.45159" lon="2.04493">
        <ele>1375.78</ele>
        <time>2015-07-21T09:05:55Z</time>
      </trkpt>
      <trkpt lat="42.4516" lon="2.04511">
        <ele>1374.34</ele>
        <time>2015-07-21T09:06:04Z</time>
      </trkpt>
      <trkpt lat="42.45159" lon="2.04516">
        <ele>1373.38</ele>
        <time>2015-07-21T09:06:06Z</time>
      </trkpt>
      <trkpt lat="42.45151" lon="2.04536">
        <ele>1372.42</ele>
        <time>2015-07-21T09:06:19Z</time>
      </trkpt>
      <trkpt lat="42.45146" lon="2.04559">
        <ele>1371.94</ele>
        <time>2015-07-21T09:06:33Z</time>
      </trkpt>
      <trkpt lat="42.45151" lon="2.04566">
        <ele>1370.98</ele>
        <time>2015-07-21T09:06:39Z</time>
      </trkpt>
      <trkpt lat="42.45162" lon="2.04583">
        <ele>1370.02</ele>
        <time>2015-07-21T09:06:51Z</time>
      </trkpt>
      <trkpt lat="42.45169" lon="2.04589">
        <ele>1370.02</ele>
        <time>2015-07-21T09:06:55Z</time>
      </trkpt>
      <trkpt lat="42.45175" lon="2.04601">
        <ele>1370.02</ele>
        <time>2015-07-21T09:07:02Z</time>
      </trkpt>
      <trkpt lat="42.45179" lon="2.04623">
        <ele>1370.5</ele>
        <time>2015-07-21T09:07:15Z</time>
      </trkpt>
      <trkpt lat="42.45182" lon="2.04636">
        <ele>1370.5</ele>
        <time>2015-07-21T09:07:22Z</time>
      </trkpt>
      <trkpt lat="42.45185" lon="2.04645">
        <ele>1370.5</ele>
        <time>2015-07-21T09:07:26Z</time>
      </trkpt>
      <trkpt lat="42.45191" lon="2.0467">
        <ele>1371.94</ele>
        <time>2015-07-21T09:07:42Z</time>
      </trkpt>
      <trkpt lat="42.45193" lon="2.04679">
        <ele>1370.98</ele>
        <time>2015-07-21T09:07:48Z</time>
      </trkpt>
      <trkpt lat="42.45192" lon="2.04696">
        <ele>1370.5</ele>
        <time>2015-07-21T09:07:55Z</time>
      </trkpt>
      <trkpt lat="42.45191" lon="2.0471">
        <ele>1369.54</ele>
        <time>2015-07-21T09:08:04Z</time>
      </trkpt>
      <trkpt lat="42.45188" lon="2.04723">
        <ele>1369.05</ele>
        <time>2015-07-21T09:08:10Z</time>
      </trkpt>
      <trkpt lat="42.45186" lon="2.04729">
        <ele>1368.57</ele>
        <time>2015-07-21T09:08:15Z</time>
      </trkpt>
      <trkpt lat="42.45186" lon="2.04749">
        <ele>1367.61</ele>
        <time>2015-07-21T09:08:25Z</time>
      </trkpt>
      <trkpt lat="42.45183" lon="2.04756">
        <ele>1367.13</ele>
        <time>2015-07-21T09:08:30Z</time>
      </trkpt>
      <trkpt lat="42.4518" lon="2.04763">
        <ele>1366.17</ele>
        <time>2015-07-21T09:08:34Z</time>
      </trkpt>
      <trkpt lat="42.45178" lon="2.04773">
        <ele>1366.17</ele>
        <time>2015-07-21T09:08:39Z</time>
      </trkpt>
      <trkpt lat="42.45169" lon="2.04794">
        <ele>1365.69</ele>
        <time>2015-07-21T09:08:51Z</time>
      </trkpt>
      <trkpt lat="42.45164" lon="2.04802">
        <ele>1365.69</ele>
        <time>2015-07-21T09:08:56Z</time>
      </trkpt>
      <trkpt lat="42.45162" lon="2.04822">
        <ele>1365.69</ele>
        <time>2015-07-21T09:09:08Z</time>
      </trkpt>
      <trkpt lat="42.45159" lon="2.04832">
        <ele>1365.21</ele>
        <time>2015-07-21T09:09:15Z</time>
      </trkpt>
      <trkpt lat="42.45159" lon="2.04839">
        <ele>1365.69</ele>
        <time>2015-07-21T09:09:19Z</time>
      </trkpt>
      <trkpt lat="42.45159" lon="2.04861">
        <ele>1365.21</ele>
        <time>2015-07-21T09:09:29Z</time>
      </trkpt>
      <trkpt lat="42.4516" lon="2.04869">
        <ele>1365.21</ele>
        <time>2015-07-21T09:09:34Z</time>
      </trkpt>
      <trkpt lat="42.45168" lon="2.04896">
        <ele>1364.25</ele>
        <time>2015-07-21T09:09:47Z</time>
      </trkpt>
      <trkpt lat="42.45168" lon="2.04907">
        <ele>1364.25</ele>
        <time>2015-07-21T09:09:55Z</time>
      </trkpt>
      <trkpt lat="42.45174" lon="2.0493">
        <ele>1364.25</ele>
        <time>2015-07-21T09:10:06Z</time>
      </trkpt>
      <trkpt lat="42.45175" lon="2.04947">
        <ele>1364.25</ele>
        <time>2015-07-21T09:10:16Z</time>
      </trkpt>
      <trkpt lat="42.45175" lon="2.04963">
        <ele>1363.77</ele>
        <time>2015-07-21T09:10:24Z</time>
      </trkpt>
      <trkpt lat="42.45176" lon="2.04976">
        <ele>1364.25</ele>
        <time>2015-07-21T09:10:32Z</time>
      </trkpt>
      <trkpt lat="42.45179" lon="2.04997">
        <ele>1364.25</ele>
        <time>2015-07-21T09:10:45Z</time>
      </trkpt>
      <trkpt lat="42.45179" lon="2.04999">
        <ele>1364.25</ele>
        <time>2015-07-21T09:10:46Z</time>
      </trkpt>
      <trkpt lat="42.45183" lon="2.05013">
        <ele>1364.25</ele>
        <time>2015-07-21T09:10:53Z</time>
      </trkpt>
      <trkpt lat="42.45187" lon="2.05026">
        <ele>1364.25</ele>
        <time>2015-07-21T09:11:01Z</time>
      </trkpt>
      <trkpt lat="42.45189" lon="2.05039">
        <ele>1363.77</ele>
        <time>2015-07-21T09:11:07Z</time>
      </trkpt>
      <trkpt lat="42.4519" lon="2.05044">
        <ele>1363.77</ele>
        <time>2015-07-21T09:11:09Z</time>
      </trkpt>
      <trkpt lat="42.45197" lon="2.05067">
        <ele>1363.29</ele>
        <time>2015-07-21T09:11:22Z</time>
      </trkpt>
      <trkpt lat="42.452" lon="2.05084">
        <ele>1363.29</ele>
        <time>2015-07-21T09:11:30Z</time>
      </trkpt>
      <trkpt lat="42.45202" lon="2.05103">
        <ele>1363.29</ele>
        <time>2015-07-21T09:11:40Z</time>
      </trkpt>
      <trkpt lat="42.45202" lon="2.05106">
        <ele>1362.81</ele>
        <time>2015-07-21T09:11:43Z</time>
      </trkpt>
      <trkpt lat="42.45203" lon="2.05116">
        <ele>1362.81</ele>
        <time>2015-07-21T09:11:48Z</time>
      </trkpt>
      <trkpt lat="42.45207" lon="2.05127">
        <ele>1362.81</ele>
        <time>2015-07-21T09:11:54Z</time>
      </trkpt>
      <trkpt lat="42.45212" lon="2.05151">
        <ele>1363.77</ele>
        <time>2015-07-21T09:12:09Z</time>
      </trkpt>
      <trkpt lat="42.45213" lon="2.05163">
        <ele>1363.77</ele>
        <time>2015-07-21T09:12:16Z</time>
      </trkpt>
      <trkpt lat="42.45219" lon="2.0518">
        <ele>1363.77</ele>
        <time>2015-07-21T09:12:26Z</time>
      </trkpt>
      <trkpt lat="42.45222" lon="2.05206">
        <ele>1364.25</ele>
        <time>2015-07-21T09:12:40Z</time>
      </trkpt>
      <trkpt lat="42.45225" lon="2.05218">
        <ele>1364.25</ele>
        <time>2015-07-21T09:12:46Z</time>
      </trkpt>
      <trkpt lat="42.45221" lon="2.05237">
        <ele>1364.25</ele>
        <time>2015-07-21T09:12:55Z</time>
      </trkpt>
      <trkpt lat="42.4522" lon="2.05252">
        <ele>1363.77</ele>
        <time>2015-07-21T09:13:04Z</time>
      </trkpt>
      <trkpt lat="42.4522" lon="2.05263">
        <ele>1363.77</ele>
        <time>2015-07-21T09:13:09Z</time>
      </trkpt>
      <trkpt lat="42.45219" lon="2.05275">
        <ele>1363.29</ele>
        <time>2015-07-21T09:13:17Z</time>
      </trkpt>
      <trkpt lat="42.45218" lon="2.05278">
        <ele>1363.77</ele>
        <time>2015-07-21T09:13:19Z</time>
      </trkpt>
      <trkpt lat="42.45211" lon="2.05302">
        <ele>1362.81</ele>
        <time>2015-07-21T09:13:32Z</time>
      </trkpt>
      <trkpt lat="42.45206" lon="2.05324">
        <ele>1361.84</ele>
        <time>2015-07-21T09:13:45Z</time>
      </trkpt>
      <trkpt lat="42.45198" lon="2.05347">
        <ele>1363.29</ele>
        <time>2015-07-21T09:13:56Z</time>
      </trkpt>
      <trkpt lat="42.45198" lon="2.05351">
        <ele>1363.29</ele>
        <time>2015-07-21T09:13:59Z</time>
      </trkpt>
      <trkpt lat="42.45196" lon="2.05374">
        <ele>1362.81</ele>
        <time>2015-07-21T09:14:11Z</time>
      </trkpt>
      <trkpt lat="42.45192" lon="2.054">
        <ele>1362.33</ele>
        <time>2015-07-21T09:14:25Z</time>
      </trkpt>
      <trkpt lat="42.45191" lon="2.05405">
        <ele>1362.81</ele>
        <time>2015-07-21T09:14:27Z</time>
      </trkpt>
      <trkpt lat="42.45191" lon="2.05423">
        <ele>1362.33</ele>
        <time>2015-07-21T09:14:39Z</time>
      </trkpt>
      <trkpt lat="42.45191" lon="2.05425">
        <ele>1362.81</ele>
        <time>2015-07-21T09:14:40Z</time>
      </trkpt>
      <trkpt lat="42.45192" lon="2.05435">
        <ele>1361.84</ele>
        <time>2015-07-21T09:14:44Z</time>
      </trkpt>
      <trkpt lat="42.45189" lon="2.05451">
        <ele>1363.29</ele>
        <time>2015-07-21T09:14:55Z</time>
      </trkpt>
      <trkpt lat="42.45185" lon="2.05463">
        <ele>1363.29</ele>
        <time>2015-07-21T09:15:00Z</time>
      </trkpt>
      <trkpt lat="42.45181" lon="2.05491">
        <ele>1362.81</ele>
        <time>2015-07-21T09:15:16Z</time>
      </trkpt>
      <trkpt lat="42.45176" lon="2.05514">
        <ele>1363.29</ele>
        <time>2015-07-21T09:15:30Z</time>
      </trkpt>
      <trkpt lat="42.45177" lon="2.05518">
        <ele>1363.77</ele>
        <time>2015-07-21T09:15:33Z</time>
      </trkpt>
      <trkpt lat="42.45172" lon="2.05535">
        <ele>1364.25</ele>
        <time>2015-07-21T09:15:46Z</time>
      </trkpt>
      <trkpt lat="42.45171" lon="2.05541">
        <ele>1359.92</ele>
        <time>2015-07-21T09:15:58Z</time>
      </trkpt>
      <trkpt lat="42.45171" lon="2.05541">
        <ele>1363.29</ele>
        <time>2015-07-21T09:15:59Z</time>
      </trkpt>
      <trkpt lat="42.4517" lon="2.0554">
        <ele>1363.77</ele>
        <time>2015-07-21T09:16:23Z</time>
      </trkpt>
      <trkpt lat="42.4517" lon="2.05542">
        <ele>1363.77</ele>
        <time>2015-07-21T09:16:45Z</time>
      </trkpt>
      <trkpt lat="42.45166" lon="2.0556">
        <ele>1364.25</ele>
        <time>2015-07-21T09:16:55Z</time>
      </trkpt>
      <trkpt lat="42.45166" lon="2.05585">
        <ele>1364.73</ele>
        <time>2015-07-21T09:17:08Z</time>
      </trkpt>
      <trkpt lat="42.45168" lon="2.05589">
        <ele>1364.73</ele>
        <time>2015-07-21T09:17:22Z</time>
      </trkpt>
      <trkpt lat="42.45168" lon="2.05588">
        <ele>1364.25</ele>
        <time>2015-07-21T09:17:44Z</time>
      </trkpt>
      <trkpt lat="42.45166" lon="2.05588">
        <ele>1364.25</ele>
        <time>2015-07-21T09:18:12Z</time>
      </trkpt>
      <trkpt lat="42.45166" lon="2.05588">
        <ele>1364.25</ele>
        <time>2015-07-21T09:18:32Z</time>
      </trkpt>
      <trkpt lat="42.45166" lon="2.05599">
        <ele>1364.73</ele>
        <time>2015-07-21T09:18:44Z</time>
      </trkpt>
      <trkpt lat="42.45169" lon="2.05619">
        <ele>1365.21</ele>
        <time>2015-07-21T09:18:55Z</time>
      </trkpt>
      <trkpt lat="42.45171" lon="2.05643">
        <ele>1365.69</ele>
        <time>2015-07-21T09:19:10Z</time>
      </trkpt>
      <trkpt lat="42.45163" lon="2.05659">
        <ele>1366.17</ele>
        <time>2015-07-21T09:19:23Z</time>
      </trkpt>
      <trkpt lat="42.45158" lon="2.05676">
        <ele>1366.65</ele>
        <time>2015-07-21T09:19:36Z</time>
      </trkpt>
      <trkpt lat="42.45158" lon="2.05679">
        <ele>1366.65</ele>
        <time>2015-07-21T09:19:59Z</time>
      </trkpt>
      <trkpt lat="42.45155" lon="2.05696">
        <ele>1367.61</ele>
        <time>2015-07-21T09:20:12Z</time>
      </trkpt>
      <trkpt lat="42.45155" lon="2.05722">
        <ele>1367.61</ele>
        <time>2015-07-21T09:20:26Z</time>
      </trkpt>
      <trkpt lat="42.45156" lon="2.05723">
        <ele>1368.57</ele>
        <time>2015-07-21T09:20:27Z</time>
      </trkpt>
      <trkpt lat="42.45161" lon="2.05745">
        <ele>1368.09</ele>
        <time>2015-07-21T09:20:39Z</time>
      </trkpt>
      <trkpt lat="42.4516" lon="2.05764">
        <ele>1367.13</ele>
        <time>2015-07-21T09:20:55Z</time>
      </trkpt>
      <trkpt lat="42.45161" lon="2.05764">
        <ele>1367.61</ele>
        <time>2015-07-21T09:21:13Z</time>
      </trkpt>
      <trkpt lat="42.45161" lon="2.05764">
        <ele>1367.61</ele>
        <time>2015-07-21T09:21:42Z</time>
      </trkpt>
      <trkpt lat="42.45162" lon="2.05763">
        <ele>1367.61</ele>
        <time>2015-07-21T09:22:14Z</time>
      </trkpt>
      <trkpt lat="42.45159" lon="2.05769">
        <ele>1367.13</ele>
        <time>2015-07-21T09:22:33Z</time>
      </trkpt>
      <trkpt lat="42.45156" lon="2.05787">
        <ele>1365.69</ele>
        <time>2015-07-21T09:22:47Z</time>
      </trkpt>
      <trkpt lat="42.45159" lon="2.05805">
        <ele>1365.69</ele>
        <time>2015-07-21T09:23:01Z</time>
      </trkpt>
      <trkpt lat="42.4516" lon="2.05813">
        <ele>1365.69</ele>
        <time>2015-07-21T09:23:07Z</time>
      </trkpt>
      <trkpt lat="42.45162" lon="2.05824">
        <ele>1365.69</ele>
        <time>2015-07-21T09:23:11Z</time>
      </trkpt>
      <trkpt lat="42.45168" lon="2.05846">
        <ele>1366.65</ele>
        <time>2015-07-21T09:23:24Z</time>
      </trkpt>
      <trkpt lat="42.4518" lon="2.05856">
        <ele>1368.09</ele>
        <time>2015-07-21T09:23:35Z</time>
      </trkpt>
      <trkpt lat="42.45189" lon="2.05866">
        <ele>1369.05</ele>
        <time>2015-07-21T09:23:43Z</time>
      </trkpt>
      <trkpt lat="42.45198" lon="2.05886">
        <ele>1370.98</ele>
        <time>2015-07-21T09:24:00Z</time>
      </trkpt>
      <trkpt lat="42.4521" lon="2.05905">
        <ele>1373.38</ele>
        <time>2015-07-21T09:24:16Z</time>
      </trkpt>
      <trkpt lat="42.45225" lon="2.05926">
        <ele>1375.3</ele>
        <time>2015-07-21T09:24:33Z</time>
      </trkpt>
      <trkpt lat="42.45232" lon="2.0594">
        <ele>1376.75</ele>
        <time>2015-07-21T09:24:43Z</time>
      </trkpt>
      <trkpt lat="42.45236" lon="2.05945">
        <ele>1377.71</ele>
        <time>2015-07-21T09:24:47Z</time>
      </trkpt>
      <trkpt lat="42.4524" lon="2.05953">
        <ele>1378.19</ele>
        <time>2015-07-21T09:24:53Z</time>
      </trkpt>
      <trkpt lat="42.4524" lon="2.05968">
        <ele>1379.63</ele>
        <time>2015-07-21T09:25:03Z</time>
      </trkpt>
      <trkpt lat="42.45239" lon="2.05987">
        <ele>1381.07</ele>
        <time>2015-07-21T09:25:21Z</time>
      </trkpt>
      <trkpt lat="42.4524" lon="2.05982">
        <ele>1382.03</ele>
        <time>2015-07-21T09:25:34Z</time>
      </trkpt>
      <trkpt lat="42.4525" lon="2.05977">
        <ele>1382.03</ele>
        <time>2015-07-21T09:25:47Z</time>
      </trkpt>
      <trkpt lat="42.45252" lon="2.05976">
        <ele>1382.51</ele>
        <time>2015-07-21T09:26:05Z</time>
      </trkpt>
      <trkpt lat="42.45238" lon="2.05993">
        <ele>1382.51</ele>
        <time>2015-07-21T09:26:20Z</time>
      </trkpt>
      <trkpt lat="42.45227" lon="2.06005">
        <ele>1382.99</ele>
        <time>2015-07-21T09:26:30Z</time>
      </trkpt>
      <trkpt lat="42.45219" lon="2.0602">
        <ele>1383.96</ele>
        <time>2015-07-21T09:26:43Z</time>
      </trkpt>
      <trkpt lat="42.45215" lon="2.06031">
        <ele>1384.44</ele>
        <time>2015-07-21T09:26:50Z</time>
      </trkpt>
      <trkpt lat="42.45208" lon="2.06037">
        <ele>1383.96</ele>
        <time>2015-07-21T09:26:55Z</time>
      </trkpt>
      <trkpt lat="42.45196" lon="2.06058">
        <ele>1385.88</ele>
        <time>2015-07-21T09:27:09Z</time>
      </trkpt>
      <trkpt lat="42.45191" lon="2.06083">
        <ele>1385.4</ele>
        <time>2015-07-21T09:27:23Z</time>
      </trkpt>
      <trkpt lat="42.45187" lon="2.06105">
        <ele>1386.36</ele>
        <time>2015-07-21T09:27:34Z</time>
      </trkpt>
      <trkpt lat="42.45179" lon="2.0612">
        <ele>1386.84</ele>
        <time>2015-07-21T09:27:44Z</time>
      </trkpt>
      <trkpt lat="42.45178" lon="2.06121">
        <ele>1386.84</ele>
        <time>2015-07-21T09:27:45Z</time>
      </trkpt>
      <trkpt lat="42.45167" lon="2.06132">
        <ele>1386.84</ele>
        <time>2015-07-21T09:27:56Z</time>
      </trkpt>
      <trkpt lat="42.45163" lon="2.06139">
        <ele>1387.32</ele>
        <time>2015-07-21T09:28:00Z</time>
      </trkpt>
      <trkpt lat="42.45159" lon="2.06145">
        <ele>1386.84</ele>
        <time>2015-07-21T09:28:04Z</time>
      </trkpt>
      <trkpt lat="42.45152" lon="2.06161">
        <ele>1387.32</ele>
        <time>2015-07-21T09:28:15Z</time>
      </trkpt>
      <trkpt lat="42.45141" lon="2.06166">
        <ele>1387.8</ele>
        <time>2015-07-21T09:28:23Z</time>
      </trkpt>
      <trkpt lat="42.45135" lon="2.06163">
        <ele>1387.32</ele>
        <time>2015-07-21T09:28:27Z</time>
      </trkpt>
      <trkpt lat="42.45125" lon="2.06138">
        <ele>1385.88</ele>
        <time>2015-07-21T09:28:42Z</time>
      </trkpt>
      <trkpt lat="42.45128" lon="2.06144">
        <ele>1386.36</ele>
        <time>2015-07-21T09:28:54Z</time>
      </trkpt>
      <trkpt lat="42.4513" lon="2.06147">
        <ele>1386.36</ele>
        <time>2015-07-21T09:28:57Z</time>
      </trkpt>
      <trkpt lat="42.45134" lon="2.06154">
        <ele>1386.84</ele>
        <time>2015-07-21T09:29:04Z</time>
      </trkpt>
      <trkpt lat="42.45136" lon="2.06156">
        <ele>1387.32</ele>
        <time>2015-07-21T09:29:06Z</time>
      </trkpt>
      <trkpt lat="42.45141" lon="2.06168">
        <ele>1388.28</ele>
        <time>2015-07-21T09:29:15Z</time>
      </trkpt>
      <trkpt lat="42.45133" lon="2.06185">
        <ele>1389.72</ele>
        <time>2015-07-21T09:29:27Z</time>
      </trkpt>
      <trkpt lat="42.45125" lon="2.0619">
        <ele>1390.2</ele>
        <time>2015-07-21T09:29:34Z</time>
      </trkpt>
      <trkpt lat="42.45111" lon="2.06194">
        <ele>1391.65</ele>
        <time>2015-07-21T09:29:49Z</time>
      </trkpt>
      <trkpt lat="42.45107" lon="2.06197">
        <ele>1391.65</ele>
        <time>2015-07-21T09:30:04Z</time>
      </trkpt>
      <trkpt lat="42.45106" lon="2.062">
        <ele>1392.61</ele>
        <time>2015-07-21T09:30:15Z</time>
      </trkpt>
      <trkpt lat="42.45104" lon="2.06202">
        <ele>1392.13</ele>
        <time>2015-07-21T09:30:17Z</time>
      </trkpt>
      <trkpt lat="42.45099" lon="2.06206">
        <ele>1393.09</ele>
        <time>2015-07-21T09:30:22Z</time>
      </trkpt>
      <trkpt lat="42.45088" lon="2.06225">
        <ele>1395.01</ele>
        <time>2015-07-21T09:30:36Z</time>
      </trkpt>
      <trkpt lat="42.45084" lon="2.06237">
        <ele>1396.45</ele>
        <time>2015-07-21T09:30:45Z</time>
      </trkpt>
      <trkpt lat="42.45079" lon="2.06254">
        <ele>1397.89</ele>
        <time>2015-07-21T09:30:58Z</time>
      </trkpt>
      <trkpt lat="42.45073" lon="2.06266">
        <ele>1400.3</ele>
        <time>2015-07-21T09:31:09Z</time>
      </trkpt>
      <trkpt lat="42.45072" lon="2.0628">
        <ele>1400.78</ele>
        <time>2015-07-21T09:31:19Z</time>
      </trkpt>
      <trkpt lat="42.45077" lon="2.06293">
        <ele>1402.22</ele>
        <time>2015-07-21T09:31:29Z</time>
      </trkpt>
      <trkpt lat="42.45081" lon="2.06304">
        <ele>1402.7</ele>
        <time>2015-07-21T09:31:37Z</time>
      </trkpt>
      <trkpt lat="42.45083" lon="2.06326">
        <ele>1405.58</ele>
        <time>2015-07-21T09:31:53Z</time>
      </trkpt>
      <trkpt lat="42.45083" lon="2.06335">
        <ele>1406.55</ele>
        <time>2015-07-21T09:31:59Z</time>
      </trkpt>
      <trkpt lat="42.45082" lon="2.06359">
        <ele>1408.95</ele>
        <time>2015-07-21T09:32:13Z</time>
      </trkpt>
      <trkpt lat="42.45076" lon="2.06377">
        <ele>1410.87</ele>
        <time>2015-07-21T09:32:26Z</time>
      </trkpt>
      <trkpt lat="42.45075" lon="2.06378">
        <ele>1410.87</ele>
        <time>2015-07-21T09:32:27Z</time>
      </trkpt>
      <trkpt lat="42.45055" lon="2.06388">
        <ele>1412.31</ele>
        <time>2015-07-21T09:32:42Z</time>
      </trkpt>
      <trkpt lat="42.45042" lon="2.06399">
        <ele>1413.28</ele>
        <time>2015-07-21T09:32:53Z</time>
      </trkpt>
      <trkpt lat="42.45032" lon="2.06409">
        <ele>1414.24</ele>
        <time>2015-07-21T09:33:03Z</time>
      </trkpt>
      <trkpt lat="42.45024" lon="2.06417">
        <ele>1415.68</ele>
        <time>2015-07-21T09:33:12Z</time>
      </trkpt>
      <trkpt lat="42.45013" lon="2.06434">
        <ele>1416.64</ele>
        <time>2015-07-21T09:33:26Z</time>
      </trkpt>
      <trkpt lat="42.45009" lon="2.06438">
        <ele>1417.6</ele>
        <time>2015-07-21T09:33:31Z</time>
      </trkpt>
      <trkpt lat="42.44998" lon="2.06446">
        <ele>1418.08</ele>
        <time>2015-07-21T09:33:39Z</time>
      </trkpt>
      <trkpt lat="42.4499" lon="2.06457">
        <ele>1419.04</ele>
        <time>2015-07-21T09:33:48Z</time>
      </trkpt>
      <trkpt lat="42.44977" lon="2.06474">
        <ele>1419.04</ele>
        <time>2015-07-21T09:34:01Z</time>
      </trkpt>
      <trkpt lat="42.44971" lon="2.06484">
        <ele>1420</ele>
        <time>2015-07-21T09:34:09Z</time>
      </trkpt>
      <trkpt lat="42.44967" lon="2.06489">
        <ele>1420.49</ele>
        <time>2015-07-21T09:34:13Z</time>
      </trkpt>
      <trkpt lat="42.44965" lon="2.06495">
        <ele>1420.49</ele>
        <time>2015-07-21T09:34:16Z</time>
      </trkpt>
      <trkpt lat="42.44959" lon="2.06507">
        <ele>1421.45</ele>
        <time>2015-07-21T09:34:24Z</time>
      </trkpt>
      <trkpt lat="42.44961" lon="2.06517">
        <ele>1421.93</ele>
        <time>2015-07-21T09:34:29Z</time>
      </trkpt>
      <trkpt lat="42.44961" lon="2.06526">
        <ele>1422.41</ele>
        <time>2015-07-21T09:34:35Z</time>
      </trkpt>
      <trkpt lat="42.44958" lon="2.06549">
        <ele>1423.85</ele>
        <time>2015-07-21T09:34:48Z</time>
      </trkpt>
      <trkpt lat="42.44954" lon="2.06557">
        <ele>1424.33</ele>
        <time>2015-07-21T09:34:53Z</time>
      </trkpt>
      <trkpt lat="42.44943" lon="2.06582">
        <ele>1426.73</ele>
        <time>2015-07-21T09:35:10Z</time>
      </trkpt>
      <trkpt lat="42.44938" lon="2.0659">
        <ele>1427.7</ele>
        <time>2015-07-21T09:35:17Z</time>
      </trkpt>
      <trkpt lat="42.44935" lon="2.06597">
        <ele>1427.7</ele>
        <time>2015-07-21T09:35:21Z</time>
      </trkpt>
      <trkpt lat="42.4493" lon="2.06607">
        <ele>1429.14</ele>
        <time>2015-07-21T09:35:28Z</time>
      </trkpt>
      <trkpt lat="42.44925" lon="2.06631">
        <ele>1430.58</ele>
        <time>2015-07-21T09:35:41Z</time>
      </trkpt>
      <trkpt lat="42.44922" lon="2.06653">
        <ele>1431.54</ele>
        <time>2015-07-21T09:35:55Z</time>
      </trkpt>
      <trkpt lat="42.44923" lon="2.06657">
        <ele>1432.5</ele>
        <time>2015-07-21T09:35:57Z</time>
      </trkpt>
      <trkpt lat="42.44922" lon="2.06662">
        <ele>1432.02</ele>
        <time>2015-07-21T09:36:00Z</time>
      </trkpt>
      <trkpt lat="42.44919" lon="2.06669">
        <ele>1432.98</ele>
        <time>2015-07-21T09:36:04Z</time>
      </trkpt>
      <trkpt lat="42.44919" lon="2.06674">
        <ele>1432.5</ele>
        <time>2015-07-21T09:36:08Z</time>
      </trkpt>
      <trkpt lat="42.44918" lon="2.06677">
        <ele>1432.98</ele>
        <time>2015-07-21T09:36:10Z</time>
      </trkpt>
      <trkpt lat="42.44917" lon="2.0668">
        <ele>1432.98</ele>
        <time>2015-07-21T09:36:12Z</time>
      </trkpt>
      <trkpt lat="42.4492" lon="2.06702">
        <ele>1433.46</ele>
        <time>2015-07-21T09:36:24Z</time>
      </trkpt>
      <trkpt lat="42.4491" lon="2.0672">
        <ele>1434.91</ele>
        <time>2015-07-21T09:36:36Z</time>
      </trkpt>
      <trkpt lat="42.44908" lon="2.06722">
        <ele>1434.91</ele>
        <time>2015-07-21T09:36:38Z</time>
      </trkpt>
      <trkpt lat="42.44906" lon="2.06723">
        <ele>1434.91</ele>
        <time>2015-07-21T09:36:40Z</time>
      </trkpt>
      <trkpt lat="42.449" lon="2.06732">
        <ele>1435.87</ele>
        <time>2015-07-21T09:36:45Z</time>
      </trkpt>
      <trkpt lat="42.44893" lon="2.06741">
        <ele>1436.35</ele>
        <time>2015-07-21T09:36:51Z</time>
      </trkpt>
      <trkpt lat="42.4489" lon="2.06754">
        <ele>1437.31</ele>
        <time>2015-07-21T09:36:58Z</time>
      </trkpt>
      <trkpt lat="42.4489" lon="2.06762">
        <ele>1437.79</ele>
        <time>2015-07-21T09:37:02Z</time>
      </trkpt>
      <trkpt lat="42.44891" lon="2.0677">
        <ele>1438.27</ele>
        <time>2015-07-21T09:37:07Z</time>
      </trkpt>
      <trkpt lat="42.4489" lon="2.06774">
        <ele>1438.27</ele>
        <time>2015-07-21T09:37:09Z</time>
      </trkpt>
      <trkpt lat="42.44887" lon="2.068">
        <ele>1440.19</ele>
        <time>2015-07-21T09:37:23Z</time>
      </trkpt>
      <trkpt lat="42.44886" lon="2.06808">
        <ele>1440.67</ele>
        <time>2015-07-21T09:37:28Z</time>
      </trkpt>
      <trkpt lat="42.44883" lon="2.06824">
        <ele>1442.11</ele>
        <time>2015-07-21T09:37:38Z</time>
      </trkpt>
      <trkpt lat="42.44882" lon="2.06827">
        <ele>1442.6</ele>
        <time>2015-07-21T09:37:40Z</time>
      </trkpt>
      <trkpt lat="42.44879" lon="2.06839">
        <ele>1443.08</ele>
        <time>2015-07-21T09:37:48Z</time>
      </trkpt>
      <trkpt lat="42.44878" lon="2.06848">
        <ele>1443.56</ele>
        <time>2015-07-21T09:37:53Z</time>
      </trkpt>
      <trkpt lat="42.44878" lon="2.0685">
        <ele>1443.56</ele>
        <time>2015-07-21T09:37:54Z</time>
      </trkpt>
      <trkpt lat="42.44874" lon="2.06858">
        <ele>1443.56</ele>
        <time>2015-07-21T09:38:01Z</time>
      </trkpt>
      <trkpt lat="42.44878" lon="2.06868">
        <ele>1444.04</ele>
        <time>2015-07-21T09:38:06Z</time>
      </trkpt>
      <trkpt lat="42.44882" lon="2.06891">
        <ele>1445</ele>
        <time>2015-07-21T09:38:18Z</time>
      </trkpt>
      <trkpt lat="42.44883" lon="2.06894">
        <ele>1445.48</ele>
        <time>2015-07-21T09:38:21Z</time>
      </trkpt>
      <trkpt lat="42.44888" lon="2.06918">
        <ele>1446.92</ele>
        <time>2015-07-21T09:38:34Z</time>
      </trkpt>
      <trkpt lat="42.44888" lon="2.0693">
        <ele>1447.88</ele>
        <time>2015-07-21T09:38:40Z</time>
      </trkpt>
      <trkpt lat="42.44889" lon="2.06935">
        <ele>1448.36</ele>
        <time>2015-07-21T09:38:43Z</time>
      </trkpt>
      <trkpt lat="42.44885" lon="2.06948">
        <ele>1448.84</ele>
        <time>2015-07-21T09:38:49Z</time>
      </trkpt>
      <trkpt lat="42.44879" lon="2.06959">
        <ele>1448.84</ele>
        <time>2015-07-21T09:38:59Z</time>
      </trkpt>
      <trkpt lat="42.44871" lon="2.06968">
        <ele>1449.81</ele>
        <time>2015-07-21T09:39:09Z</time>
      </trkpt>
      <trkpt lat="42.44862" lon="2.06976">
        <ele>1451.73</ele>
        <time>2015-07-21T09:39:19Z</time>
      </trkpt>
      <trkpt lat="42.44846" lon="2.06993">
        <ele>1452.69</ele>
        <time>2015-07-21T09:39:33Z</time>
      </trkpt>
      <trkpt lat="42.44839" lon="2.07011">
        <ele>1453.65</ele>
        <time>2015-07-21T09:39:44Z</time>
      </trkpt>
      <trkpt lat="42.44839" lon="2.07015">
        <ele>1454.13</ele>
        <time>2015-07-21T09:39:46Z</time>
      </trkpt>
      <trkpt lat="42.44838" lon="2.0704">
        <ele>1455.09</ele>
        <time>2015-07-21T09:39:59Z</time>
      </trkpt>
      <trkpt lat="42.44838" lon="2.07063">
        <ele>1456.05</ele>
        <time>2015-07-21T09:40:10Z</time>
      </trkpt>
      <trkpt lat="42.44835" lon="2.07084">
        <ele>1457.02</ele>
        <time>2015-07-21T09:40:22Z</time>
      </trkpt>
      <trkpt lat="42.44834" lon="2.07085">
        <ele>1457.5</ele>
        <time>2015-07-21T09:40:23Z</time>
      </trkpt>
      <trkpt lat="42.44821" lon="2.07101">
        <ele>1457.98</ele>
        <time>2015-07-21T09:40:37Z</time>
      </trkpt>
      <trkpt lat="42.4481" lon="2.07111">
        <ele>1458.94</ele>
        <time>2015-07-21T09:40:48Z</time>
      </trkpt>
      <trkpt lat="42.44796" lon="2.0712">
        <ele>1460.38</ele>
        <time>2015-07-21T09:41:01Z</time>
      </trkpt>
      <trkpt lat="42.44793" lon="2.07123">
        <ele>1459.9</ele>
        <time>2015-07-21T09:41:04Z</time>
      </trkpt>
      <trkpt lat="42.44778" lon="2.0714">
        <ele>1461.34</ele>
        <time>2015-07-21T09:41:18Z</time>
      </trkpt>
      <trkpt lat="42.44769" lon="2.07165">
        <ele>1462.78</ele>
        <time>2015-07-21T09:41:32Z</time>
      </trkpt>
      <trkpt lat="42.44769" lon="2.07175">
        <ele>1463.26</ele>
        <time>2015-07-21T09:41:38Z</time>
      </trkpt>
      <trkpt lat="42.44781" lon="2.07196">
        <ele>1465.19</ele>
        <time>2015-07-21T09:41:51Z</time>
      </trkpt>
      <trkpt lat="42.44791" lon="2.07213">
        <ele>1466.15</ele>
        <time>2015-07-21T09:42:04Z</time>
      </trkpt>
      <trkpt lat="42.44793" lon="2.07233">
        <ele>1467.59</ele>
        <time>2015-07-21T09:42:15Z</time>
      </trkpt>
      <trkpt lat="42.44788" lon="2.07243">
        <ele>1467.11</ele>
        <time>2015-07-21T09:42:32Z</time>
      </trkpt>
      <trkpt lat="42.44782" lon="2.07244">
        <ele>1467.59</ele>
        <time>2015-07-21T09:42:51Z</time>
      </trkpt>
      <trkpt lat="42.44778" lon="2.07244">
        <ele>1468.07</ele>
        <time>2015-07-21T09:42:54Z</time>
      </trkpt>
      <trkpt lat="42.44761" lon="2.07237">
        <ele>1469.03</ele>
        <time>2015-07-21T09:43:06Z</time>
      </trkpt>
      <trkpt lat="42.44745" lon="2.07233">
        <ele>1469.51</ele>
        <time>2015-07-21T09:43:18Z</time>
      </trkpt>
      <trkpt lat="42.44744" lon="2.07232">
        <ele>1469.51</ele>
        <time>2015-07-21T09:43:20Z</time>
      </trkpt>
      <trkpt lat="42.44733" lon="2.07226">
        <ele>1469.99</ele>
        <time>2015-07-21T09:43:33Z</time>
      </trkpt>
      <trkpt lat="42.44732" lon="2.07225">
        <ele>1469.99</ele>
        <time>2015-07-21T09:43:54Z</time>
      </trkpt>
      <trkpt lat="42.44729" lon="2.07227">
        <ele>1470.47</ele>
        <time>2015-07-21T09:44:08Z</time>
      </trkpt>
      <trkpt lat="42.44729" lon="2.07227">
        <ele>1469.99</ele>
        <time>2015-07-21T09:44:13Z</time>
      </trkpt>
      <trkpt lat="42.44725" lon="2.07224">
        <ele>1470.47</ele>
        <time>2015-07-21T09:44:19Z</time>
      </trkpt>
      <trkpt lat="42.44708" lon="2.07217">
        <ele>1471.92</ele>
        <time>2015-07-21T09:44:32Z</time>
      </trkpt>
      <trkpt lat="42.44699" lon="2.07214">
        <ele>1471.92</ele>
        <time>2015-07-21T09:44:39Z</time>
      </trkpt>
      <trkpt lat="42.44693" lon="2.07209">
        <ele>1473.36</ele>
        <time>2015-07-21T09:44:46Z</time>
      </trkpt>
      <trkpt lat="42.44683" lon="2.07194">
        <ele>1474.32</ele>
        <time>2015-07-21T09:44:59Z</time>
      </trkpt>
      <trkpt lat="42.44674" lon="2.07185">
        <ele>1476.24</ele>
        <time>2015-07-21T09:45:09Z</time>
      </trkpt>
      <trkpt lat="42.44667" lon="2.07179">
        <ele>1476.24</ele>
        <time>2015-07-21T09:45:16Z</time>
      </trkpt>
      <trkpt lat="42.44663" lon="2.07177">
        <ele>1476.72</ele>
        <time>2015-07-21T09:45:19Z</time>
      </trkpt>
      <trkpt lat="42.44657" lon="2.07171">
        <ele>1476.72</ele>
        <time>2015-07-21T09:45:25Z</time>
      </trkpt>
      <trkpt lat="42.44651" lon="2.07169">
        <ele>1477.2</ele>
        <time>2015-07-21T09:45:30Z</time>
      </trkpt>
      <trkpt lat="42.44647" lon="2.07164">
        <ele>1477.68</ele>
        <time>2015-07-21T09:45:33Z</time>
      </trkpt>
      <trkpt lat="42.44636" lon="2.07152">
        <ele>1477.68</ele>
        <time>2015-07-21T09:45:45Z</time>
      </trkpt>
      <trkpt lat="42.44627" lon="2.07144">
        <ele>1477.68</ele>
        <time>2015-07-21T09:45:53Z</time>
      </trkpt>
      <trkpt lat="42.4461" lon="2.07139">
        <ele>1480.09</ele>
        <time>2015-07-21T09:46:07Z</time>
      </trkpt>
      <trkpt lat="42.44609" lon="2.07141">
        <ele>1480.09</ele>
        <time>2015-07-21T09:46:09Z</time>
      </trkpt>
      <trkpt lat="42.44596" lon="2.07158">
        <ele>1481.05</ele>
        <time>2015-07-21T09:46:21Z</time>
      </trkpt>
      <trkpt lat="42.44589" lon="2.07165">
        <ele>1481.53</ele>
        <time>2015-07-21T09:46:27Z</time>
      </trkpt>
      <trkpt lat="42.44572" lon="2.0718">
        <ele>1482.49</ele>
        <time>2015-07-21T09:46:42Z</time>
      </trkpt>
      <trkpt lat="42.44563" lon="2.07187">
        <ele>1483.93</ele>
        <time>2015-07-21T09:46:50Z</time>
      </trkpt>
      <trkpt lat="42.44559" lon="2.07191">
        <ele>1482.97</ele>
        <time>2015-07-21T09:46:54Z</time>
      </trkpt>
      <trkpt lat="42.44543" lon="2.07207">
        <ele>1483.93</ele>
        <time>2015-07-21T09:47:08Z</time>
      </trkpt>
      <trkpt lat="42.44536" lon="2.07225">
        <ele>1485.37</ele>
        <time>2015-07-21T09:47:21Z</time>
      </trkpt>
      <trkpt lat="42.44536" lon="2.07231">
        <ele>1484.89</ele>
        <time>2015-07-21T09:47:25Z</time>
      </trkpt>
      <trkpt lat="42.44532" lon="2.07259">
        <ele>1485.85</ele>
        <time>2015-07-21T09:47:43Z</time>
      </trkpt>
      <trkpt lat="42.44531" lon="2.07267">
        <ele>1486.82</ele>
        <time>2015-07-21T09:47:48Z</time>
      </trkpt>
      <trkpt lat="42.44527" lon="2.07294">
        <ele>1488.74</ele>
        <time>2015-07-21T09:48:04Z</time>
      </trkpt>
      <trkpt lat="42.44538" lon="2.07301">
        <ele>1489.22</ele>
        <time>2015-07-21T09:48:17Z</time>
      </trkpt>
      <trkpt lat="42.44554" lon="2.07321">
        <ele>1490.66</ele>
        <time>2015-07-21T09:48:25Z</time>
      </trkpt>
      <trkpt lat="42.44563" lon="2.07342">
        <ele>1491.62</ele>
        <time>2015-07-21T09:48:38Z</time>
      </trkpt>
      <trkpt lat="42.44567" lon="2.07365">
        <ele>1493.55</ele>
        <time>2015-07-21T09:48:50Z</time>
      </trkpt>
      <trkpt lat="42.4457" lon="2.07395">
        <ele>1494.99</ele>
        <time>2015-07-21T09:49:05Z</time>
      </trkpt>
      <trkpt lat="42.4457" lon="2.07398">
        <ele>1494.99</ele>
        <time>2015-07-21T09:49:07Z</time>
      </trkpt>
      <trkpt lat="42.44566" lon="2.07417">
        <ele>1495.47</ele>
        <time>2015-07-21T09:49:16Z</time>
      </trkpt>
      <trkpt lat="42.44565" lon="2.07419">
        <ele>1496.43</ele>
        <time>2015-07-21T09:49:18Z</time>
      </trkpt>
      <trkpt lat="42.4456" lon="2.0743">
        <ele>1496.91</ele>
        <time>2015-07-21T09:49:25Z</time>
      </trkpt>
      <trkpt lat="42.44546" lon="2.07449">
        <ele>1498.35</ele>
        <time>2015-07-21T09:49:39Z</time>
      </trkpt>
      <trkpt lat="42.44532" lon="2.07466">
        <ele>1499.31</ele>
        <time>2015-07-21T09:49:53Z</time>
      </trkpt>
      <trkpt lat="42.4453" lon="2.07468">
        <ele>1500.27</ele>
        <time>2015-07-21T09:49:56Z</time>
      </trkpt>
      <trkpt lat="42.44526" lon="2.07471">
        <ele>1500.27</ele>
        <time>2015-07-21T09:49:59Z</time>
      </trkpt>
      <trkpt lat="42.44522" lon="2.07478">
        <ele>1501.24</ele>
        <time>2015-07-21T09:50:06Z</time>
      </trkpt>
      <trkpt lat="42.44512" lon="2.07494">
        <ele>1501.24</ele>
        <time>2015-07-21T09:50:19Z</time>
      </trkpt>
      <trkpt lat="42.44512" lon="2.07495">
        <ele>1501.24</ele>
        <time>2015-07-21T09:50:20Z</time>
      </trkpt>
      <trkpt lat="42.44502" lon="2.07515">
        <ele>1502.2</ele>
        <time>2015-07-21T09:50:36Z</time>
      </trkpt>
      <trkpt lat="42.44487" lon="2.07537">
        <ele>1503.64</ele>
        <time>2015-07-21T09:50:51Z</time>
      </trkpt>
      <trkpt lat="42.4447" lon="2.07548">
        <ele>1504.6</ele>
        <time>2015-07-21T09:51:05Z</time>
      </trkpt>
      <trkpt lat="42.44454" lon="2.07557">
        <ele>1505.56</ele>
        <time>2015-07-21T09:51:17Z</time>
      </trkpt>
      <trkpt lat="42.44449" lon="2.07561">
        <ele>1506.52</ele>
        <time>2015-07-21T09:51:20Z</time>
      </trkpt>
      <trkpt lat="42.44438" lon="2.07568">
        <ele>1506.52</ele>
        <time>2015-07-21T09:51:24Z</time>
      </trkpt>
      <trkpt lat="42.44428" lon="2.07586">
        <ele>1506.52</ele>
        <time>2015-07-21T09:51:39Z</time>
      </trkpt>
      <trkpt lat="42.44428" lon="2.07612">
        <ele>1508.45</ele>
        <time>2015-07-21T09:51:52Z</time>
      </trkpt>
      <trkpt lat="42.44428" lon="2.0762">
        <ele>1508.45</ele>
        <time>2015-07-21T09:51:56Z</time>
      </trkpt>
      <trkpt lat="42.44428" lon="2.07624">
        <ele>1508.93</ele>
        <time>2015-07-21T09:51:58Z</time>
      </trkpt>
      <trkpt lat="42.4443" lon="2.07635">
        <ele>1509.41</ele>
        <time>2015-07-21T09:52:03Z</time>
      </trkpt>
      <trkpt lat="42.44431" lon="2.07644">
        <ele>1509.89</ele>
        <time>2015-07-21T09:52:08Z</time>
      </trkpt>
      <trkpt lat="42.44421" lon="2.07662">
        <ele>1510.85</ele>
        <time>2015-07-21T09:52:21Z</time>
      </trkpt>
      <trkpt lat="42.44407" lon="2.07678">
        <ele>1512.29</ele>
        <time>2015-07-21T09:52:36Z</time>
      </trkpt>
      <trkpt lat="42.44405" lon="2.0768">
        <ele>1512.29</ele>
        <time>2015-07-21T09:52:38Z</time>
      </trkpt>
      <trkpt lat="42.44399" lon="2.07683">
        <ele>1512.29</ele>
        <time>2015-07-21T09:52:43Z</time>
      </trkpt>
      <trkpt lat="42.44395" lon="2.07686">
        <ele>1512.77</ele>
        <time>2015-07-21T09:52:46Z</time>
      </trkpt>
      <trkpt lat="42.44383" lon="2.07694">
        <ele>1513.25</ele>
        <time>2015-07-21T09:52:57Z</time>
      </trkpt>
      <trkpt lat="42.44369" lon="2.07718">
        <ele>1515.18</ele>
        <time>2015-07-21T09:53:10Z</time>
      </trkpt>
      <trkpt lat="42.44369" lon="2.07722">
        <ele>1514.69</ele>
        <time>2015-07-21T09:53:12Z</time>
      </trkpt>
      <trkpt lat="42.44365" lon="2.07747">
        <ele>1515.66</ele>
        <time>2015-07-21T09:53:25Z</time>
      </trkpt>
      <trkpt lat="42.44366" lon="2.0775">
        <ele>1515.66</ele>
        <time>2015-07-21T09:53:27Z</time>
      </trkpt>
      <trkpt lat="42.44366" lon="2.07764">
        <ele>1516.62</ele>
        <time>2015-07-21T09:53:33Z</time>
      </trkpt>
      <trkpt lat="42.44366" lon="2.07787">
        <ele>1517.58</ele>
        <time>2015-07-21T09:53:45Z</time>
      </trkpt>
      <trkpt lat="42.44364" lon="2.07794">
        <ele>1518.06</ele>
        <time>2015-07-21T09:53:49Z</time>
      </trkpt>
      <trkpt lat="42.4435" lon="2.07819">
        <ele>1519.5</ele>
        <time>2015-07-21T09:54:07Z</time>
      </trkpt>
      <trkpt lat="42.4434" lon="2.07824">
        <ele>1519.5</ele>
        <time>2015-07-21T09:54:14Z</time>
      </trkpt>
      <trkpt lat="42.44333" lon="2.07826">
        <ele>1520.46</ele>
        <time>2015-07-21T09:54:20Z</time>
      </trkpt>
      <trkpt lat="42.44323" lon="2.07824">
        <ele>1519.98</ele>
        <time>2015-07-21T09:54:27Z</time>
      </trkpt>
      <trkpt lat="42.4431" lon="2.07827">
        <ele>1521.42</ele>
        <time>2015-07-21T09:54:39Z</time>
      </trkpt>
      <trkpt lat="42.44298" lon="2.07829">
        <ele>1522.87</ele>
        <time>2015-07-21T09:54:50Z</time>
      </trkpt>
      <trkpt lat="42.44284" lon="2.07834">
        <ele>1524.31</ele>
        <time>2015-07-21T09:55:01Z</time>
      </trkpt>
      <trkpt lat="42.44274" lon="2.07842">
        <ele>1525.27</ele>
        <time>2015-07-21T09:55:10Z</time>
      </trkpt>
      <trkpt lat="42.44263" lon="2.07852">
        <ele>1525.27</ele>
        <time>2015-07-21T09:55:17Z</time>
      </trkpt>
      <trkpt lat="42.4426" lon="2.07857">
        <ele>1526.71</ele>
        <time>2015-07-21T09:55:21Z</time>
      </trkpt>
      <trkpt lat="42.44248" lon="2.07878">
        <ele>1527.19</ele>
        <time>2015-07-21T09:55:36Z</time>
      </trkpt>
      <trkpt lat="42.44248" lon="2.0788">
        <ele>1527.19</ele>
        <time>2015-07-21T09:55:37Z</time>
      </trkpt>
      <trkpt lat="42.4424" lon="2.07892">
        <ele>1527.67</ele>
        <time>2015-07-21T09:55:46Z</time>
      </trkpt>
      <trkpt lat="42.44234" lon="2.07902">
        <ele>1528.63</ele>
        <time>2015-07-21T09:55:54Z</time>
      </trkpt>
      <trkpt lat="42.4423" lon="2.07911">
        <ele>1528.63</ele>
        <time>2015-07-21T09:55:59Z</time>
      </trkpt>
      <trkpt lat="42.44228" lon="2.07922">
        <ele>1529.11</ele>
        <time>2015-07-21T09:56:11Z</time>
      </trkpt>
      <trkpt lat="42.44216" lon="2.07943">
        <ele>1531.52</ele>
        <time>2015-07-21T09:56:26Z</time>
      </trkpt>
      <trkpt lat="42.44202" lon="2.07948">
        <ele>1532</ele>
        <time>2015-07-21T09:56:37Z</time>
      </trkpt>
      <trkpt lat="42.44192" lon="2.07949">
        <ele>1532.48</ele>
        <time>2015-07-21T09:56:44Z</time>
      </trkpt>
      <trkpt lat="42.44186" lon="2.07948">
        <ele>1532.96</ele>
        <time>2015-07-21T09:56:49Z</time>
      </trkpt>
      <trkpt lat="42.44168" lon="2.07945">
        <ele>1533.44</ele>
        <time>2015-07-21T09:57:02Z</time>
      </trkpt>
      <trkpt lat="42.44159" lon="2.0795">
        <ele>1534.4</ele>
        <time>2015-07-21T09:57:13Z</time>
      </trkpt>
      <trkpt lat="42.44157" lon="2.07953">
        <ele>1534.4</ele>
        <time>2015-07-21T09:57:15Z</time>
      </trkpt>
      <trkpt lat="42.44149" lon="2.07972">
        <ele>1535.36</ele>
        <time>2015-07-21T09:57:27Z</time>
      </trkpt>
      <trkpt lat="42.44138" lon="2.07993">
        <ele>1536.8</ele>
        <time>2015-07-21T09:57:39Z</time>
      </trkpt>
      <trkpt lat="42.44134" lon="2.08003">
        <ele>1537.29</ele>
        <time>2015-07-21T09:57:46Z</time>
      </trkpt>
      <trkpt lat="42.44127" lon="2.08016">
        <ele>1538.25</ele>
        <time>2015-07-21T09:57:57Z</time>
      </trkpt>
      <trkpt lat="42.44127" lon="2.08019">
        <ele>1538.25</ele>
        <time>2015-07-21T09:57:59Z</time>
      </trkpt>
      <trkpt lat="42.44127" lon="2.08035">
        <ele>1539.21</ele>
        <time>2015-07-21T09:58:11Z</time>
      </trkpt>
      <trkpt lat="42.44127" lon="2.08035">
        <ele>1538.73</ele>
        <time>2015-07-21T09:58:13Z</time>
      </trkpt>
      <trkpt lat="42.4412" lon="2.08035">
        <ele>1539.21</ele>
        <time>2015-07-21T09:58:23Z</time>
      </trkpt>
      <trkpt lat="42.44114" lon="2.08037">
        <ele>1539.69</ele>
        <time>2015-07-21T09:58:28Z</time>
      </trkpt>
      <trkpt lat="42.44107" lon="2.08038">
        <ele>1539.21</ele>
        <time>2015-07-21T09:58:33Z</time>
      </trkpt>
      <trkpt lat="42.44105" lon="2.08038">
        <ele>1539.69</ele>
        <time>2015-07-21T09:58:35Z</time>
      </trkpt>
      <trkpt lat="42.44094" lon="2.08037">
        <ele>1540.17</ele>
        <time>2015-07-21T09:58:45Z</time>
      </trkpt>
      <trkpt lat="42.44079" lon="2.08051">
        <ele>1541.13</ele>
        <time>2015-07-21T09:58:58Z</time>
      </trkpt>
      <trkpt lat="42.44068" lon="2.08052">
        <ele>1541.13</ele>
        <time>2015-07-21T09:59:11Z</time>
      </trkpt>
      <trkpt lat="42.44057" lon="2.08054">
        <ele>1541.61</ele>
        <time>2015-07-21T09:59:24Z</time>
      </trkpt>
      <trkpt lat="42.44057" lon="2.08054">
        <ele>1541.13</ele>
        <time>2015-07-21T09:59:25Z</time>
      </trkpt>
      <trkpt lat="42.44047" lon="2.08057">
        <ele>1543.53</ele>
        <time>2015-07-21T09:59:33Z</time>
      </trkpt>
      <trkpt lat="42.44039" lon="2.08066">
        <ele>1544.5</ele>
        <time>2015-07-21T09:59:48Z</time>
      </trkpt>
      <trkpt lat="42.44037" lon="2.0807">
        <ele>1544.5</ele>
        <time>2015-07-21T10:00:02Z</time>
      </trkpt>
      <trkpt lat="42.44034" lon="2.08076">
        <ele>1544.5</ele>
        <time>2015-07-21T10:00:06Z</time>
      </trkpt>
      <trkpt lat="42.44025" lon="2.08096">
        <ele>1545.46</ele>
        <time>2015-07-21T10:00:16Z</time>
      </trkpt>
      <trkpt lat="42.44017" lon="2.08105">
        <ele>1545.46</ele>
        <time>2015-07-21T10:00:22Z</time>
      </trkpt>
      <trkpt lat="42.44009" lon="2.08122">
        <ele>1546.9</ele>
        <time>2015-07-21T10:00:35Z</time>
      </trkpt>
      <trkpt lat="42.44004" lon="2.08126">
        <ele>1546.42</ele>
        <time>2015-07-21T10:00:40Z</time>
      </trkpt>
      <trkpt lat="42.43992" lon="2.08148">
        <ele>1548.34</ele>
        <time>2015-07-21T10:00:55Z</time>
      </trkpt>
      <trkpt lat="42.4399" lon="2.0815">
        <ele>1548.34</ele>
        <time>2015-07-21T10:00:57Z</time>
      </trkpt>
      <trkpt lat="42.43988" lon="2.08152">
        <ele>1548.82</ele>
        <time>2015-07-21T10:00:59Z</time>
      </trkpt>
      <trkpt lat="42.43973" lon="2.08165">
        <ele>1549.78</ele>
        <time>2015-07-21T10:01:12Z</time>
      </trkpt>
      <trkpt lat="42.43965" lon="2.08166">
        <ele>1550.26</ele>
        <time>2015-07-21T10:01:17Z</time>
      </trkpt>
      <trkpt lat="42.43944" lon="2.08176">
        <ele>1551.22</ele>
        <time>2015-07-21T10:01:32Z</time>
      </trkpt>
      <trkpt lat="42.43938" lon="2.08178">
        <ele>1551.22</ele>
        <time>2015-07-21T10:01:38Z</time>
      </trkpt>
      <trkpt lat="42.43922" lon="2.08186">
        <ele>1552.19</ele>
        <time>2015-07-21T10:01:51Z</time>
      </trkpt>
      <trkpt lat="42.43909" lon="2.08193">
        <ele>1552.67</ele>
        <time>2015-07-21T10:02:01Z</time>
      </trkpt>
      <trkpt lat="42.43893" lon="2.08199">
        <ele>1553.63</ele>
        <time>2015-07-21T10:02:15Z</time>
      </trkpt>
      <trkpt lat="42.43881" lon="2.08204">
        <ele>1554.11</ele>
        <time>2015-07-21T10:02:24Z</time>
      </trkpt>
      <trkpt lat="42.43865" lon="2.08207">
        <ele>1555.55</ele>
        <time>2015-07-21T10:02:37Z</time>
      </trkpt>
      <trkpt lat="42.43848" lon="2.08215">
        <ele>1556.51</ele>
        <time>2015-07-21T10:02:50Z</time>
      </trkpt>
      <trkpt lat="42.43847" lon="2.08218">
        <ele>1556.51</ele>
        <time>2015-07-21T10:02:59Z</time>
      </trkpt>
      <trkpt lat="42.43843" lon="2.08219">
        <ele>1556.51</ele>
        <time>2015-07-21T10:03:02Z</time>
      </trkpt>
      <trkpt lat="42.43833" lon="2.08226">
        <ele>1556.99</ele>
        <time>2015-07-21T10:03:13Z</time>
      </trkpt>
      <trkpt lat="42.43825" lon="2.08233">
        <ele>1557.95</ele>
        <time>2015-07-21T10:03:19Z</time>
      </trkpt>
      <trkpt lat="42.4382" lon="2.08236">
        <ele>1557.95</ele>
        <time>2015-07-21T10:03:23Z</time>
      </trkpt>
      <trkpt lat="42.43804" lon="2.08245">
        <ele>1560.36</ele>
        <time>2015-07-21T10:03:38Z</time>
      </trkpt>
      <trkpt lat="42.43787" lon="2.08251">
        <ele>1561.32</ele>
        <time>2015-07-21T10:03:52Z</time>
      </trkpt>
      <trkpt lat="42.43786" lon="2.08251">
        <ele>1561.32</ele>
        <time>2015-07-21T10:03:53Z</time>
      </trkpt>
      <trkpt lat="42.43769" lon="2.08261">
        <ele>1562.76</ele>
        <time>2015-07-21T10:04:09Z</time>
      </trkpt>
      <trkpt lat="42.43755" lon="2.08271">
        <ele>1565.16</ele>
        <time>2015-07-21T10:04:21Z</time>
      </trkpt>
      <trkpt lat="42.43748" lon="2.08273">
        <ele>1565.64</ele>
        <time>2015-07-21T10:04:27Z</time>
      </trkpt>
      <trkpt lat="42.4373" lon="2.08283">
        <ele>1566.61</ele>
        <time>2015-07-21T10:04:41Z</time>
      </trkpt>
      <trkpt lat="42.4372" lon="2.08291">
        <ele>1567.57</ele>
        <time>2015-07-21T10:04:50Z</time>
      </trkpt>
      <trkpt lat="42.43715" lon="2.08297">
        <ele>1567.57</ele>
        <time>2015-07-21T10:04:56Z</time>
      </trkpt>
      <trkpt lat="42.43699" lon="2.08302">
        <ele>1569.01</ele>
        <time>2015-07-21T10:05:10Z</time>
      </trkpt>
      <trkpt lat="42.43682" lon="2.08303">
        <ele>1571.41</ele>
        <time>2015-07-21T10:05:23Z</time>
      </trkpt>
      <trkpt lat="42.43668" lon="2.08305">
        <ele>1572.85</ele>
        <time>2015-07-21T10:05:37Z</time>
      </trkpt>
      <trkpt lat="42.43659" lon="2.08311">
        <ele>1574.3</ele>
        <time>2015-07-21T10:05:51Z</time>
      </trkpt>
      <trkpt lat="42.43657" lon="2.08311">
        <ele>1574.3</ele>
        <time>2015-07-21T10:05:53Z</time>
      </trkpt>
      <trkpt lat="42.43655" lon="2.08313">
        <ele>1574.3</ele>
        <time>2015-07-21T10:05:56Z</time>
      </trkpt>
      <trkpt lat="42.43652" lon="2.08314">
        <ele>1573.82</ele>
        <time>2015-07-21T10:05:59Z</time>
      </trkpt>
      <trkpt lat="42.43649" lon="2.08314">
        <ele>1573.82</ele>
        <time>2015-07-21T10:06:01Z</time>
      </trkpt>
      <trkpt lat="42.43637" lon="2.08322">
        <ele>1574.78</ele>
        <time>2015-07-21T10:06:12Z</time>
      </trkpt>
      <trkpt lat="42.43636" lon="2.08323">
        <ele>1575.26</ele>
        <time>2015-07-21T10:06:13Z</time>
      </trkpt>
      <trkpt lat="42.43633" lon="2.08323">
        <ele>1575.26</ele>
        <time>2015-07-21T10:06:15Z</time>
      </trkpt>
      <trkpt lat="42.43621" lon="2.08328">
        <ele>1575.74</ele>
        <time>2015-07-21T10:06:26Z</time>
      </trkpt>
      <trkpt lat="42.4362" lon="2.08329">
        <ele>1576.22</ele>
        <time>2015-07-21T10:06:28Z</time>
      </trkpt>
      <trkpt lat="42.43609" lon="2.08348">
        <ele>1577.18</ele>
        <time>2015-07-21T10:06:40Z</time>
      </trkpt>
      <trkpt lat="42.43608" lon="2.08351">
        <ele>1577.18</ele>
        <time>2015-07-21T10:06:42Z</time>
      </trkpt>
      <trkpt lat="42.43601" lon="2.0836">
        <ele>1577.18</ele>
        <time>2015-07-21T10:06:50Z</time>
      </trkpt>
      <trkpt lat="42.43593" lon="2.08375">
        <ele>1579.1</ele>
        <time>2015-07-21T10:07:01Z</time>
      </trkpt>
      <trkpt lat="42.43584" lon="2.08384">
        <ele>1579.58</ele>
        <time>2015-07-21T10:07:15Z</time>
      </trkpt>
      <trkpt lat="42.43575" lon="2.08389">
        <ele>1581.03</ele>
        <time>2015-07-21T10:07:28Z</time>
      </trkpt>
      <trkpt lat="42.4357" lon="2.08403">
        <ele>1582.47</ele>
        <time>2015-07-21T10:07:37Z</time>
      </trkpt>
      <trkpt lat="42.43567" lon="2.08414">
        <ele>1582.95</ele>
        <time>2015-07-21T10:07:48Z</time>
      </trkpt>
      <trkpt lat="42.43571" lon="2.08418">
        <ele>1582.95</ele>
        <time>2015-07-21T10:07:55Z</time>
      </trkpt>
      <trkpt lat="42.43563" lon="2.08437">
        <ele>1584.87</ele>
        <time>2015-07-21T10:08:10Z</time>
      </trkpt>
      <trkpt lat="42.43549" lon="2.08459">
        <ele>1586.79</ele>
        <time>2015-07-21T10:08:25Z</time>
      </trkpt>
      <trkpt lat="42.43543" lon="2.08476">
        <ele>1588.24</ele>
        <time>2015-07-21T10:08:37Z</time>
      </trkpt>
      <trkpt lat="42.43542" lon="2.08477">
        <ele>1589.2</ele>
        <time>2015-07-21T10:08:38Z</time>
      </trkpt>
      <trkpt lat="42.43529" lon="2.08487">
        <ele>1590.16</ele>
        <time>2015-07-21T10:08:51Z</time>
      </trkpt>
      <trkpt lat="42.4352" lon="2.08486">
        <ele>1591.12</ele>
        <time>2015-07-21T10:08:58Z</time>
      </trkpt>
      <trkpt lat="42.43505" lon="2.0849">
        <ele>1592.56</ele>
        <time>2015-07-21T10:09:11Z</time>
      </trkpt>
      <trkpt lat="42.43503" lon="2.08489">
        <ele>1592.56</ele>
        <time>2015-07-21T10:09:12Z</time>
      </trkpt>
      <trkpt lat="42.43497" lon="2.0849">
        <ele>1593.04</ele>
        <time>2015-07-21T10:09:16Z</time>
      </trkpt>
      <trkpt lat="42.43489" lon="2.08496">
        <ele>1594</ele>
        <time>2015-07-21T10:09:23Z</time>
      </trkpt>
      <trkpt lat="42.43483" lon="2.08503">
        <ele>1594</ele>
        <time>2015-07-21T10:09:29Z</time>
      </trkpt>
      <trkpt lat="42.43469" lon="2.08516">
        <ele>1595.93</ele>
        <time>2015-07-21T10:09:43Z</time>
      </trkpt>
      <trkpt lat="42.43468" lon="2.08516">
        <ele>1595.45</ele>
        <time>2015-07-21T10:09:44Z</time>
      </trkpt>
      <trkpt lat="42.43462" lon="2.08523">
        <ele>1596.89</ele>
        <time>2015-07-21T10:09:54Z</time>
      </trkpt>
      <trkpt lat="42.43448" lon="2.0853">
        <ele>1597.37</ele>
        <time>2015-07-21T10:10:05Z</time>
      </trkpt>
      <trkpt lat="42.43438" lon="2.08537">
        <ele>1598.33</ele>
        <time>2015-07-21T10:10:14Z</time>
      </trkpt>
      <trkpt lat="42.43428" lon="2.08543">
        <ele>1598.81</ele>
        <time>2015-07-21T10:10:21Z</time>
      </trkpt>
      <trkpt lat="42.43424" lon="2.08549">
        <ele>1599.29</ele>
        <time>2015-07-21T10:10:26Z</time>
      </trkpt>
      <trkpt lat="42.43416" lon="2.08556">
        <ele>1599.77</ele>
        <time>2015-07-21T10:10:35Z</time>
      </trkpt>
      <trkpt lat="42.43412" lon="2.08568">
        <ele>1600.25</ele>
        <time>2015-07-21T10:10:42Z</time>
      </trkpt>
      <trkpt lat="42.43409" lon="2.08574">
        <ele>1600.73</ele>
        <time>2015-07-21T10:10:46Z</time>
      </trkpt>
      <trkpt lat="42.43406" lon="2.08598">
        <ele>1601.69</ele>
        <time>2015-07-21T10:10:59Z</time>
      </trkpt>
      <trkpt lat="42.43402" lon="2.08616">
        <ele>1603.14</ele>
        <time>2015-07-21T10:11:11Z</time>
      </trkpt>
      <trkpt lat="42.43399" lon="2.08625">
        <ele>1604.1</ele>
        <time>2015-07-21T10:11:23Z</time>
      </trkpt>
      <trkpt lat="42.43391" lon="2.08639">
        <ele>1605.06</ele>
        <time>2015-07-21T10:11:34Z</time>
      </trkpt>
      <trkpt lat="42.4338" lon="2.08666">
        <ele>1606.98</ele>
        <time>2015-07-21T10:11:50Z</time>
      </trkpt>
      <trkpt lat="42.43371" lon="2.08685">
        <ele>1607.46</ele>
        <time>2015-07-21T10:12:02Z</time>
      </trkpt>
      <trkpt lat="42.43369" lon="2.08687">
        <ele>1607.94</ele>
        <time>2015-07-21T10:12:04Z</time>
      </trkpt>
      <trkpt lat="42.43364" lon="2.0869">
        <ele>1607.94</ele>
        <time>2015-07-21T10:12:08Z</time>
      </trkpt>
      <trkpt lat="42.4335" lon="2.08705">
        <ele>1609.38</ele>
        <time>2015-07-21T10:12:21Z</time>
      </trkpt>
      <trkpt lat="42.43346" lon="2.08712">
        <ele>1610.35</ele>
        <time>2015-07-21T10:12:26Z</time>
      </trkpt>
      <trkpt lat="42.43339" lon="2.08729">
        <ele>1611.31</ele>
        <time>2015-07-21T10:12:40Z</time>
      </trkpt>
      <trkpt lat="42.43332" lon="2.08746">
        <ele>1612.27</ele>
        <time>2015-07-21T10:12:51Z</time>
      </trkpt>
      <trkpt lat="42.4332" lon="2.08758">
        <ele>1613.23</ele>
        <time>2015-07-21T10:13:02Z</time>
      </trkpt>
      <trkpt lat="42.43316" lon="2.08765">
        <ele>1614.19</ele>
        <time>2015-07-21T10:13:08Z</time>
      </trkpt>
      <trkpt lat="42.43313" lon="2.08772">
        <ele>1615.15</ele>
        <time>2015-07-21T10:13:14Z</time>
      </trkpt>
      <trkpt lat="42.43313" lon="2.08775">
        <ele>1615.63</ele>
        <time>2015-07-21T10:13:16Z</time>
      </trkpt>
      <trkpt lat="42.43304" lon="2.08791">
        <ele>1617.07</ele>
        <time>2015-07-21T10:13:28Z</time>
      </trkpt>
      <trkpt lat="42.43303" lon="2.08794">
        <ele>1617.07</ele>
        <time>2015-07-21T10:13:31Z</time>
      </trkpt>
      <trkpt lat="42.43299" lon="2.08804">
        <ele>1617.56</ele>
        <time>2015-07-21T10:13:37Z</time>
      </trkpt>
      <trkpt lat="42.43295" lon="2.08808">
        <ele>1618.04</ele>
        <time>2015-07-21T10:13:40Z</time>
      </trkpt>
      <trkpt lat="42.43284" lon="2.08826">
        <ele>1619</ele>
        <time>2015-07-21T10:13:53Z</time>
      </trkpt>
      <trkpt lat="42.43279" lon="2.08831">
        <ele>1619.96</ele>
        <time>2015-07-21T10:14:00Z</time>
      </trkpt>
      <trkpt lat="42.43276" lon="2.08834">
        <ele>1620.44</ele>
        <time>2015-07-21T10:14:03Z</time>
      </trkpt>
      <trkpt lat="42.43273" lon="2.08836">
        <ele>1620.92</ele>
        <time>2015-07-21T10:14:07Z</time>
      </trkpt>
      <trkpt lat="42.43262" lon="2.08844">
        <ele>1622.36</ele>
        <time>2015-07-21T10:14:17Z</time>
      </trkpt>
      <trkpt lat="42.43258" lon="2.08847">
        <ele>1622.36</ele>
        <time>2015-07-21T10:14:22Z</time>
      </trkpt>
      <trkpt lat="42.43242" lon="2.08853">
        <ele>1623.8</ele>
        <time>2015-07-21T10:14:34Z</time>
      </trkpt>
      <trkpt lat="42.43236" lon="2.08859">
        <ele>1624.77</ele>
        <time>2015-07-21T10:14:42Z</time>
      </trkpt>
      <trkpt lat="42.43231" lon="2.08869">
        <ele>1625.25</ele>
        <time>2015-07-21T10:14:57Z</time>
      </trkpt>
      <trkpt lat="42.4323" lon="2.08869">
        <ele>1624.77</ele>
        <time>2015-07-21T10:15:22Z</time>
      </trkpt>
      <trkpt lat="42.43224" lon="2.08869">
        <ele>1626.21</ele>
        <time>2015-07-21T10:15:34Z</time>
      </trkpt>
      <trkpt lat="42.43212" lon="2.08877">
        <ele>1627.17</ele>
        <time>2015-07-21T10:15:47Z</time>
      </trkpt>
      <trkpt lat="42.43205" lon="2.08883">
        <ele>1627.17</ele>
        <time>2015-07-21T10:15:53Z</time>
      </trkpt>
      <trkpt lat="42.43197" lon="2.08892">
        <ele>1628.13</ele>
        <time>2015-07-21T10:16:02Z</time>
      </trkpt>
      <trkpt lat="42.43188" lon="2.08908">
        <ele>1629.57</ele>
        <time>2015-07-21T10:16:16Z</time>
      </trkpt>
      <trkpt lat="42.43183" lon="2.08914">
        <ele>1630.05</ele>
        <time>2015-07-21T10:16:22Z</time>
      </trkpt>
      <trkpt lat="42.43173" lon="2.08931">
        <ele>1631.98</ele>
        <time>2015-07-21T10:16:36Z</time>
      </trkpt>
      <trkpt lat="42.43166" lon="2.08944">
        <ele>1633.9</ele>
        <time>2015-07-21T10:16:48Z</time>
      </trkpt>
      <trkpt lat="42.4316" lon="2.08952">
        <ele>1634.38</ele>
        <time>2015-07-21T10:16:57Z</time>
      </trkpt>
      <trkpt lat="42.43155" lon="2.08957">
        <ele>1634.38</ele>
        <time>2015-07-21T10:17:02Z</time>
      </trkpt>
      <trkpt lat="42.4315" lon="2.0896">
        <ele>1635.34</ele>
        <time>2015-07-21T10:17:06Z</time>
      </trkpt>
      <trkpt lat="42.43139" lon="2.08966">
        <ele>1636.3</ele>
        <time>2015-07-21T10:17:17Z</time>
      </trkpt>
      <trkpt lat="42.43135" lon="2.08965">
        <ele>1636.3</ele>
        <time>2015-07-21T10:17:21Z</time>
      </trkpt>
      <trkpt lat="42.4312" lon="2.08965">
        <ele>1637.74</ele>
        <time>2015-07-21T10:17:33Z</time>
      </trkpt>
      <trkpt lat="42.4311" lon="2.08967">
        <ele>1638.7</ele>
        <time>2015-07-21T10:17:42Z</time>
      </trkpt>
      <trkpt lat="42.431" lon="2.08976">
        <ele>1640.15</ele>
        <time>2015-07-21T10:17:54Z</time>
      </trkpt>
      <trkpt lat="42.43091" lon="2.08987">
        <ele>1641.59</ele>
        <time>2015-07-21T10:18:07Z</time>
      </trkpt>
      <trkpt lat="42.43081" lon="2.08998">
        <ele>1643.03</ele>
        <time>2015-07-21T10:18:21Z</time>
      </trkpt>
      <trkpt lat="42.43077" lon="2.09003">
        <ele>1643.51</ele>
        <time>2015-07-21T10:18:26Z</time>
      </trkpt>
      <trkpt lat="42.43067" lon="2.09014">
        <ele>1645.43</ele>
        <time>2015-07-21T10:18:38Z</time>
      </trkpt>
      <trkpt lat="42.43055" lon="2.09026">
        <ele>1646.88</ele>
        <time>2015-07-21T10:18:52Z</time>
      </trkpt>
      <trkpt lat="42.43047" lon="2.09045">
        <ele>1648.32</ele>
        <time>2015-07-21T10:19:06Z</time>
      </trkpt>
      <trkpt lat="42.4304" lon="2.09054">
        <ele>1649.76</ele>
        <time>2015-07-21T10:19:23Z</time>
      </trkpt>
      <trkpt lat="42.43032" lon="2.09066">
        <ele>1651.2</ele>
        <time>2015-07-21T10:19:34Z</time>
      </trkpt>
      <trkpt lat="42.43022" lon="2.09088">
        <ele>1653.12</ele>
        <time>2015-07-21T10:19:50Z</time>
      </trkpt>
      <trkpt lat="42.43014" lon="2.09103">
        <ele>1655.53</ele>
        <time>2015-07-21T10:20:04Z</time>
      </trkpt>
      <trkpt lat="42.43" lon="2.09115">
        <ele>1657.45</ele>
        <time>2015-07-21T10:20:19Z</time>
      </trkpt>
      <trkpt lat="42.42992" lon="2.09126">
        <ele>1658.89</ele>
        <time>2015-07-21T10:20:34Z</time>
      </trkpt>
      <trkpt lat="42.42984" lon="2.0913">
        <ele>1659.85</ele>
        <time>2015-07-21T10:20:41Z</time>
      </trkpt>
      <trkpt lat="42.42971" lon="2.09132">
        <ele>1661.78</ele>
        <time>2015-07-21T10:20:58Z</time>
      </trkpt>
      <trkpt lat="42.42968" lon="2.09134">
        <ele>1664.66</ele>
        <time>2015-07-21T10:21:05Z</time>
      </trkpt>
      <trkpt lat="42.42966" lon="2.09135">
        <ele>1663.22</ele>
        <time>2015-07-21T10:21:07Z</time>
      </trkpt>
      <trkpt lat="42.4295" lon="2.09145">
        <ele>1664.18</ele>
        <time>2015-07-21T10:21:21Z</time>
      </trkpt>
      <trkpt lat="42.42939" lon="2.09151">
        <ele>1665.62</ele>
        <time>2015-07-21T10:21:29Z</time>
      </trkpt>
      <trkpt lat="42.42922" lon="2.09167">
        <ele>1667.06</ele>
        <time>2015-07-21T10:21:41Z</time>
      </trkpt>
      <trkpt lat="42.4292" lon="2.0917">
        <ele>1667.54</ele>
        <time>2015-07-21T10:21:43Z</time>
      </trkpt>
      <trkpt lat="42.42907" lon="2.09185">
        <ele>1669.47</ele>
        <time>2015-07-21T10:21:57Z</time>
      </trkpt>
      <trkpt lat="42.42904" lon="2.09186">
        <ele>1669.95</ele>
        <time>2015-07-21T10:21:59Z</time>
      </trkpt>
      <trkpt lat="42.42894" lon="2.09195">
        <ele>1671.39</ele>
        <time>2015-07-21T10:22:10Z</time>
      </trkpt>
      <trkpt lat="42.42886" lon="2.09214">
        <ele>1673.31</ele>
        <time>2015-07-21T10:22:25Z</time>
      </trkpt>
      <trkpt lat="42.42879" lon="2.09227">
        <ele>1674.75</ele>
        <time>2015-07-21T10:22:37Z</time>
      </trkpt>
      <trkpt lat="42.42879" lon="2.09229">
        <ele>1675.23</ele>
        <time>2015-07-21T10:22:39Z</time>
      </trkpt>
      <trkpt lat="42.42873" lon="2.09251">
        <ele>1677.16</ele>
        <time>2015-07-21T10:22:52Z</time>
      </trkpt>
      <trkpt lat="42.42873" lon="2.09258">
        <ele>1677.64</ele>
        <time>2015-07-21T10:23:05Z</time>
      </trkpt>
      <trkpt lat="42.42872" lon="2.09258">
        <ele>1677.64</ele>
        <time>2015-07-21T10:23:20Z</time>
      </trkpt>
      <trkpt lat="42.42871" lon="2.09258">
        <ele>1678.12</ele>
        <time>2015-07-21T10:23:40Z</time>
      </trkpt>
      <trkpt lat="42.42871" lon="2.0926">
        <ele>1678.12</ele>
        <time>2015-07-21T10:23:50Z</time>
      </trkpt>
      <trkpt lat="42.42868" lon="2.09269">
        <ele>1678.6</ele>
        <time>2015-07-21T10:23:58Z</time>
      </trkpt>
      <trkpt lat="42.42867" lon="2.09289">
        <ele>1680.52</ele>
        <time>2015-07-21T10:24:12Z</time>
      </trkpt>
      <trkpt lat="42.42867" lon="2.09295">
        <ele>1680.52</ele>
        <time>2015-07-21T10:24:15Z</time>
      </trkpt>
      <trkpt lat="42.42866" lon="2.09309">
        <ele>1682.44</ele>
        <time>2015-07-21T10:24:22Z</time>
      </trkpt>
      <trkpt lat="42.42866" lon="2.09329">
        <ele>1683.89</ele>
        <time>2015-07-21T10:24:37Z</time>
      </trkpt>
      <trkpt lat="42.42867" lon="2.0934">
        <ele>1685.81</ele>
        <time>2015-07-21T10:24:50Z</time>
      </trkpt>
      <trkpt lat="42.42868" lon="2.09347">
        <ele>1687.25</ele>
        <time>2015-07-21T10:25:05Z</time>
      </trkpt>
      <trkpt lat="42.42867" lon="2.09361">
        <ele>1688.69</ele>
        <time>2015-07-21T10:25:13Z</time>
      </trkpt>
      <trkpt lat="42.42856" lon="2.0939">
        <ele>1690.14</ele>
        <time>2015-07-21T10:25:29Z</time>
      </trkpt>
      <trkpt lat="42.42845" lon="2.09408">
        <ele>1692.06</ele>
        <time>2015-07-21T10:25:43Z</time>
      </trkpt>
      <trkpt lat="42.42833" lon="2.0942">
        <ele>1693.5</ele>
        <time>2015-07-21T10:25:55Z</time>
      </trkpt>
      <trkpt lat="42.42817" lon="2.09427">
        <ele>1694.46</ele>
        <time>2015-07-21T10:26:08Z</time>
      </trkpt>
      <trkpt lat="42.42817" lon="2.09428">
        <ele>1694.46</ele>
        <time>2015-07-21T10:26:09Z</time>
      </trkpt>
      <trkpt lat="42.42813" lon="2.0943">
        <ele>1695.42</ele>
        <time>2015-07-21T10:26:13Z</time>
      </trkpt>
      <trkpt lat="42.42796" lon="2.09438">
        <ele>1696.86</ele>
        <time>2015-07-21T10:26:26Z</time>
      </trkpt>
      <trkpt lat="42.42793" lon="2.09441">
        <ele>1697.34</ele>
        <time>2015-07-21T10:26:29Z</time>
      </trkpt>
      <trkpt lat="42.42778" lon="2.09451">
        <ele>1698.31</ele>
        <time>2015-07-21T10:26:43Z</time>
      </trkpt>
      <trkpt lat="42.42765" lon="2.09458">
        <ele>1698.79</ele>
        <time>2015-07-21T10:26:54Z</time>
      </trkpt>
      <trkpt lat="42.42748" lon="2.09464">
        <ele>1700.23</ele>
        <time>2015-07-21T10:27:07Z</time>
      </trkpt>
      <trkpt lat="42.42745" lon="2.09467">
        <ele>1699.75</ele>
        <time>2015-07-21T10:27:10Z</time>
      </trkpt>
      <trkpt lat="42.42728" lon="2.09477">
        <ele>1700.71</ele>
        <time>2015-07-21T10:27:24Z</time>
      </trkpt>
      <trkpt lat="42.42711" lon="2.09492">
        <ele>1701.19</ele>
        <time>2015-07-21T10:27:39Z</time>
      </trkpt>
      <trkpt lat="42.4271" lon="2.09494">
        <ele>1701.67</ele>
        <time>2015-07-21T10:27:40Z</time>
      </trkpt>
      <trkpt lat="42.42705" lon="2.09499">
        <ele>1702.15</ele>
        <time>2015-07-21T10:27:47Z</time>
      </trkpt>
      <trkpt lat="42.42704" lon="2.09504">
        <ele>1702.63</ele>
        <time>2015-07-21T10:27:50Z</time>
      </trkpt>
      <trkpt lat="42.42698" lon="2.09523">
        <ele>1703.11</ele>
        <time>2015-07-21T10:28:03Z</time>
      </trkpt>
      <trkpt lat="42.42689" lon="2.09537">
        <ele>1704.07</ele>
        <time>2015-07-21T10:28:12Z</time>
      </trkpt>
      <trkpt lat="42.42673" lon="2.09549">
        <ele>1705.04</ele>
        <time>2015-07-21T10:28:26Z</time>
      </trkpt>
      <trkpt lat="42.42666" lon="2.09554">
        <ele>1704.55</ele>
        <time>2015-07-21T10:28:33Z</time>
      </trkpt>
      <trkpt lat="42.42644" lon="2.09561">
        <ele>1704.07</ele>
        <time>2015-07-21T10:28:48Z</time>
      </trkpt>
      <trkpt lat="42.42636" lon="2.09561">
        <ele>1703.11</ele>
        <time>2015-07-21T10:28:54Z</time>
      </trkpt>
      <trkpt lat="42.42628" lon="2.09557">
        <ele>1702.63</ele>
        <time>2015-07-21T10:29:00Z</time>
      </trkpt>
      <trkpt lat="42.42619" lon="2.09566">
        <ele>1702.15</ele>
        <time>2015-07-21T10:29:10Z</time>
      </trkpt>
      <trkpt lat="42.42611" lon="2.09575">
        <ele>1702.15</ele>
        <time>2015-07-21T10:29:17Z</time>
      </trkpt>
      <trkpt lat="42.42608" lon="2.09577">
        <ele>1702.15</ele>
        <time>2015-07-21T10:29:19Z</time>
      </trkpt>
      <trkpt lat="42.42594" lon="2.09584">
        <ele>1702.63</ele>
        <time>2015-07-21T10:29:32Z</time>
      </trkpt>
      <trkpt lat="42.42591" lon="2.09586">
        <ele>1702.15</ele>
        <time>2015-07-21T10:29:37Z</time>
      </trkpt>
      <trkpt lat="42.4258" lon="2.09597">
        <ele>1702.63</ele>
        <time>2015-07-21T10:29:50Z</time>
      </trkpt>
      <trkpt lat="42.42564" lon="2.09597">
        <ele>1702.15</ele>
        <time>2015-07-21T10:30:03Z</time>
      </trkpt>
      <trkpt lat="42.42561" lon="2.096">
        <ele>1702.63</ele>
        <time>2015-07-21T10:30:11Z</time>
      </trkpt>
      <trkpt lat="42.42563" lon="2.096">
        <ele>1702.63</ele>
        <time>2015-07-21T10:30:14Z</time>
      </trkpt>
      <trkpt lat="42.42573" lon="2.09599">
        <ele>1703.11</ele>
        <time>2015-07-21T10:30:23Z</time>
      </trkpt>
      <trkpt lat="42.42581" lon="2.09601">
        <ele>1701.67</ele>
        <time>2015-07-21T10:30:37Z</time>
      </trkpt>
      <trkpt lat="42.42582" lon="2.09601">
        <ele>1700.23</ele>
        <time>2015-07-21T10:30:42Z</time>
      </trkpt>
      <trkpt lat="42.42584" lon="2.09608">
        <ele>1700.23</ele>
        <time>2015-07-21T10:30:57Z</time>
      </trkpt>
      <trkpt lat="42.42585" lon="2.09611">
        <ele>1699.27</ele>
        <time>2015-07-21T10:31:12Z</time>
      </trkpt>
      <trkpt lat="42.42585" lon="2.09609">
        <ele>1699.75</ele>
        <time>2015-07-21T10:31:35Z</time>
      </trkpt>
      <trkpt lat="42.42584" lon="2.09613">
        <ele>1699.75</ele>
        <time>2015-07-21T10:31:57Z</time>
      </trkpt>
      <trkpt lat="42.42584" lon="2.09617">
        <ele>1699.75</ele>
        <time>2015-07-21T10:32:23Z</time>
      </trkpt>
      <trkpt lat="42.42581" lon="2.09622">
        <ele>1699.75</ele>
        <time>2015-07-21T10:32:51Z</time>
      </trkpt>
      <trkpt lat="42.42581" lon="2.09624">
        <ele>1700.23</ele>
        <time>2015-07-21T10:33:17Z</time>
      </trkpt>
      <trkpt lat="42.42585" lon="2.09618">
        <ele>1700.23</ele>
        <time>2015-07-21T10:33:38Z</time>
      </trkpt>
      <trkpt lat="42.42583" lon="2.09617">
        <ele>1700.23</ele>
        <time>2015-07-21T10:34:01Z</time>
      </trkpt>
      <trkpt lat="42.42585" lon="2.09617">
        <ele>1700.71</ele>
        <time>2015-07-21T10:34:35Z</time>
      </trkpt>
      <trkpt lat="42.42583" lon="2.09615">
        <ele>1701.19</ele>
        <time>2015-07-21T10:35:00Z</time>
      </trkpt>
      <trkpt lat="42.42583" lon="2.09614">
        <ele>1701.67</ele>
        <time>2015-07-21T10:35:23Z</time>
      </trkpt>
      <trkpt lat="42.42582" lon="2.09613">
        <ele>1702.15</ele>
        <time>2015-07-21T10:35:57Z</time>
      </trkpt>
      <trkpt lat="42.42582" lon="2.09613">
        <ele>1702.63</ele>
        <time>2015-07-21T10:36:32Z</time>
      </trkpt>
      <trkpt lat="42.42582" lon="2.09613">
        <ele>1702.63</ele>
        <time>2015-07-21T10:37:06Z</time>
      </trkpt>
      <trkpt lat="42.42582" lon="2.09612">
        <ele>1703.59</ele>
        <time>2015-07-21T10:37:43Z</time>
      </trkpt>
      <trkpt lat="42.42583" lon="2.09612">
        <ele>1703.59</ele>
        <time>2015-07-21T10:38:18Z</time>
      </trkpt>
      <trkpt lat="42.42583" lon="2.09613">
        <ele>1704.07</ele>
        <time>2015-07-21T10:38:59Z</time>
      </trkpt>
      <trkpt lat="42.42583" lon="2.09614">
        <ele>1704.07</ele>
        <time>2015-07-21T10:39:30Z</time>
      </trkpt>
      <trkpt lat="42.42584" lon="2.09614">
        <ele>1704.55</ele>
        <time>2015-07-21T10:40:04Z</time>
      </trkpt>
      <trkpt lat="42.42584" lon="2.09615">
        <ele>1705.04</ele>
        <time>2015-07-21T10:40:42Z</time>
      </trkpt>
      <trkpt lat="42.42584" lon="2.09614">
        <ele>1705.52</ele>
        <time>2015-07-21T10:41:15Z</time>
      </trkpt>
      <trkpt lat="42.42584" lon="2.09614">
        <ele>1705.52</ele>
        <time>2015-07-21T10:41:47Z</time>
      </trkpt>
      <trkpt lat="42.42585" lon="2.09615">
        <ele>1705.52</ele>
        <time>2015-07-21T10:42:27Z</time>
      </trkpt>
      <trkpt lat="42.42585" lon="2.09615">
        <ele>1706</ele>
        <time>2015-07-21T10:42:59Z</time>
      </trkpt>
      <trkpt lat="42.42585" lon="2.09615">
        <ele>1706.48</ele>
        <time>2015-07-21T10:43:34Z</time>
      </trkpt>
      <trkpt lat="42.42584" lon="2.09614">
        <ele>1706.48</ele>
        <time>2015-07-21T10:44:13Z</time>
      </trkpt>
      <trkpt lat="42.42584" lon="2.09614">
        <ele>1706.48</ele>
        <time>2015-07-21T10:44:47Z</time>
      </trkpt>
      <trkpt lat="42.42584" lon="2.09614">
        <ele>1706.96</ele>
        <time>2015-07-21T10:45:20Z</time>
      </trkpt>
      <trkpt lat="42.42584" lon="2.09613">
        <ele>1707.44</ele>
        <time>2015-07-21T10:45:51Z</time>
      </trkpt>
      <trkpt lat="42.42583" lon="2.09613">
        <ele>1707.44</ele>
        <time>2015-07-21T10:46:25Z</time>
      </trkpt>
      <trkpt lat="42.42583" lon="2.09612">
        <ele>1707.44</ele>
        <time>2015-07-21T10:46:54Z</time>
      </trkpt>
      <trkpt lat="42.42583" lon="2.09612">
        <ele>1707.92</ele>
        <time>2015-07-21T10:47:23Z</time>
      </trkpt>
      <trkpt lat="42.42583" lon="2.09611">
        <ele>1707.92</ele>
        <time>2015-07-21T10:47:55Z</time>
      </trkpt>
      <trkpt lat="42.42583" lon="2.09612">
        <ele>1708.4</ele>
        <time>2015-07-21T10:48:25Z</time>
      </trkpt>
      <trkpt lat="42.42583" lon="2.09612">
        <ele>1708.4</ele>
        <time>2015-07-21T10:48:54Z</time>
      </trkpt>
      <trkpt lat="42.42583" lon="2.09611">
        <ele>1708.88</ele>
        <time>2015-07-21T10:49:24Z</time>
      </trkpt>
      <trkpt lat="42.42583" lon="2.09611">
        <ele>1709.36</ele>
        <time>2015-07-21T10:49:59Z</time>
      </trkpt>
      <trkpt lat="42.42584" lon="2.09611">
        <ele>1709.36</ele>
        <time>2015-07-21T10:50:23Z</time>
      </trkpt>
      <trkpt lat="42.42584" lon="2.09612">
        <ele>1709.36</ele>
        <time>2015-07-21T10:50:48Z</time>
      </trkpt>
      <trkpt lat="42.42585" lon="2.09613">
        <ele>1709.84</ele>
        <time>2015-07-21T10:51:18Z</time>
      </trkpt>
      <trkpt lat="42.42585" lon="2.09613">
        <ele>1709.84</ele>
        <time>2015-07-21T10:51:47Z</time>
      </trkpt>
      <trkpt lat="42.42585" lon="2.09613">
        <ele>1710.32</ele>
        <time>2015-07-21T10:52:15Z</time>
      </trkpt>
      <trkpt lat="42.42585" lon="2.09614">
        <ele>1710.32</ele>
        <time>2015-07-21T10:52:49Z</time>
      </trkpt>
      <trkpt lat="42.42586" lon="2.09614">
        <ele>1710.32</ele>
        <time>2015-07-21T10:53:18Z</time>
      </trkpt>
      <trkpt lat="42.42587" lon="2.09612">
        <ele>1710.32</ele>
        <time>2015-07-21T10:53:53Z</time>
      </trkpt>
      <trkpt lat="42.42588" lon="2.09614">
        <ele>1710.8</ele>
        <time>2015-07-21T10:54:27Z</time>
      </trkpt>
      <trkpt lat="42.42588" lon="2.09613">
        <ele>1710.8</ele>
        <time>2015-07-21T10:54:53Z</time>
      </trkpt>
      <trkpt lat="42.42588" lon="2.09612">
        <ele>1711.28</ele>
        <time>2015-07-21T10:55:26Z</time>
      </trkpt>
      <trkpt lat="42.42588" lon="2.09611">
        <ele>1711.28</ele>
        <time>2015-07-21T10:56:04Z</time>
      </trkpt>
      <trkpt lat="42.42588" lon="2.0961">
        <ele>1711.28</ele>
        <time>2015-07-21T10:56:34Z</time>
      </trkpt>
      <trkpt lat="42.42588" lon="2.0961">
        <ele>1711.28</ele>
        <time>2015-07-21T10:57:06Z</time>
      </trkpt>
      <trkpt lat="42.42588" lon="2.0961">
        <ele>1711.76</ele>
        <time>2015-07-21T10:57:37Z</time>
      </trkpt>
      <trkpt lat="42.42589" lon="2.0961">
        <ele>1711.28</ele>
        <time>2015-07-21T10:58:08Z</time>
      </trkpt>
      <trkpt lat="42.42587" lon="2.09611">
        <ele>1712.73</ele>
        <time>2015-07-21T10:58:41Z</time>
      </trkpt>
      <trkpt lat="42.42586" lon="2.0961">
        <ele>1711.76</ele>
        <time>2015-07-21T10:59:04Z</time>
      </trkpt>
      <trkpt lat="42.42583" lon="2.09602">
        <ele>1712.25</ele>
        <time>2015-07-21T10:59:38Z</time>
      </trkpt>
      <trkpt lat="42.42582" lon="2.09599">
        <ele>1712.25</ele>
        <time>2015-07-21T11:00:12Z</time>
      </trkpt>
      <trkpt lat="42.42581" lon="2.09599">
        <ele>1712.73</ele>
        <time>2015-07-21T11:00:51Z</time>
      </trkpt>
      <trkpt lat="42.42581" lon="2.09599">
        <ele>1712.73</ele>
        <time>2015-07-21T11:01:21Z</time>
      </trkpt>
      <trkpt lat="42.42583" lon="2.09601">
        <ele>1712.73</ele>
        <time>2015-07-21T11:01:54Z</time>
      </trkpt>
      <trkpt lat="42.42583" lon="2.09601">
        <ele>1713.21</ele>
        <time>2015-07-21T11:02:29Z</time>
      </trkpt>
      <trkpt lat="42.42584" lon="2.096">
        <ele>1713.69</ele>
        <time>2015-07-21T11:02:55Z</time>
      </trkpt>
      <trkpt lat="42.42583" lon="2.09595">
        <ele>1713.69</ele>
        <time>2015-07-21T11:03:15Z</time>
      </trkpt>
      <trkpt lat="42.42582" lon="2.09592">
        <ele>1713.69</ele>
        <time>2015-07-21T11:03:43Z</time>
      </trkpt>
      <trkpt lat="42.42585" lon="2.09591">
        <ele>1713.69</ele>
        <time>2015-07-21T11:04:07Z</time>
      </trkpt>
      <trkpt lat="42.42583" lon="2.0959">
        <ele>1714.17</ele>
        <time>2015-07-21T11:04:37Z</time>
      </trkpt>
      <trkpt lat="42.42586" lon="2.09601">
        <ele>1714.17</ele>
        <time>2015-07-21T11:05:04Z</time>
      </trkpt>
      <trkpt lat="42.42581" lon="2.09604">
        <ele>1714.65</ele>
        <time>2015-07-21T11:05:33Z</time>
      </trkpt>
      <trkpt lat="42.42582" lon="2.09607">
        <ele>1714.17</ele>
        <time>2015-07-21T11:06:12Z</time>
      </trkpt>
      <trkpt lat="42.42581" lon="2.09606">
        <ele>1714.65</ele>
        <time>2015-07-21T11:06:39Z</time>
      </trkpt>
      <trkpt lat="42.42586" lon="2.09611">
        <ele>1714.65</ele>
        <time>2015-07-21T11:07:09Z</time>
      </trkpt>
      <trkpt lat="42.42588" lon="2.09609">
        <ele>1714.65</ele>
        <time>2015-07-21T11:07:46Z</time>
      </trkpt>
      <trkpt lat="42.42585" lon="2.09606">
        <ele>1715.13</ele>
        <time>2015-07-21T11:08:27Z</time>
      </trkpt>
      <trkpt lat="42.42586" lon="2.09607">
        <ele>1714.65</ele>
        <time>2015-07-21T11:09:03Z</time>
      </trkpt>
      <trkpt lat="42.42588" lon="2.09603">
        <ele>1715.13</ele>
        <time>2015-07-21T11:09:30Z</time>
      </trkpt>
      <trkpt lat="42.4258" lon="2.09604">
        <ele>1715.13</ele>
        <time>2015-07-21T11:10:02Z</time>
      </trkpt>
      <trkpt lat="42.42585" lon="2.09598">
        <ele>1715.61</ele>
        <time>2015-07-21T11:10:25Z</time>
      </trkpt>
      <trkpt lat="42.42587" lon="2.09601">
        <ele>1715.13</ele>
        <time>2015-07-21T11:10:45Z</time>
      </trkpt>
      <trkpt lat="42.42594" lon="2.09605">
        <ele>1715.61</ele>
        <time>2015-07-21T11:11:21Z</time>
      </trkpt>
      <trkpt lat="42.42592" lon="2.09601">
        <ele>1715.61</ele>
        <time>2015-07-21T11:11:50Z</time>
      </trkpt>
      <trkpt lat="42.42594" lon="2.096">
        <ele>1715.61</ele>
        <time>2015-07-21T11:12:20Z</time>
      </trkpt>
      <trkpt lat="42.42593" lon="2.09599">
        <ele>1716.09</ele>
        <time>2015-07-21T11:12:57Z</time>
      </trkpt>
      <trkpt lat="42.42594" lon="2.09601">
        <ele>1716.57</ele>
        <time>2015-07-21T11:13:32Z</time>
      </trkpt>
      <trkpt lat="42.42597" lon="2.09601">
        <ele>1717.05</ele>
        <time>2015-07-21T11:13:58Z</time>
      </trkpt>
      <trkpt lat="42.42594" lon="2.09601">
        <ele>1717.05</ele>
        <time>2015-07-21T11:14:28Z</time>
      </trkpt>
      <trkpt lat="42.42597" lon="2.09602">
        <ele>1717.05</ele>
        <time>2015-07-21T11:14:59Z</time>
      </trkpt>
      <trkpt lat="42.42598" lon="2.09603">
        <ele>1717.05</ele>
        <time>2015-07-21T11:15:32Z</time>
      </trkpt>
      <trkpt lat="42.42597" lon="2.09603">
        <ele>1717.05</ele>
        <time>2015-07-21T11:16:09Z</time>
      </trkpt>
      <trkpt lat="42.42599" lon="2.09606">
        <ele>1717.05</ele>
        <time>2015-07-21T11:16:39Z</time>
      </trkpt>
      <trkpt lat="42.42601" lon="2.09609">
        <ele>1717.53</ele>
        <time>2015-07-21T11:17:10Z</time>
      </trkpt>
      <trkpt lat="42.42601" lon="2.09603">
        <ele>1718.49</ele>
        <time>2015-07-21T11:17:29Z</time>
      </trkpt>
      <trkpt lat="42.42598" lon="2.09597">
        <ele>1717.05</ele>
        <time>2015-07-21T11:17:56Z</time>
      </trkpt>
      <trkpt lat="42.42595" lon="2.09602">
        <ele>1717.05</ele>
        <time>2015-07-21T11:18:32Z</time>
      </trkpt>
      <trkpt lat="42.42597" lon="2.09602">
        <ele>1717.53</ele>
        <time>2015-07-21T11:18:57Z</time>
      </trkpt>
      <trkpt lat="42.42594" lon="2.096">
        <ele>1717.53</ele>
        <time>2015-07-21T11:19:27Z</time>
      </trkpt>
      <trkpt lat="42.42593" lon="2.09599">
        <ele>1717.53</ele>
        <time>2015-07-21T11:20:00Z</time>
      </trkpt>
      <trkpt lat="42.42593" lon="2.09604">
        <ele>1717.53</ele>
        <time>2015-07-21T11:20:35Z</time>
      </trkpt>
      <trkpt lat="42.42591" lon="2.09612">
        <ele>1717.53</ele>
        <time>2015-07-21T11:21:05Z</time>
      </trkpt>
      <trkpt lat="42.42582" lon="2.09623">
        <ele>1717.53</ele>
        <time>2015-07-21T11:21:34Z</time>
      </trkpt>
      <trkpt lat="42.42588" lon="2.09632">
        <ele>1718.01</ele>
        <time>2015-07-21T11:22:01Z</time>
      </trkpt>
      <trkpt lat="42.42605" lon="2.09632">
        <ele>1716.09</ele>
        <time>2015-07-21T11:22:19Z</time>
      </trkpt>
      <trkpt lat="42.42605" lon="2.09632">
        <ele>1718.01</ele>
        <time>2015-07-21T11:22:20Z</time>
      </trkpt>
      <trkpt lat="42.42576" lon="2.0962">
        <ele>1718.49</ele>
        <time>2015-07-21T12:16:05Z</time>
      </trkpt>
      <trkpt lat="42.42578" lon="2.09627">
        <ele>1718.01</ele>
        <time>2015-07-21T12:16:20Z</time>
      </trkpt>
      <trkpt lat="42.42576" lon="2.09628">
        <ele>1717.53</ele>
        <time>2015-07-21T12:16:49Z</time>
      </trkpt>
      <trkpt lat="42.42589" lon="2.09607">
        <ele>1717.53</ele>
        <time>2015-07-21T12:17:08Z</time>
      </trkpt>
      <trkpt lat="42.42572" lon="2.09607">
        <ele>1717.05</ele>
        <time>2015-07-21T12:17:30Z</time>
      </trkpt>
      <trkpt lat="42.4258" lon="2.09614">
        <ele>1713.69</ele>
        <time>2015-07-21T12:17:54Z</time>
      </trkpt>
      <trkpt lat="42.42581" lon="2.09614">
        <ele>1713.21</ele>
        <time>2015-07-21T12:17:56Z</time>
      </trkpt>
      <trkpt lat="42.4258" lon="2.09613">
        <ele>1709.84</ele>
        <time>2015-07-21T12:18:04Z</time>
      </trkpt>
      <trkpt lat="42.42581" lon="2.09613">
        <ele>1706.96</ele>
        <time>2015-07-21T12:18:18Z</time>
      </trkpt>
      <trkpt lat="42.42576" lon="2.0961">
        <ele>1705.52</ele>
        <time>2015-07-21T12:18:31Z</time>
      </trkpt>
      <trkpt lat="42.42578" lon="2.09609">
        <ele>1706</ele>
        <time>2015-07-21T12:18:51Z</time>
      </trkpt>
      <trkpt lat="42.42578" lon="2.0961">
        <ele>1707.92</ele>
        <time>2015-07-21T12:19:11Z</time>
      </trkpt>
      <trkpt lat="42.42578" lon="2.09606">
        <ele>1709.36</ele>
        <time>2015-07-21T12:19:19Z</time>
      </trkpt>
      <trkpt lat="42.42586" lon="2.0959">
        <ele>1709.36</ele>
        <time>2015-07-21T12:19:32Z</time>
      </trkpt>
      <trkpt lat="42.42589" lon="2.09582">
        <ele>1709.84</ele>
        <time>2015-07-21T12:19:38Z</time>
      </trkpt>
      <trkpt lat="42.42597" lon="2.09576">
        <ele>1709.84</ele>
        <time>2015-07-21T12:19:46Z</time>
      </trkpt>
      <trkpt lat="42.42602" lon="2.09569">
        <ele>1710.32</ele>
        <time>2015-07-21T12:19:56Z</time>
      </trkpt>
      <trkpt lat="42.42609" lon="2.09567">
        <ele>1710.32</ele>
        <time>2015-07-21T12:20:02Z</time>
      </trkpt>
      <trkpt lat="42.42627" lon="2.09563">
        <ele>1711.28</ele>
        <time>2015-07-21T12:20:18Z</time>
      </trkpt>
      <trkpt lat="42.4264" lon="2.09562">
        <ele>1711.76</ele>
        <time>2015-07-21T12:20:32Z</time>
      </trkpt>
      <trkpt lat="42.42643" lon="2.09561">
        <ele>1712.25</ele>
        <time>2015-07-21T12:20:44Z</time>
      </trkpt>
      <trkpt lat="42.42656" lon="2.09559">
        <ele>1712.73</ele>
        <time>2015-07-21T12:20:59Z</time>
      </trkpt>
      <trkpt lat="42.42659" lon="2.09557">
        <ele>1712.73</ele>
        <time>2015-07-21T12:21:02Z</time>
      </trkpt>
      <trkpt lat="42.42672" lon="2.09551">
        <ele>1712.73</ele>
        <time>2015-07-21T12:21:13Z</time>
      </trkpt>
      <trkpt lat="42.42678" lon="2.09543">
        <ele>1712.73</ele>
        <time>2015-07-21T12:21:20Z</time>
      </trkpt>
      <trkpt lat="42.42688" lon="2.0953">
        <ele>1712.25</ele>
        <time>2015-07-21T12:21:26Z</time>
      </trkpt>
      <trkpt lat="42.42692" lon="2.09524">
        <ele>1711.76</ele>
        <time>2015-07-21T12:21:35Z</time>
      </trkpt>
      <trkpt lat="42.42696" lon="2.09518">
        <ele>1711.76</ele>
        <time>2015-07-21T12:21:39Z</time>
      </trkpt>
      <trkpt lat="42.427" lon="2.09511">
        <ele>1711.28</ele>
        <time>2015-07-21T12:21:41Z</time>
      </trkpt>
      <trkpt lat="42.42704" lon="2.09504">
        <ele>1711.28</ele>
        <time>2015-07-21T12:21:46Z</time>
      </trkpt>
      <trkpt lat="42.42709" lon="2.09503">
        <ele>1710.8</ele>
        <time>2015-07-21T12:21:54Z</time>
      </trkpt>
      <trkpt lat="42.42727" lon="2.09485">
        <ele>1710.32</ele>
        <time>2015-07-21T12:22:06Z</time>
      </trkpt>
      <trkpt lat="42.42735" lon="2.09471">
        <ele>1709.84</ele>
        <time>2015-07-21T12:22:19Z</time>
      </trkpt>
      <trkpt lat="42.42745" lon="2.09463">
        <ele>1709.84</ele>
        <time>2015-07-21T12:22:26Z</time>
      </trkpt>
      <trkpt lat="42.42744" lon="2.09464">
        <ele>1708.88</ele>
        <time>2015-07-21T12:22:31Z</time>
      </trkpt>
      <trkpt lat="42.42742" lon="2.09463">
        <ele>1708.88</ele>
        <time>2015-07-21T12:22:35Z</time>
      </trkpt>
      <trkpt lat="42.42745" lon="2.09461">
        <ele>1708.88</ele>
        <time>2015-07-21T12:22:37Z</time>
      </trkpt>
      <trkpt lat="42.42775" lon="2.09447">
        <ele>1708.4</ele>
        <time>2015-07-21T12:22:48Z</time>
      </trkpt>
      <trkpt lat="42.42779" lon="2.09443">
        <ele>1708.4</ele>
        <time>2015-07-21T12:23:02Z</time>
      </trkpt>
      <trkpt lat="42.4278" lon="2.09441">
        <ele>1707.92</ele>
        <time>2015-07-21T12:23:04Z</time>
      </trkpt>
      <trkpt lat="42.42792" lon="2.09437">
        <ele>1707.92</ele>
        <time>2015-07-21T12:23:10Z</time>
      </trkpt>
      <trkpt lat="42.42803" lon="2.0943">
        <ele>1706.96</ele>
        <time>2015-07-21T12:23:20Z</time>
      </trkpt>
      <trkpt lat="42.42806" lon="2.09421">
        <ele>1706.48</ele>
        <time>2015-07-21T12:23:27Z</time>
      </trkpt>
      <trkpt lat="42.42832" lon="2.0941">
        <ele>1705.04</ele>
        <time>2015-07-21T12:23:39Z</time>
      </trkpt>
      <trkpt lat="42.42838" lon="2.09408">
        <ele>1703.59</ele>
        <time>2015-07-21T12:23:50Z</time>
      </trkpt>
      <trkpt lat="42.42844" lon="2.09402">
        <ele>1702.15</ele>
        <time>2015-07-21T12:23:58Z</time>
      </trkpt>
      <trkpt lat="42.42846" lon="2.09396">
        <ele>1702.15</ele>
        <time>2015-07-21T12:24:01Z</time>
      </trkpt>
      <trkpt lat="42.42856" lon="2.09362">
        <ele>1699.75</ele>
        <time>2015-07-21T12:24:14Z</time>
      </trkpt>
      <trkpt lat="42.42855" lon="2.09335">
        <ele>1697.34</ele>
        <time>2015-07-21T12:24:26Z</time>
      </trkpt>
      <trkpt lat="42.42859" lon="2.09329">
        <ele>1695.9</ele>
        <time>2015-07-21T12:24:36Z</time>
      </trkpt>
      <trkpt lat="42.42859" lon="2.09305">
        <ele>1693.98</ele>
        <time>2015-07-21T12:24:47Z</time>
      </trkpt>
      <trkpt lat="42.42855" lon="2.09275">
        <ele>1692.06</ele>
        <time>2015-07-21T12:24:59Z</time>
      </trkpt>
      <trkpt lat="42.42861" lon="2.0927">
        <ele>1691.1</ele>
        <time>2015-07-21T12:25:09Z</time>
      </trkpt>
      <trkpt lat="42.42864" lon="2.09269">
        <ele>1691.1</ele>
        <time>2015-07-21T12:25:13Z</time>
      </trkpt>
      <trkpt lat="42.42861" lon="2.09251">
        <ele>1690.62</ele>
        <time>2015-07-21T12:25:22Z</time>
      </trkpt>
      <trkpt lat="42.42866" lon="2.09239">
        <ele>1689.17</ele>
        <time>2015-07-21T12:25:31Z</time>
      </trkpt>
      <trkpt lat="42.42881" lon="2.09205">
        <ele>1687.73</ele>
        <time>2015-07-21T12:25:43Z</time>
      </trkpt>
      <trkpt lat="42.42886" lon="2.09198">
        <ele>1686.77</ele>
        <time>2015-07-21T12:25:51Z</time>
      </trkpt>
      <trkpt lat="42.42887" lon="2.09196">
        <ele>1686.29</ele>
        <time>2015-07-21T12:25:53Z</time>
      </trkpt>
      <trkpt lat="42.42889" lon="2.09194">
        <ele>1685.81</ele>
        <time>2015-07-21T12:25:55Z</time>
      </trkpt>
      <trkpt lat="42.429" lon="2.09181">
        <ele>1684.85</ele>
        <time>2015-07-21T12:26:03Z</time>
      </trkpt>
      <trkpt lat="42.42908" lon="2.09174">
        <ele>1682.93</ele>
        <time>2015-07-21T12:26:15Z</time>
      </trkpt>
      <trkpt lat="42.42909" lon="2.09174">
        <ele>1681.96</ele>
        <time>2015-07-21T12:26:18Z</time>
      </trkpt>
      <trkpt lat="42.4292" lon="2.09166">
        <ele>1681</ele>
        <time>2015-07-21T12:26:28Z</time>
      </trkpt>
      <trkpt lat="42.42929" lon="2.09166">
        <ele>1679.56</ele>
        <time>2015-07-21T12:26:43Z</time>
      </trkpt>
      <trkpt lat="42.42933" lon="2.09165">
        <ele>1680.04</ele>
        <time>2015-07-21T12:26:52Z</time>
      </trkpt>
      <trkpt lat="42.42934" lon="2.09164">
        <ele>1680.52</ele>
        <time>2015-07-21T12:26:54Z</time>
      </trkpt>
      <trkpt lat="42.42942" lon="2.0916">
        <ele>1679.56</ele>
        <time>2015-07-21T12:27:05Z</time>
      </trkpt>
      <trkpt lat="42.4295" lon="2.09153">
        <ele>1678.12</ele>
        <time>2015-07-21T12:27:14Z</time>
      </trkpt>
      <trkpt lat="42.4297" lon="2.09146">
        <ele>1676.2</ele>
        <time>2015-07-21T12:27:27Z</time>
      </trkpt>
      <trkpt lat="42.42987" lon="2.0913">
        <ele>1674.75</ele>
        <time>2015-07-21T12:27:38Z</time>
      </trkpt>
      <trkpt lat="42.42988" lon="2.09128">
        <ele>1674.75</ele>
        <time>2015-07-21T12:27:40Z</time>
      </trkpt>
      <trkpt lat="42.43005" lon="2.09106">
        <ele>1672.35</ele>
        <time>2015-07-21T12:27:55Z</time>
      </trkpt>
      <trkpt lat="42.43009" lon="2.09099">
        <ele>1672.83</ele>
        <time>2015-07-21T12:27:59Z</time>
      </trkpt>
      <trkpt lat="42.4301" lon="2.09096">
        <ele>1671.39</ele>
        <time>2015-07-21T12:28:01Z</time>
      </trkpt>
      <trkpt lat="42.43014" lon="2.09087">
        <ele>1670.43</ele>
        <time>2015-07-21T12:28:06Z</time>
      </trkpt>
      <trkpt lat="42.43017" lon="2.09082">
        <ele>1669.95</ele>
        <time>2015-07-21T12:28:09Z</time>
      </trkpt>
      <trkpt lat="42.43023" lon="2.09075">
        <ele>1668.99</ele>
        <time>2015-07-21T12:28:15Z</time>
      </trkpt>
      <trkpt lat="42.43036" lon="2.09056">
        <ele>1667.54</ele>
        <time>2015-07-21T12:28:28Z</time>
      </trkpt>
      <trkpt lat="42.43041" lon="2.09037">
        <ele>1666.1</ele>
        <time>2015-07-21T12:28:39Z</time>
      </trkpt>
      <trkpt lat="42.43055" lon="2.09025">
        <ele>1664.18</ele>
        <time>2015-07-21T12:28:49Z</time>
      </trkpt>
      <trkpt lat="42.43061" lon="2.0902">
        <ele>1663.22</ele>
        <time>2015-07-21T12:28:54Z</time>
      </trkpt>
      <trkpt lat="42.43076" lon="2.09003">
        <ele>1661.78</ele>
        <time>2015-07-21T12:29:06Z</time>
      </trkpt>
      <trkpt lat="42.43087" lon="2.08991">
        <ele>1659.85</ele>
        <time>2015-07-21T12:29:18Z</time>
      </trkpt>
      <trkpt lat="42.43091" lon="2.08985">
        <ele>1659.85</ele>
        <time>2015-07-21T12:29:22Z</time>
      </trkpt>
      <trkpt lat="42.43109" lon="2.08973">
        <ele>1658.41</ele>
        <time>2015-07-21T12:29:33Z</time>
      </trkpt>
      <trkpt lat="42.43126" lon="2.08969">
        <ele>1657.45</ele>
        <time>2015-07-21T12:29:43Z</time>
      </trkpt>
      <trkpt lat="42.43145" lon="2.08962">
        <ele>1655.05</ele>
        <time>2015-07-21T12:29:57Z</time>
      </trkpt>
      <trkpt lat="42.43151" lon="2.08956">
        <ele>1654.09</ele>
        <time>2015-07-21T12:30:02Z</time>
      </trkpt>
      <trkpt lat="42.43155" lon="2.08951">
        <ele>1653.6</ele>
        <time>2015-07-21T12:30:06Z</time>
      </trkpt>
      <trkpt lat="42.43156" lon="2.08949">
        <ele>1653.6</ele>
        <time>2015-07-21T12:30:07Z</time>
      </trkpt>
      <trkpt lat="42.4316" lon="2.08943">
        <ele>1653.12</ele>
        <time>2015-07-21T12:30:12Z</time>
      </trkpt>
      <trkpt lat="42.43164" lon="2.08935">
        <ele>1652.16</ele>
        <time>2015-07-21T12:30:17Z</time>
      </trkpt>
      <trkpt lat="42.43173" lon="2.08926">
        <ele>1651.2</ele>
        <time>2015-07-21T12:30:25Z</time>
      </trkpt>
      <trkpt lat="42.43186" lon="2.08913">
        <ele>1649.28</ele>
        <time>2015-07-21T12:30:38Z</time>
      </trkpt>
      <trkpt lat="42.43197" lon="2.08899">
        <ele>1647.84</ele>
        <time>2015-07-21T12:30:50Z</time>
      </trkpt>
      <trkpt lat="42.43213" lon="2.08881">
        <ele>1646.88</ele>
        <time>2015-07-21T12:31:03Z</time>
      </trkpt>
      <trkpt lat="42.4322" lon="2.08871">
        <ele>1645.91</ele>
        <time>2015-07-21T12:31:14Z</time>
      </trkpt>
      <trkpt lat="42.43233" lon="2.08863">
        <ele>1644.95</ele>
        <time>2015-07-21T12:31:26Z</time>
      </trkpt>
      <trkpt lat="42.43236" lon="2.08861">
        <ele>1644.47</ele>
        <time>2015-07-21T12:31:29Z</time>
      </trkpt>
      <trkpt lat="42.43238" lon="2.08861">
        <ele>1644.47</ele>
        <time>2015-07-21T12:31:30Z</time>
      </trkpt>
      <trkpt lat="42.4324" lon="2.08859">
        <ele>1644.47</ele>
        <time>2015-07-21T12:31:32Z</time>
      </trkpt>
      <trkpt lat="42.43252" lon="2.08854">
        <ele>1643.03</ele>
        <time>2015-07-21T12:31:44Z</time>
      </trkpt>
      <trkpt lat="42.43259" lon="2.08848">
        <ele>1642.55</ele>
        <time>2015-07-21T12:31:51Z</time>
      </trkpt>
      <trkpt lat="42.43262" lon="2.08847">
        <ele>1642.07</ele>
        <time>2015-07-21T12:31:53Z</time>
      </trkpt>
      <trkpt lat="42.43269" lon="2.08838">
        <ele>1641.11</ele>
        <time>2015-07-21T12:32:00Z</time>
      </trkpt>
      <trkpt lat="42.43284" lon="2.08819">
        <ele>1639.67</ele>
        <time>2015-07-21T12:32:15Z</time>
      </trkpt>
      <trkpt lat="42.43285" lon="2.08817">
        <ele>1639.19</ele>
        <time>2015-07-21T12:32:17Z</time>
      </trkpt>
      <trkpt lat="42.43289" lon="2.08804">
        <ele>1638.7</ele>
        <time>2015-07-21T12:32:24Z</time>
      </trkpt>
      <trkpt lat="42.43296" lon="2.08793">
        <ele>1637.74</ele>
        <time>2015-07-21T12:32:32Z</time>
      </trkpt>
      <trkpt lat="42.4331" lon="2.08775">
        <ele>1636.3</ele>
        <time>2015-07-21T12:32:44Z</time>
      </trkpt>
      <trkpt lat="42.43311" lon="2.08774">
        <ele>1636.3</ele>
        <time>2015-07-21T12:32:45Z</time>
      </trkpt>
      <trkpt lat="42.4332" lon="2.08758">
        <ele>1635.34</ele>
        <time>2015-07-21T12:32:55Z</time>
      </trkpt>
      <trkpt lat="42.43327" lon="2.08742">
        <ele>1633.9</ele>
        <time>2015-07-21T12:33:05Z</time>
      </trkpt>
      <trkpt lat="42.43338" lon="2.08725">
        <ele>1632.94</ele>
        <time>2015-07-21T12:33:17Z</time>
      </trkpt>
      <trkpt lat="42.43346" lon="2.08717">
        <ele>1631.98</ele>
        <time>2015-07-21T12:33:24Z</time>
      </trkpt>
      <trkpt lat="42.43352" lon="2.08703">
        <ele>1630.53</ele>
        <time>2015-07-21T12:33:35Z</time>
      </trkpt>
      <trkpt lat="42.43357" lon="2.08699">
        <ele>1630.53</ele>
        <time>2015-07-21T12:33:40Z</time>
      </trkpt>
      <trkpt lat="42.4337" lon="2.08678">
        <ele>1629.57</ele>
        <time>2015-07-21T12:33:54Z</time>
      </trkpt>
      <trkpt lat="42.43375" lon="2.08663">
        <ele>1628.61</ele>
        <time>2015-07-21T12:34:01Z</time>
      </trkpt>
      <trkpt lat="42.43381" lon="2.08644">
        <ele>1627.17</ele>
        <time>2015-07-21T12:34:13Z</time>
      </trkpt>
      <trkpt lat="42.43383" lon="2.08638">
        <ele>1626.69</ele>
        <time>2015-07-21T12:34:16Z</time>
      </trkpt>
      <trkpt lat="42.43387" lon="2.08628">
        <ele>1626.21</ele>
        <time>2015-07-21T12:34:24Z</time>
      </trkpt>
      <trkpt lat="42.43393" lon="2.08608">
        <ele>1624.28</ele>
        <time>2015-07-21T12:34:34Z</time>
      </trkpt>
      <trkpt lat="42.43394" lon="2.08599">
        <ele>1624.28</ele>
        <time>2015-07-21T12:34:39Z</time>
      </trkpt>
      <trkpt lat="42.43397" lon="2.08592">
        <ele>1623.8</ele>
        <time>2015-07-21T12:34:43Z</time>
      </trkpt>
      <trkpt lat="42.43409" lon="2.08574">
        <ele>1623.32</ele>
        <time>2015-07-21T12:34:53Z</time>
      </trkpt>
      <trkpt lat="42.43424" lon="2.08557">
        <ele>1621.88</ele>
        <time>2015-07-21T12:35:07Z</time>
      </trkpt>
      <trkpt lat="42.43429" lon="2.08551">
        <ele>1622.36</ele>
        <time>2015-07-21T12:35:10Z</time>
      </trkpt>
      <trkpt lat="42.43436" lon="2.08545">
        <ele>1621.4</ele>
        <time>2015-07-21T12:35:16Z</time>
      </trkpt>
      <trkpt lat="42.43447" lon="2.08538">
        <ele>1621.4</ele>
        <time>2015-07-21T12:35:23Z</time>
      </trkpt>
      <trkpt lat="42.43452" lon="2.08536">
        <ele>1620.92</ele>
        <time>2015-07-21T12:35:27Z</time>
      </trkpt>
      <trkpt lat="42.43457" lon="2.0853">
        <ele>1620.44</ele>
        <time>2015-07-21T12:35:31Z</time>
      </trkpt>
      <trkpt lat="42.4346" lon="2.08528">
        <ele>1619.96</ele>
        <time>2015-07-21T12:35:34Z</time>
      </trkpt>
      <trkpt lat="42.43461" lon="2.08528">
        <ele>1619.96</ele>
        <time>2015-07-21T12:35:35Z</time>
      </trkpt>
      <trkpt lat="42.43463" lon="2.08526">
        <ele>1619.48</ele>
        <time>2015-07-21T12:35:38Z</time>
      </trkpt>
      <trkpt lat="42.43476" lon="2.08517">
        <ele>1619.48</ele>
        <time>2015-07-21T12:35:47Z</time>
      </trkpt>
      <trkpt lat="42.43496" lon="2.08502">
        <ele>1618.04</ele>
        <time>2015-07-21T12:36:02Z</time>
      </trkpt>
      <trkpt lat="42.43502" lon="2.085">
        <ele>1617.07</ele>
        <time>2015-07-21T12:36:08Z</time>
      </trkpt>
      <trkpt lat="42.43517" lon="2.08494">
        <ele>1615.63</ele>
        <time>2015-07-21T12:36:20Z</time>
      </trkpt>
      <trkpt lat="42.43525" lon="2.08491">
        <ele>1614.67</ele>
        <time>2015-07-21T12:36:26Z</time>
      </trkpt>
      <trkpt lat="42.43536" lon="2.08471">
        <ele>1612.75</ele>
        <time>2015-07-21T12:36:39Z</time>
      </trkpt>
      <trkpt lat="42.43548" lon="2.08456">
        <ele>1611.31</ele>
        <time>2015-07-21T12:36:51Z</time>
      </trkpt>
      <trkpt lat="42.43558" lon="2.08436">
        <ele>1609.38</ele>
        <time>2015-07-21T12:37:05Z</time>
      </trkpt>
      <trkpt lat="42.4356" lon="2.08427">
        <ele>1608.9</ele>
        <time>2015-07-21T12:37:11Z</time>
      </trkpt>
      <trkpt lat="42.43571" lon="2.08412">
        <ele>1607.46</ele>
        <time>2015-07-21T12:37:23Z</time>
      </trkpt>
      <trkpt lat="42.43582" lon="2.08398">
        <ele>1606.98</ele>
        <time>2015-07-21T12:37:35Z</time>
      </trkpt>
      <trkpt lat="42.43592" lon="2.08384">
        <ele>1606.5</ele>
        <time>2015-07-21T12:37:46Z</time>
      </trkpt>
      <trkpt lat="42.436" lon="2.08373">
        <ele>1605.54</ele>
        <time>2015-07-21T12:37:54Z</time>
      </trkpt>
      <trkpt lat="42.43612" lon="2.0836">
        <ele>1604.58</ele>
        <time>2015-07-21T12:38:08Z</time>
      </trkpt>
      <trkpt lat="42.43614" lon="2.0836">
        <ele>1604.58</ele>
        <time>2015-07-21T12:38:10Z</time>
      </trkpt>
      <trkpt lat="42.43618" lon="2.08361">
        <ele>1604.1</ele>
        <time>2015-07-21T12:38:13Z</time>
      </trkpt>
      <trkpt lat="42.43631" lon="2.08346">
        <ele>1604.1</ele>
        <time>2015-07-21T12:38:24Z</time>
      </trkpt>
      <trkpt lat="42.43635" lon="2.08343">
        <ele>1603.62</ele>
        <time>2015-07-21T12:38:27Z</time>
      </trkpt>
      <trkpt lat="42.43644" lon="2.08336">
        <ele>1603.62</ele>
        <time>2015-07-21T12:38:32Z</time>
      </trkpt>
      <trkpt lat="42.4366" lon="2.08321">
        <ele>1602.66</ele>
        <time>2015-07-21T12:38:44Z</time>
      </trkpt>
      <trkpt lat="42.43665" lon="2.08315">
        <ele>1601.69</ele>
        <time>2015-07-21T12:38:49Z</time>
      </trkpt>
      <trkpt lat="42.4368" lon="2.08312">
        <ele>1599.77</ele>
        <time>2015-07-21T12:39:01Z</time>
      </trkpt>
      <trkpt lat="42.43681" lon="2.08311">
        <ele>1599.77</ele>
        <time>2015-07-21T12:39:02Z</time>
      </trkpt>
      <trkpt lat="42.43705" lon="2.08304">
        <ele>1598.33</ele>
        <time>2015-07-21T12:39:16Z</time>
      </trkpt>
      <trkpt lat="42.43715" lon="2.08302">
        <ele>1597.37</ele>
        <time>2015-07-21T12:39:24Z</time>
      </trkpt>
      <trkpt lat="42.43727" lon="2.08285">
        <ele>1596.89</ele>
        <time>2015-07-21T12:39:39Z</time>
      </trkpt>
      <trkpt lat="42.43731" lon="2.08285">
        <ele>1596.89</ele>
        <time>2015-07-21T12:39:43Z</time>
      </trkpt>
      <trkpt lat="42.43745" lon="2.08275">
        <ele>1595.93</ele>
        <time>2015-07-21T12:39:57Z</time>
      </trkpt>
      <trkpt lat="42.43763" lon="2.08266">
        <ele>1594</ele>
        <time>2015-07-21T12:40:10Z</time>
      </trkpt>
      <trkpt lat="42.4378" lon="2.08256">
        <ele>1593.04</ele>
        <time>2015-07-21T12:40:23Z</time>
      </trkpt>
      <trkpt lat="42.43799" lon="2.0825">
        <ele>1592.08</ele>
        <time>2015-07-21T12:40:36Z</time>
      </trkpt>
      <trkpt lat="42.43821" lon="2.0824">
        <ele>1590.64</ele>
        <time>2015-07-21T12:40:51Z</time>
      </trkpt>
      <trkpt lat="42.43838" lon="2.08229">
        <ele>1590.16</ele>
        <time>2015-07-21T12:41:03Z</time>
      </trkpt>
      <trkpt lat="42.43849" lon="2.08219">
        <ele>1589.68</ele>
        <time>2015-07-21T12:41:17Z</time>
      </trkpt>
      <trkpt lat="42.43851" lon="2.08219">
        <ele>1589.2</ele>
        <time>2015-07-21T12:41:37Z</time>
      </trkpt>
      <trkpt lat="42.43852" lon="2.08219">
        <ele>1589.2</ele>
        <time>2015-07-21T12:41:56Z</time>
      </trkpt>
      <trkpt lat="42.43853" lon="2.08217">
        <ele>1589.68</ele>
        <time>2015-07-21T12:42:26Z</time>
      </trkpt>
      <trkpt lat="42.43853" lon="2.08217">
        <ele>1590.64</ele>
        <time>2015-07-21T12:42:52Z</time>
      </trkpt>
      <trkpt lat="42.43853" lon="2.08216">
        <ele>1589.68</ele>
        <time>2015-07-21T12:43:13Z</time>
      </trkpt>
      <trkpt lat="42.43854" lon="2.08216">
        <ele>1590.16</ele>
        <time>2015-07-21T12:43:40Z</time>
      </trkpt>
      <trkpt lat="42.43854" lon="2.08215">
        <ele>1590.16</ele>
        <time>2015-07-21T12:44:11Z</time>
      </trkpt>
      <trkpt lat="42.43854" lon="2.08215">
        <ele>1590.16</ele>
        <time>2015-07-21T12:44:40Z</time>
      </trkpt>
      <trkpt lat="42.43854" lon="2.0822">
        <ele>1590.64</ele>
        <time>2015-07-21T12:45:05Z</time>
      </trkpt>
      <trkpt lat="42.43852" lon="2.08216">
        <ele>1590.64</ele>
        <time>2015-07-21T12:45:32Z</time>
      </trkpt>
      <trkpt lat="42.43852" lon="2.08212">
        <ele>1591.12</ele>
        <time>2015-07-21T12:46:02Z</time>
      </trkpt>
      <trkpt lat="42.43852" lon="2.08208">
        <ele>1591.12</ele>
        <time>2015-07-21T12:46:33Z</time>
      </trkpt>
      <trkpt lat="42.43854" lon="2.08205">
        <ele>1591.6</ele>
        <time>2015-07-21T12:47:09Z</time>
      </trkpt>
      <trkpt lat="42.43854" lon="2.08205">
        <ele>1592.08</ele>
        <time>2015-07-21T12:47:42Z</time>
      </trkpt>
      <trkpt lat="42.43855" lon="2.08206">
        <ele>1592.08</ele>
        <time>2015-07-21T12:48:16Z</time>
      </trkpt>
      <trkpt lat="42.43854" lon="2.08206">
        <ele>1592.08</ele>
        <time>2015-07-21T12:48:43Z</time>
      </trkpt>
      <trkpt lat="42.43854" lon="2.08207">
        <ele>1592.08</ele>
        <time>2015-07-21T12:49:13Z</time>
      </trkpt>
      <trkpt lat="42.43852" lon="2.08212">
        <ele>1592.08</ele>
        <time>2015-07-21T12:49:38Z</time>
      </trkpt>
      <trkpt lat="42.43852" lon="2.08214">
        <ele>1592.08</ele>
        <time>2015-07-21T12:50:04Z</time>
      </trkpt>
      <trkpt lat="42.43852" lon="2.08218">
        <ele>1592.08</ele>
        <time>2015-07-21T12:50:25Z</time>
      </trkpt>
      <trkpt lat="42.43853" lon="2.08217">
        <ele>1592.56</ele>
        <time>2015-07-21T12:50:38Z</time>
      </trkpt>
      <trkpt lat="42.43862" lon="2.08212">
        <ele>1592.56</ele>
        <time>2015-07-21T12:50:51Z</time>
      </trkpt>
      <trkpt lat="42.4387" lon="2.08208">
        <ele>1592.08</ele>
        <time>2015-07-21T12:51:02Z</time>
      </trkpt>
      <trkpt lat="42.43872" lon="2.0821">
        <ele>1591.6</ele>
        <time>2015-07-21T12:51:06Z</time>
      </trkpt>
      <trkpt lat="42.43881" lon="2.08214">
        <ele>1591.12</ele>
        <time>2015-07-21T12:51:16Z</time>
      </trkpt>
      <trkpt lat="42.4389" lon="2.08201">
        <ele>1590.64</ele>
        <time>2015-07-21T12:51:25Z</time>
      </trkpt>
      <trkpt lat="42.43909" lon="2.08191">
        <ele>1590.16</ele>
        <time>2015-07-21T12:51:39Z</time>
      </trkpt>
      <trkpt lat="42.4392" lon="2.0819">
        <ele>1589.68</ele>
        <time>2015-07-21T12:51:48Z</time>
      </trkpt>
      <trkpt lat="42.4393" lon="2.08183">
        <ele>1588.72</ele>
        <time>2015-07-21T12:51:58Z</time>
      </trkpt>
      <trkpt lat="42.43954" lon="2.08174">
        <ele>1587.75</ele>
        <time>2015-07-21T12:52:13Z</time>
      </trkpt>
      <trkpt lat="42.43955" lon="2.08173">
        <ele>1587.75</ele>
        <time>2015-07-21T12:52:14Z</time>
      </trkpt>
      <trkpt lat="42.43972" lon="2.08158">
        <ele>1586.79</ele>
        <time>2015-07-21T12:52:28Z</time>
      </trkpt>
      <trkpt lat="42.43977" lon="2.08153">
        <ele>1586.31</ele>
        <time>2015-07-21T12:52:33Z</time>
      </trkpt>
      <trkpt lat="42.4398" lon="2.08151">
        <ele>1585.83</ele>
        <time>2015-07-21T12:52:35Z</time>
      </trkpt>
      <trkpt lat="42.43993" lon="2.08139">
        <ele>1584.87</ele>
        <time>2015-07-21T12:52:45Z</time>
      </trkpt>
      <trkpt lat="42.43998" lon="2.08133">
        <ele>1584.87</ele>
        <time>2015-07-21T12:52:49Z</time>
      </trkpt>
      <trkpt lat="42.4401" lon="2.08117">
        <ele>1583.43</ele>
        <time>2015-07-21T12:53:01Z</time>
      </trkpt>
      <trkpt lat="42.44013" lon="2.08113">
        <ele>1583.43</ele>
        <time>2015-07-21T12:53:04Z</time>
      </trkpt>
      <trkpt lat="42.44014" lon="2.0811">
        <ele>1582.95</ele>
        <time>2015-07-21T12:53:06Z</time>
      </trkpt>
      <trkpt lat="42.44026" lon="2.08091">
        <ele>1581.99</ele>
        <time>2015-07-21T12:53:19Z</time>
      </trkpt>
      <trkpt lat="42.4404" lon="2.08072">
        <ele>1581.03</ele>
        <time>2015-07-21T12:53:33Z</time>
      </trkpt>
      <trkpt lat="42.44057" lon="2.08065">
        <ele>1579.1</ele>
        <time>2015-07-21T12:53:47Z</time>
      </trkpt>
      <trkpt lat="42.44072" lon="2.08055">
        <ele>1578.14</ele>
        <time>2015-07-21T12:54:00Z</time>
      </trkpt>
      <trkpt lat="42.44089" lon="2.08042">
        <ele>1577.66</ele>
        <time>2015-07-21T12:54:14Z</time>
      </trkpt>
      <trkpt lat="42.44104" lon="2.08036">
        <ele>1577.18</ele>
        <time>2015-07-21T12:54:27Z</time>
      </trkpt>
      <trkpt lat="42.44105" lon="2.08035">
        <ele>1576.7</ele>
        <time>2015-07-21T12:54:28Z</time>
      </trkpt>
      <trkpt lat="42.44122" lon="2.08026">
        <ele>1577.18</ele>
        <time>2015-07-21T12:54:41Z</time>
      </trkpt>
      <trkpt lat="42.44124" lon="2.08023">
        <ele>1577.66</ele>
        <time>2015-07-21T12:54:43Z</time>
      </trkpt>
      <trkpt lat="42.4414" lon="2.08008">
        <ele>1579.1</ele>
        <time>2015-07-21T12:54:57Z</time>
      </trkpt>
      <trkpt lat="42.44153" lon="2.08002">
        <ele>1580.54</ele>
        <time>2015-07-21T12:55:09Z</time>
      </trkpt>
      <trkpt lat="42.44163" lon="2.07995">
        <ele>1581.03</ele>
        <time>2015-07-21T12:55:20Z</time>
      </trkpt>
      <trkpt lat="42.44171" lon="2.07987">
        <ele>1581.99</ele>
        <time>2015-07-21T12:55:34Z</time>
      </trkpt>
      <trkpt lat="42.44177" lon="2.07983">
        <ele>1582.95</ele>
        <time>2015-07-21T12:55:48Z</time>
      </trkpt>
      <trkpt lat="42.44182" lon="2.07978">
        <ele>1582.95</ele>
        <time>2015-07-21T12:56:00Z</time>
      </trkpt>
      <trkpt lat="42.4419" lon="2.07974">
        <ele>1582.95</ele>
        <time>2015-07-21T12:56:13Z</time>
      </trkpt>
      <trkpt lat="42.44198" lon="2.07969">
        <ele>1582.47</ele>
        <time>2015-07-21T12:56:25Z</time>
      </trkpt>
      <trkpt lat="42.44208" lon="2.07962">
        <ele>1582.95</ele>
        <time>2015-07-21T12:56:39Z</time>
      </trkpt>
      <trkpt lat="42.44211" lon="2.07959">
        <ele>1582.95</ele>
        <time>2015-07-21T12:56:43Z</time>
      </trkpt>
      <trkpt lat="42.44215" lon="2.07956">
        <ele>1582.47</ele>
        <time>2015-07-21T12:56:49Z</time>
      </trkpt>
      <trkpt lat="42.44251" lon="2.07946">
        <ele>1581.99</ele>
        <time>2015-07-21T12:57:03Z</time>
      </trkpt>
      <trkpt lat="42.44265" lon="2.07946">
        <ele>1581.51</ele>
        <time>2015-07-21T12:57:09Z</time>
      </trkpt>
      <trkpt lat="42.44291" lon="2.07944">
        <ele>1582.47</ele>
        <time>2015-07-21T12:57:21Z</time>
      </trkpt>
      <trkpt lat="42.44315" lon="2.07937">
        <ele>1583.43</ele>
        <time>2015-07-21T12:57:33Z</time>
      </trkpt>
      <trkpt lat="42.44316" lon="2.07935">
        <ele>1583.91</ele>
        <time>2015-07-21T12:57:36Z</time>
      </trkpt>
      <trkpt lat="42.4432" lon="2.07924">
        <ele>1585.83</ele>
        <time>2015-07-21T12:57:48Z</time>
      </trkpt>
      <trkpt lat="42.44328" lon="2.07912">
        <ele>1587.75</ele>
        <time>2015-07-21T12:58:01Z</time>
      </trkpt>
      <trkpt lat="42.44337" lon="2.07903">
        <ele>1589.2</ele>
        <time>2015-07-21T12:58:15Z</time>
      </trkpt>
      <trkpt lat="42.44339" lon="2.07902">
        <ele>1589.2</ele>
        <time>2015-07-21T12:58:18Z</time>
      </trkpt>
      <trkpt lat="42.44352" lon="2.07892">
        <ele>1589.68</ele>
        <time>2015-07-21T12:58:32Z</time>
      </trkpt>
      <trkpt lat="42.44355" lon="2.07891">
        <ele>1589.68</ele>
        <time>2015-07-21T12:58:38Z</time>
      </trkpt>
      <trkpt lat="42.44364" lon="2.07887">
        <ele>1590.16</ele>
        <time>2015-07-21T12:58:45Z</time>
      </trkpt>
      <trkpt lat="42.4438" lon="2.0788">
        <ele>1591.6</ele>
        <time>2015-07-21T12:58:57Z</time>
      </trkpt>
      <trkpt lat="42.44395" lon="2.07869">
        <ele>1593.04</ele>
        <time>2015-07-21T12:59:10Z</time>
      </trkpt>
      <trkpt lat="42.44405" lon="2.07859">
        <ele>1593.52</ele>
        <time>2015-07-21T12:59:20Z</time>
      </trkpt>
      <trkpt lat="42.4441" lon="2.07837">
        <ele>1594</ele>
        <time>2015-07-21T12:59:35Z</time>
      </trkpt>
      <trkpt lat="42.44413" lon="2.07826">
        <ele>1594.96</ele>
        <time>2015-07-21T12:59:42Z</time>
      </trkpt>
      <trkpt lat="42.44414" lon="2.07821">
        <ele>1595.45</ele>
        <time>2015-07-21T12:59:45Z</time>
      </trkpt>
      <trkpt lat="42.44421" lon="2.078">
        <ele>1597.37</ele>
        <time>2015-07-21T12:59:58Z</time>
      </trkpt>
      <trkpt lat="42.44434" lon="2.07781">
        <ele>1599.29</ele>
        <time>2015-07-21T13:00:12Z</time>
      </trkpt>
      <trkpt lat="42.44445" lon="2.07776">
        <ele>1600.73</ele>
        <time>2015-07-21T13:00:26Z</time>
      </trkpt>
      <trkpt lat="42.44453" lon="2.07772">
        <ele>1602.17</ele>
        <time>2015-07-21T13:00:37Z</time>
      </trkpt>
      <trkpt lat="42.44464" lon="2.0777">
        <ele>1603.62</ele>
        <time>2015-07-21T13:00:47Z</time>
      </trkpt>
      <trkpt lat="42.44479" lon="2.07759">
        <ele>1606.5</ele>
        <time>2015-07-21T13:01:02Z</time>
      </trkpt>
      <trkpt lat="42.44486" lon="2.07752">
        <ele>1606.98</ele>
        <time>2015-07-21T13:01:09Z</time>
      </trkpt>
      <trkpt lat="42.44491" lon="2.07739">
        <ele>1609.86</ele>
        <time>2015-07-21T13:01:21Z</time>
      </trkpt>
      <trkpt lat="42.44491" lon="2.07736">
        <ele>1610.35</ele>
        <time>2015-07-21T13:01:24Z</time>
      </trkpt>
      <trkpt lat="42.44492" lon="2.07729">
        <ele>1611.31</ele>
        <time>2015-07-21T13:01:31Z</time>
      </trkpt>
      <trkpt lat="42.44493" lon="2.07716">
        <ele>1613.23</ele>
        <time>2015-07-21T13:01:42Z</time>
      </trkpt>
      <trkpt lat="42.44495" lon="2.07707">
        <ele>1614.19</ele>
        <time>2015-07-21T13:01:48Z</time>
      </trkpt>
      <trkpt lat="42.44502" lon="2.07686">
        <ele>1616.59</ele>
        <time>2015-07-21T13:02:01Z</time>
      </trkpt>
      <trkpt lat="42.44511" lon="2.0767">
        <ele>1618.04</ele>
        <time>2015-07-21T13:02:14Z</time>
      </trkpt>
      <trkpt lat="42.44527" lon="2.07657">
        <ele>1619</ele>
        <time>2015-07-21T13:02:29Z</time>
      </trkpt>
      <trkpt lat="42.4454" lon="2.07646">
        <ele>1619.48</ele>
        <time>2015-07-21T13:02:44Z</time>
      </trkpt>
      <trkpt lat="42.44557" lon="2.07633">
        <ele>1619.96</ele>
        <time>2015-07-21T13:02:59Z</time>
      </trkpt>
      <trkpt lat="42.44566" lon="2.07626">
        <ele>1620.44</ele>
        <time>2015-07-21T13:03:16Z</time>
      </trkpt>
      <trkpt lat="42.44571" lon="2.07623">
        <ele>1620.44</ele>
        <time>2015-07-21T13:03:20Z</time>
      </trkpt>
      <trkpt lat="42.44585" lon="2.07607">
        <ele>1620.92</ele>
        <time>2015-07-21T13:03:35Z</time>
      </trkpt>
      <trkpt lat="42.44593" lon="2.07595">
        <ele>1620.92</ele>
        <time>2015-07-21T13:03:45Z</time>
      </trkpt>
      <trkpt lat="42.44598" lon="2.07584">
        <ele>1621.4</ele>
        <time>2015-07-21T13:04:01Z</time>
      </trkpt>
      <trkpt lat="42.44598" lon="2.07583">
        <ele>1621.4</ele>
        <time>2015-07-21T13:04:07Z</time>
      </trkpt>
      <trkpt lat="42.44603" lon="2.07574">
        <ele>1621.88</ele>
        <time>2015-07-21T13:04:15Z</time>
      </trkpt>
      <trkpt lat="42.44616" lon="2.0756">
        <ele>1621.4</ele>
        <time>2015-07-21T13:04:31Z</time>
      </trkpt>
      <trkpt lat="42.44617" lon="2.07558">
        <ele>1621.4</ele>
        <time>2015-07-21T13:04:32Z</time>
      </trkpt>
      <trkpt lat="42.44621" lon="2.0755">
        <ele>1621.4</ele>
        <time>2015-07-21T13:04:37Z</time>
      </trkpt>
      <trkpt lat="42.44629" lon="2.07539">
        <ele>1621.4</ele>
        <time>2015-07-21T13:04:46Z</time>
      </trkpt>
      <trkpt lat="42.44634" lon="2.07531">
        <ele>1621.88</ele>
        <time>2015-07-21T13:04:51Z</time>
      </trkpt>
      <trkpt lat="42.44652" lon="2.07512">
        <ele>1621.4</ele>
        <time>2015-07-21T13:05:08Z</time>
      </trkpt>
      <trkpt lat="42.44661" lon="2.07497">
        <ele>1621.88</ele>
        <time>2015-07-21T13:05:20Z</time>
      </trkpt>
      <trkpt lat="42.44665" lon="2.0749">
        <ele>1621.88</ele>
        <time>2015-07-21T13:05:31Z</time>
      </trkpt>
      <trkpt lat="42.44668" lon="2.07484">
        <ele>1621.88</ele>
        <time>2015-07-21T13:05:47Z</time>
      </trkpt>
      <trkpt lat="42.44669" lon="2.0748">
        <ele>1622.36</ele>
        <time>2015-07-21T13:06:00Z</time>
      </trkpt>
      <trkpt lat="42.44669" lon="2.0748">
        <ele>1622.36</ele>
        <time>2015-07-21T13:06:17Z</time>
      </trkpt>
      <trkpt lat="42.44669" lon="2.07483">
        <ele>1621.88</ele>
        <time>2015-07-21T13:06:42Z</time>
      </trkpt>
      <trkpt lat="42.4467" lon="2.07482">
        <ele>1621.4</ele>
        <time>2015-07-21T13:07:04Z</time>
      </trkpt>
      <trkpt lat="42.44672" lon="2.07481">
        <ele>1621.4</ele>
        <time>2015-07-21T13:07:30Z</time>
      </trkpt>
      <trkpt lat="42.44671" lon="2.0747">
        <ele>1621.88</ele>
        <time>2015-07-21T13:07:46Z</time>
      </trkpt>
      <trkpt lat="42.4467" lon="2.07468">
        <ele>1622.84</ele>
        <time>2015-07-21T13:07:48Z</time>
      </trkpt>
      <trkpt lat="42.44669" lon="2.07464">
        <ele>1623.32</ele>
        <time>2015-07-21T13:07:51Z</time>
      </trkpt>
      <trkpt lat="42.44666" lon="2.07455">
        <ele>1625.73</ele>
        <time>2015-07-21T13:07:59Z</time>
      </trkpt>
      <trkpt lat="42.44666" lon="2.07444">
        <ele>1628.13</ele>
        <time>2015-07-21T13:08:10Z</time>
      </trkpt>
      <trkpt lat="42.44665" lon="2.07432">
        <ele>1630.53</ele>
        <time>2015-07-21T13:08:21Z</time>
      </trkpt>
      <trkpt lat="42.44661" lon="2.07426">
        <ele>1630.53</ele>
        <time>2015-07-21T13:08:34Z</time>
      </trkpt>
      <trkpt lat="42.44662" lon="2.07425">
        <ele>1630.53</ele>
        <time>2015-07-21T13:08:56Z</time>
      </trkpt>
      <trkpt lat="42.44661" lon="2.07424">
        <ele>1630.05</ele>
        <time>2015-07-21T13:09:13Z</time>
      </trkpt>
      <trkpt lat="42.44659" lon="2.0742">
        <ele>1629.57</ele>
        <time>2015-07-21T13:09:50Z</time>
      </trkpt>
      <trkpt lat="42.44659" lon="2.0742">
        <ele>1629.09</ele>
        <time>2015-07-21T13:10:26Z</time>
      </trkpt>
      <trkpt lat="42.44659" lon="2.07419">
        <ele>1628.61</ele>
        <time>2015-07-21T13:10:57Z</time>
      </trkpt>
      <trkpt lat="42.44659" lon="2.07419">
        <ele>1628.61</ele>
        <time>2015-07-21T13:11:31Z</time>
      </trkpt>
      <trkpt lat="42.44659" lon="2.07418">
        <ele>1628.61</ele>
        <time>2015-07-21T13:12:11Z</time>
      </trkpt>
      <trkpt lat="42.4466" lon="2.07418">
        <ele>1628.61</ele>
        <time>2015-07-21T13:12:44Z</time>
      </trkpt>
      <trkpt lat="42.4466" lon="2.07418">
        <ele>1628.61</ele>
        <time>2015-07-21T13:13:17Z</time>
      </trkpt>
      <trkpt lat="42.44661" lon="2.07418">
        <ele>1629.09</ele>
        <time>2015-07-21T13:13:22Z</time>
      </trkpt>
      <trkpt lat="42.44662" lon="2.07422">
        <ele>1628.13</ele>
        <time>2015-07-21T13:13:34Z</time>
      </trkpt>
      <trkpt lat="42.44662" lon="2.07432">
        <ele>1626.21</ele>
        <time>2015-07-21T13:13:48Z</time>
      </trkpt>
      <trkpt lat="42.4466" lon="2.07442">
        <ele>1624.28</ele>
        <time>2015-07-21T13:13:58Z</time>
      </trkpt>
      <trkpt lat="42.44663" lon="2.0745">
        <ele>1621.88</ele>
        <time>2015-07-21T13:14:10Z</time>
      </trkpt>
      <trkpt lat="42.44668" lon="2.07456">
        <ele>1619.96</ele>
        <time>2015-07-21T13:14:21Z</time>
      </trkpt>
      <trkpt lat="42.4468" lon="2.07469">
        <ele>1619.48</ele>
        <time>2015-07-21T13:14:33Z</time>
      </trkpt>
      <trkpt lat="42.44696" lon="2.07473">
        <ele>1619.48</ele>
        <time>2015-07-21T13:14:46Z</time>
      </trkpt>
      <trkpt lat="42.44715" lon="2.07472">
        <ele>1617.56</ele>
        <time>2015-07-21T13:15:01Z</time>
      </trkpt>
      <trkpt lat="42.44721" lon="2.07471">
        <ele>1617.07</ele>
        <time>2015-07-21T13:15:06Z</time>
      </trkpt>
      <trkpt lat="42.44739" lon="2.07471">
        <ele>1615.63</ele>
        <time>2015-07-21T13:15:21Z</time>
      </trkpt>
      <trkpt lat="42.4476" lon="2.07468">
        <ele>1615.15</ele>
        <time>2015-07-21T13:15:36Z</time>
      </trkpt>
      <trkpt lat="42.4478" lon="2.07471">
        <ele>1615.15</ele>
        <time>2015-07-21T13:15:50Z</time>
      </trkpt>
      <trkpt lat="42.44802" lon="2.07468">
        <ele>1615.15</ele>
        <time>2015-07-21T13:16:04Z</time>
      </trkpt>
      <trkpt lat="42.44817" lon="2.07467">
        <ele>1614.67</ele>
        <time>2015-07-21T13:16:15Z</time>
      </trkpt>
      <trkpt lat="42.44829" lon="2.07466">
        <ele>1614.19</ele>
        <time>2015-07-21T13:16:29Z</time>
      </trkpt>
      <trkpt lat="42.44849" lon="2.07462">
        <ele>1614.19</ele>
        <time>2015-07-21T13:16:43Z</time>
      </trkpt>
      <trkpt lat="42.44868" lon="2.07455">
        <ele>1614.67</ele>
        <time>2015-07-21T13:16:58Z</time>
      </trkpt>
      <trkpt lat="42.44881" lon="2.07446">
        <ele>1614.67</ele>
        <time>2015-07-21T13:17:10Z</time>
      </trkpt>
      <trkpt lat="42.44903" lon="2.07424">
        <ele>1615.15</ele>
        <time>2015-07-21T13:17:29Z</time>
      </trkpt>
      <trkpt lat="42.44917" lon="2.07409">
        <ele>1615.63</ele>
        <time>2015-07-21T13:17:41Z</time>
      </trkpt>
      <trkpt lat="42.44921" lon="2.07407">
        <ele>1615.15</ele>
        <time>2015-07-21T13:17:44Z</time>
      </trkpt>
      <trkpt lat="42.44938" lon="2.07391">
        <ele>1615.15</ele>
        <time>2015-07-21T13:17:58Z</time>
      </trkpt>
      <trkpt lat="42.44941" lon="2.07387">
        <ele>1615.15</ele>
        <time>2015-07-21T13:18:01Z</time>
      </trkpt>
      <trkpt lat="42.44949" lon="2.07384">
        <ele>1615.15</ele>
        <time>2015-07-21T13:18:10Z</time>
      </trkpt>
      <trkpt lat="42.44953" lon="2.0738">
        <ele>1615.15</ele>
        <time>2015-07-21T13:18:17Z</time>
      </trkpt>
      <trkpt lat="42.44954" lon="2.07374">
        <ele>1615.15</ele>
        <time>2015-07-21T13:18:21Z</time>
      </trkpt>
      <trkpt lat="42.44959" lon="2.07338">
        <ele>1616.11</ele>
        <time>2015-07-21T13:18:39Z</time>
      </trkpt>
      <trkpt lat="42.44974" lon="2.0731">
        <ele>1616.11</ele>
        <time>2015-07-21T13:18:53Z</time>
      </trkpt>
      <trkpt lat="42.4498" lon="2.07299">
        <ele>1615.63</ele>
        <time>2015-07-21T13:19:00Z</time>
      </trkpt>
      <trkpt lat="42.44983" lon="2.07274">
        <ele>1616.59</ele>
        <time>2015-07-21T13:19:15Z</time>
      </trkpt>
      <trkpt lat="42.4498" lon="2.0726">
        <ele>1617.07</ele>
        <time>2015-07-21T13:19:23Z</time>
      </trkpt>
      <trkpt lat="42.4498" lon="2.07252">
        <ele>1617.56</ele>
        <time>2015-07-21T13:19:27Z</time>
      </trkpt>
      <trkpt lat="42.44984" lon="2.07222">
        <ele>1618.52</ele>
        <time>2015-07-21T13:19:43Z</time>
      </trkpt>
      <trkpt lat="42.45" lon="2.07203">
        <ele>1618.52</ele>
        <time>2015-07-21T13:19:58Z</time>
      </trkpt>
      <trkpt lat="42.45019" lon="2.0718">
        <ele>1618.04</ele>
        <time>2015-07-21T13:20:16Z</time>
      </trkpt>
      <trkpt lat="42.45032" lon="2.07161">
        <ele>1617.56</ele>
        <time>2015-07-21T13:20:30Z</time>
      </trkpt>
      <trkpt lat="42.45042" lon="2.0714">
        <ele>1618.04</ele>
        <time>2015-07-21T13:20:44Z</time>
      </trkpt>
      <trkpt lat="42.45047" lon="2.07123">
        <ele>1618.04</ele>
        <time>2015-07-21T13:20:57Z</time>
      </trkpt>
      <trkpt lat="42.4505" lon="2.07096">
        <ele>1619</ele>
        <time>2015-07-21T13:21:12Z</time>
      </trkpt>
      <trkpt lat="42.4505" lon="2.07077">
        <ele>1619.48</ele>
        <time>2015-07-21T13:21:23Z</time>
      </trkpt>
      <trkpt lat="42.4505" lon="2.07064">
        <ele>1619.48</ele>
        <time>2015-07-21T13:21:33Z</time>
      </trkpt>
      <trkpt lat="42.45049" lon="2.07064">
        <ele>1619.48</ele>
        <time>2015-07-21T13:21:49Z</time>
      </trkpt>
      <trkpt lat="42.4505" lon="2.07063">
        <ele>1619.48</ele>
        <time>2015-07-21T13:21:57Z</time>
      </trkpt>
      <trkpt lat="42.45052" lon="2.07054">
        <ele>1620.92</ele>
        <time>2015-07-21T13:22:05Z</time>
      </trkpt>
      <trkpt lat="42.45052" lon="2.07052">
        <ele>1620.44</ele>
        <time>2015-07-21T13:22:07Z</time>
      </trkpt>
      <trkpt lat="42.45052" lon="2.07042">
        <ele>1620.92</ele>
        <time>2015-07-21T13:22:15Z</time>
      </trkpt>
      <trkpt lat="42.4505" lon="2.07038">
        <ele>1621.4</ele>
        <time>2015-07-21T13:22:18Z</time>
      </trkpt>
      <trkpt lat="42.45045" lon="2.07021">
        <ele>1623.8</ele>
        <time>2015-07-21T13:22:33Z</time>
      </trkpt>
      <trkpt lat="42.45046" lon="2.07013">
        <ele>1625.73</ele>
        <time>2015-07-21T13:22:45Z</time>
      </trkpt>
      <trkpt lat="42.45047" lon="2.0701">
        <ele>1626.21</ele>
        <time>2015-07-21T13:22:50Z</time>
      </trkpt>
      <trkpt lat="42.4505" lon="2.06997">
        <ele>1629.09</ele>
        <time>2015-07-21T13:23:02Z</time>
      </trkpt>
      <trkpt lat="42.45052" lon="2.06988">
        <ele>1631.49</ele>
        <time>2015-07-21T13:23:14Z</time>
      </trkpt>
      <trkpt lat="42.45052" lon="2.06988">
        <ele>1631.49</ele>
        <time>2015-07-21T13:23:15Z</time>
      </trkpt>
      <trkpt lat="42.45054" lon="2.06977">
        <ele>1633.9</ele>
        <time>2015-07-21T13:23:25Z</time>
      </trkpt>
      <trkpt lat="42.45055" lon="2.06975">
        <ele>1633.9</ele>
        <time>2015-07-21T13:23:27Z</time>
      </trkpt>
      <trkpt lat="42.45055" lon="2.06968">
        <ele>1634.86</ele>
        <time>2015-07-21T13:23:32Z</time>
      </trkpt>
      <trkpt lat="42.45058" lon="2.06956">
        <ele>1636.3</ele>
        <time>2015-07-21T13:23:43Z</time>
      </trkpt>
      <trkpt lat="42.45063" lon="2.06943">
        <ele>1636.3</ele>
        <time>2015-07-21T13:23:53Z</time>
      </trkpt>
      <trkpt lat="42.45063" lon="2.06934">
        <ele>1636.3</ele>
        <time>2015-07-21T13:23:58Z</time>
      </trkpt>
      <trkpt lat="42.45065" lon="2.06921">
        <ele>1637.74</ele>
        <time>2015-07-21T13:24:05Z</time>
      </trkpt>
      <trkpt lat="42.45068" lon="2.0691">
        <ele>1639.19</ele>
        <time>2015-07-21T13:24:18Z</time>
      </trkpt>
      <trkpt lat="42.45071" lon="2.06901">
        <ele>1641.59</ele>
        <time>2015-07-21T13:24:30Z</time>
      </trkpt>
      <trkpt lat="42.45073" lon="2.06889">
        <ele>1643.99</ele>
        <time>2015-07-21T13:24:41Z</time>
      </trkpt>
      <trkpt lat="42.45074" lon="2.06874">
        <ele>1645.43</ele>
        <time>2015-07-21T13:24:52Z</time>
      </trkpt>
      <trkpt lat="42.45075" lon="2.06868">
        <ele>1645.91</ele>
        <time>2015-07-21T13:24:56Z</time>
      </trkpt>
      <trkpt lat="42.45079" lon="2.06856">
        <ele>1647.36</ele>
        <time>2015-07-21T13:25:07Z</time>
      </trkpt>
      <trkpt lat="42.45081" lon="2.06845">
        <ele>1648.8</ele>
        <time>2015-07-21T13:25:17Z</time>
      </trkpt>
      <trkpt lat="42.45077" lon="2.06832">
        <ele>1650.24</ele>
        <time>2015-07-21T13:25:27Z</time>
      </trkpt>
      <trkpt lat="42.45076" lon="2.06817">
        <ele>1653.12</ele>
        <time>2015-07-21T13:25:42Z</time>
      </trkpt>
      <trkpt lat="42.45076" lon="2.06816">
        <ele>1653.12</ele>
        <time>2015-07-21T13:25:43Z</time>
      </trkpt>
      <trkpt lat="42.45082" lon="2.06797">
        <ele>1653.6</ele>
        <time>2015-07-21T13:25:56Z</time>
      </trkpt>
      <trkpt lat="42.45082" lon="2.06792">
        <ele>1654.09</ele>
        <time>2015-07-21T13:26:00Z</time>
      </trkpt>
      <trkpt lat="42.45079" lon="2.0678">
        <ele>1656.01</ele>
        <time>2015-07-21T13:26:12Z</time>
      </trkpt>
      <trkpt lat="42.45078" lon="2.06778">
        <ele>1656.49</ele>
        <time>2015-07-21T13:26:16Z</time>
      </trkpt>
      <trkpt lat="42.45073" lon="2.06775">
        <ele>1657.45</ele>
        <time>2015-07-21T13:26:28Z</time>
      </trkpt>
      <trkpt lat="42.4507" lon="2.06783">
        <ele>1658.89</ele>
        <time>2015-07-21T13:26:39Z</time>
      </trkpt>
      <trkpt lat="42.45067" lon="2.06787">
        <ele>1658.41</ele>
        <time>2015-07-21T13:26:50Z</time>
      </trkpt>
      <trkpt lat="42.45067" lon="2.06787">
        <ele>1658.41</ele>
        <time>2015-07-21T13:26:55Z</time>
      </trkpt>
      <trkpt lat="42.45066" lon="2.06776">
        <ele>1657.93</ele>
        <time>2015-07-21T13:27:07Z</time>
      </trkpt>
      <trkpt lat="42.45063" lon="2.06772">
        <ele>1657.93</ele>
        <time>2015-07-21T13:27:20Z</time>
      </trkpt>
      <trkpt lat="42.45063" lon="2.06772">
        <ele>1657.45</ele>
        <time>2015-07-21T13:27:24Z</time>
      </trkpt>
      <trkpt lat="42.45064" lon="2.06771">
        <ele>1657.45</ele>
        <time>2015-07-21T13:27:26Z</time>
      </trkpt>
      <trkpt lat="42.45065" lon="2.06766">
        <ele>1656.97</ele>
        <time>2015-07-21T13:27:31Z</time>
      </trkpt>
      <trkpt lat="42.45063" lon="2.06759">
        <ele>1655.53</ele>
        <time>2015-07-21T13:27:46Z</time>
      </trkpt>
      <trkpt lat="42.45064" lon="2.06759">
        <ele>1656.01</ele>
        <time>2015-07-21T13:28:02Z</time>
      </trkpt>
      <trkpt lat="42.45064" lon="2.06759">
        <ele>1656.01</ele>
        <time>2015-07-21T13:28:18Z</time>
      </trkpt>
      <trkpt lat="42.45064" lon="2.06758">
        <ele>1655.05</ele>
        <time>2015-07-21T13:28:36Z</time>
      </trkpt>
      <trkpt lat="42.45064" lon="2.06757">
        <ele>1654.09</ele>
        <time>2015-07-21T13:29:01Z</time>
      </trkpt>
      <trkpt lat="42.45064" lon="2.06757">
        <ele>1654.09</ele>
        <time>2015-07-21T13:29:32Z</time>
      </trkpt>
      <trkpt lat="42.45064" lon="2.06757">
        <ele>1654.09</ele>
        <time>2015-07-21T13:30:04Z</time>
      </trkpt>
      <trkpt lat="42.45064" lon="2.06757">
        <ele>1654.09</ele>
        <time>2015-07-21T13:30:29Z</time>
      </trkpt>
      <trkpt lat="42.45063" lon="2.06757">
        <ele>1654.57</ele>
        <time>2015-07-21T13:30:57Z</time>
      </trkpt>
      <trkpt lat="42.45064" lon="2.06759">
        <ele>1654.09</ele>
        <time>2015-07-21T13:31:02Z</time>
      </trkpt>
      <trkpt lat="42.45071" lon="2.06764">
        <ele>1655.53</ele>
        <time>2015-07-21T13:31:12Z</time>
      </trkpt>
      <trkpt lat="42.45072" lon="2.06765">
        <ele>1655.05</ele>
        <time>2015-07-21T13:31:15Z</time>
      </trkpt>
      <trkpt lat="42.45068" lon="2.0677">
        <ele>1656.49</ele>
        <time>2015-07-21T13:31:20Z</time>
      </trkpt>
      <trkpt lat="42.45068" lon="2.06773">
        <ele>1656.49</ele>
        <time>2015-07-21T13:31:32Z</time>
      </trkpt>
      <trkpt lat="42.45071" lon="2.06774">
        <ele>1655.53</ele>
        <time>2015-07-21T13:31:47Z</time>
      </trkpt>
      <trkpt lat="42.45072" lon="2.06774">
        <ele>1655.53</ele>
        <time>2015-07-21T13:31:50Z</time>
      </trkpt>
      <trkpt lat="42.45073" lon="2.06774">
        <ele>1656.01</ele>
        <time>2015-07-21T13:31:52Z</time>
      </trkpt>
      <trkpt lat="42.45078" lon="2.06782">
        <ele>1655.05</ele>
        <time>2015-07-21T13:32:06Z</time>
      </trkpt>
      <trkpt lat="42.45078" lon="2.06791">
        <ele>1652.64</ele>
        <time>2015-07-21T13:32:17Z</time>
      </trkpt>
      <trkpt lat="42.45076" lon="2.068">
        <ele>1651.68</ele>
        <time>2015-07-21T13:32:30Z</time>
      </trkpt>
      <trkpt lat="42.45076" lon="2.068">
        <ele>1651.68</ele>
        <time>2015-07-21T13:32:31Z</time>
      </trkpt>
      <trkpt lat="42.45076" lon="2.06808">
        <ele>1651.68</ele>
        <time>2015-07-21T13:32:36Z</time>
      </trkpt>
      <trkpt lat="42.45074" lon="2.06813">
        <ele>1651.2</ele>
        <time>2015-07-21T13:32:39Z</time>
      </trkpt>
      <trkpt lat="42.45074" lon="2.06818">
        <ele>1651.68</ele>
        <time>2015-07-21T13:32:42Z</time>
      </trkpt>
      <trkpt lat="42.45077" lon="2.06832">
        <ele>1648.8</ele>
        <time>2015-07-21T13:32:48Z</time>
      </trkpt>
      <trkpt lat="42.45077" lon="2.06838">
        <ele>1648.32</ele>
        <time>2015-07-21T13:32:52Z</time>
      </trkpt>
      <trkpt lat="42.45078" lon="2.06844">
        <ele>1647.84</ele>
        <time>2015-07-21T13:32:55Z</time>
      </trkpt>
      <trkpt lat="42.45076" lon="2.0685">
        <ele>1646.88</ele>
        <time>2015-07-21T13:32:59Z</time>
      </trkpt>
      <trkpt lat="42.45071" lon="2.06866">
        <ele>1644.47</ele>
        <time>2015-07-21T13:33:08Z</time>
      </trkpt>
      <trkpt lat="42.45068" lon="2.06886">
        <ele>1643.99</ele>
        <time>2015-07-21T13:33:20Z</time>
      </trkpt>
      <trkpt lat="42.45068" lon="2.06889">
        <ele>1643.51</ele>
        <time>2015-07-21T13:33:21Z</time>
      </trkpt>
      <trkpt lat="42.45069" lon="2.06892">
        <ele>1641.59</ele>
        <time>2015-07-21T13:33:26Z</time>
      </trkpt>
      <trkpt lat="42.45067" lon="2.06899">
        <ele>1640.15</ele>
        <time>2015-07-21T13:33:32Z</time>
      </trkpt>
      <trkpt lat="42.45066" lon="2.06902">
        <ele>1639.67</ele>
        <time>2015-07-21T13:33:37Z</time>
      </trkpt>
      <trkpt lat="42.45065" lon="2.0691">
        <ele>1636.78</ele>
        <time>2015-07-21T13:33:47Z</time>
      </trkpt>
      <trkpt lat="42.45061" lon="2.06936">
        <ele>1634.38</ele>
        <time>2015-07-21T13:33:59Z</time>
      </trkpt>
      <trkpt lat="42.45061" lon="2.0695">
        <ele>1633.42</ele>
        <time>2015-07-21T13:34:08Z</time>
      </trkpt>
      <trkpt lat="42.45051" lon="2.06977">
        <ele>1630.53</ele>
        <time>2015-07-21T13:34:24Z</time>
      </trkpt>
      <trkpt lat="42.45051" lon="2.06984">
        <ele>1628.13</ele>
        <time>2015-07-21T13:34:32Z</time>
      </trkpt>
      <trkpt lat="42.4505" lon="2.06988">
        <ele>1626.69</ele>
        <time>2015-07-21T13:34:36Z</time>
      </trkpt>
      <trkpt lat="42.45048" lon="2.06996">
        <ele>1625.25</ele>
        <time>2015-07-21T13:34:41Z</time>
      </trkpt>
      <trkpt lat="42.45044" lon="2.07012">
        <ele>1621.88</ele>
        <time>2015-07-21T13:34:54Z</time>
      </trkpt>
      <trkpt lat="42.45043" lon="2.07018">
        <ele>1620.44</ele>
        <time>2015-07-21T13:34:59Z</time>
      </trkpt>
      <trkpt lat="42.45047" lon="2.07029">
        <ele>1618.52</ele>
        <time>2015-07-21T13:35:07Z</time>
      </trkpt>
      <trkpt lat="42.45049" lon="2.07032">
        <ele>1618.04</ele>
        <time>2015-07-21T13:35:09Z</time>
      </trkpt>
      <trkpt lat="42.45049" lon="2.07039">
        <ele>1617.56</ele>
        <time>2015-07-21T13:35:13Z</time>
      </trkpt>
      <trkpt lat="42.45048" lon="2.07044">
        <ele>1617.07</ele>
        <time>2015-07-21T13:35:15Z</time>
      </trkpt>
      <trkpt lat="42.45049" lon="2.07048">
        <ele>1616.59</ele>
        <time>2015-07-21T13:35:17Z</time>
      </trkpt>
      <trkpt lat="42.45051" lon="2.07051">
        <ele>1616.11</ele>
        <time>2015-07-21T13:35:19Z</time>
      </trkpt>
      <trkpt lat="42.45064" lon="2.07037">
        <ele>1614.67</ele>
        <time>2015-07-21T13:35:33Z</time>
      </trkpt>
      <trkpt lat="42.45065" lon="2.07034">
        <ele>1613.71</ele>
        <time>2015-07-21T13:35:36Z</time>
      </trkpt>
      <trkpt lat="42.4507" lon="2.0703">
        <ele>1612.75</ele>
        <time>2015-07-21T13:35:40Z</time>
      </trkpt>
      <trkpt lat="42.45078" lon="2.07017">
        <ele>1609.38</ele>
        <time>2015-07-21T13:35:54Z</time>
      </trkpt>
      <trkpt lat="42.45086" lon="2.07011">
        <ele>1606.5</ele>
        <time>2015-07-21T13:36:03Z</time>
      </trkpt>
      <trkpt lat="42.4509" lon="2.07006">
        <ele>1604.1</ele>
        <time>2015-07-21T13:36:09Z</time>
      </trkpt>
      <trkpt lat="42.45096" lon="2.07006">
        <ele>1601.21</ele>
        <time>2015-07-21T13:36:18Z</time>
      </trkpt>
      <trkpt lat="42.45106" lon="2.07">
        <ele>1597.85</ele>
        <time>2015-07-21T13:36:30Z</time>
      </trkpt>
      <trkpt lat="42.45114" lon="2.06993">
        <ele>1594.96</ele>
        <time>2015-07-21T13:36:39Z</time>
      </trkpt>
      <trkpt lat="42.45123" lon="2.06985">
        <ele>1591.6</ele>
        <time>2015-07-21T13:36:49Z</time>
      </trkpt>
      <trkpt lat="42.4513" lon="2.06976">
        <ele>1588.72</ele>
        <time>2015-07-21T13:36:58Z</time>
      </trkpt>
      <trkpt lat="42.45131" lon="2.06975">
        <ele>1588.24</ele>
        <time>2015-07-21T13:36:59Z</time>
      </trkpt>
      <trkpt lat="42.45137" lon="2.06964">
        <ele>1585.83</ele>
        <time>2015-07-21T13:37:11Z</time>
      </trkpt>
      <trkpt lat="42.45145" lon="2.06955">
        <ele>1582.95</ele>
        <time>2015-07-21T13:37:21Z</time>
      </trkpt>
      <trkpt lat="42.45148" lon="2.0695">
        <ele>1581.03</ele>
        <time>2015-07-21T13:37:26Z</time>
      </trkpt>
      <trkpt lat="42.45156" lon="2.06938">
        <ele>1579.1</ele>
        <time>2015-07-21T13:37:35Z</time>
      </trkpt>
      <trkpt lat="42.45166" lon="2.06926">
        <ele>1575.74</ele>
        <time>2015-07-21T13:37:47Z</time>
      </trkpt>
      <trkpt lat="42.45166" lon="2.06925">
        <ele>1575.26</ele>
        <time>2015-07-21T13:37:48Z</time>
      </trkpt>
      <trkpt lat="42.45171" lon="2.06919">
        <ele>1572.85</ele>
        <time>2015-07-21T13:37:56Z</time>
      </trkpt>
      <trkpt lat="42.45186" lon="2.06913">
        <ele>1569.97</ele>
        <time>2015-07-21T13:38:06Z</time>
      </trkpt>
      <trkpt lat="42.45199" lon="2.06909">
        <ele>1567.09</ele>
        <time>2015-07-21T13:38:16Z</time>
      </trkpt>
      <trkpt lat="42.45207" lon="2.06912">
        <ele>1563.72</ele>
        <time>2015-07-21T13:38:26Z</time>
      </trkpt>
      <trkpt lat="42.4521" lon="2.06912">
        <ele>1562.76</ele>
        <time>2015-07-21T13:38:28Z</time>
      </trkpt>
      <trkpt lat="42.45214" lon="2.06917">
        <ele>1561.32</ele>
        <time>2015-07-21T13:38:39Z</time>
      </trkpt>
      <trkpt lat="42.45222" lon="2.06916">
        <ele>1557.95</ele>
        <time>2015-07-21T13:38:49Z</time>
      </trkpt>
      <trkpt lat="42.45227" lon="2.06916">
        <ele>1557.47</ele>
        <time>2015-07-21T13:38:58Z</time>
      </trkpt>
      <trkpt lat="42.45235" lon="2.06918">
        <ele>1555.55</ele>
        <time>2015-07-21T13:39:05Z</time>
      </trkpt>
      <trkpt lat="42.45245" lon="2.06912">
        <ele>1551.71</ele>
        <time>2015-07-21T13:39:16Z</time>
      </trkpt>
      <trkpt lat="42.45252" lon="2.06911">
        <ele>1549.3</ele>
        <time>2015-07-21T13:39:22Z</time>
      </trkpt>
      <trkpt lat="42.4526" lon="2.06914">
        <ele>1546.9</ele>
        <time>2015-07-21T13:39:28Z</time>
      </trkpt>
      <trkpt lat="42.45266" lon="2.06914">
        <ele>1545.46</ele>
        <time>2015-07-21T13:39:32Z</time>
      </trkpt>
      <trkpt lat="42.45279" lon="2.06919">
        <ele>1542.09</ele>
        <time>2015-07-21T13:39:44Z</time>
      </trkpt>
      <trkpt lat="42.45283" lon="2.0692">
        <ele>1541.13</ele>
        <time>2015-07-21T13:39:47Z</time>
      </trkpt>
      <trkpt lat="42.45289" lon="2.0692">
        <ele>1539.69</ele>
        <time>2015-07-21T13:39:50Z</time>
      </trkpt>
      <trkpt lat="42.45293" lon="2.06922">
        <ele>1538.25</ele>
        <time>2015-07-21T13:39:53Z</time>
      </trkpt>
      <trkpt lat="42.45299" lon="2.06926">
        <ele>1536.32</ele>
        <time>2015-07-21T13:40:01Z</time>
      </trkpt>
      <trkpt lat="42.45302" lon="2.06924">
        <ele>1535.84</ele>
        <time>2015-07-21T13:40:04Z</time>
      </trkpt>
      <trkpt lat="42.45304" lon="2.06922">
        <ele>1535.84</ele>
        <time>2015-07-21T13:40:07Z</time>
      </trkpt>
      <trkpt lat="42.45316" lon="2.06909">
        <ele>1531.04</ele>
        <time>2015-07-21T13:40:19Z</time>
      </trkpt>
      <trkpt lat="42.4533" lon="2.06898">
        <ele>1528.15</ele>
        <time>2015-07-21T13:40:31Z</time>
      </trkpt>
      <trkpt lat="42.45339" lon="2.06883">
        <ele>1524.79</ele>
        <time>2015-07-21T13:40:43Z</time>
      </trkpt>
      <trkpt lat="42.45343" lon="2.0687">
        <ele>1521.42</ele>
        <time>2015-07-21T13:40:54Z</time>
      </trkpt>
      <trkpt lat="42.45353" lon="2.06858">
        <ele>1518.06</ele>
        <time>2015-07-21T13:41:06Z</time>
      </trkpt>
      <trkpt lat="42.45358" lon="2.0685">
        <ele>1514.69</ele>
        <time>2015-07-21T13:41:16Z</time>
      </trkpt>
      <trkpt lat="42.45365" lon="2.06839">
        <ele>1511.81</ele>
        <time>2015-07-21T13:41:28Z</time>
      </trkpt>
      <trkpt lat="42.45378" lon="2.06825">
        <ele>1508.93</ele>
        <time>2015-07-21T13:41:40Z</time>
      </trkpt>
      <trkpt lat="42.45387" lon="2.06808">
        <ele>1505.56</ele>
        <time>2015-07-21T13:41:53Z</time>
      </trkpt>
      <trkpt lat="42.45388" lon="2.06803">
        <ele>1504.6</ele>
        <time>2015-07-21T13:41:56Z</time>
      </trkpt>
      <trkpt lat="42.45399" lon="2.06782">
        <ele>1500.76</ele>
        <time>2015-07-21T13:42:09Z</time>
      </trkpt>
      <trkpt lat="42.45406" lon="2.06763">
        <ele>1497.87</ele>
        <time>2015-07-21T13:42:21Z</time>
      </trkpt>
      <trkpt lat="42.45418" lon="2.06743">
        <ele>1495.47</ele>
        <time>2015-07-21T13:42:37Z</time>
      </trkpt>
      <trkpt lat="42.45421" lon="2.06723">
        <ele>1494.99</ele>
        <time>2015-07-21T13:42:50Z</time>
      </trkpt>
      <trkpt lat="42.45424" lon="2.06705">
        <ele>1495.95</ele>
        <time>2015-07-21T13:43:01Z</time>
      </trkpt>
      <trkpt lat="42.45427" lon="2.06702">
        <ele>1495.95</ele>
        <time>2015-07-21T13:43:04Z</time>
      </trkpt>
      <trkpt lat="42.45429" lon="2.06687">
        <ele>1497.39</ele>
        <time>2015-07-21T13:43:13Z</time>
      </trkpt>
      <trkpt lat="42.45428" lon="2.06665">
        <ele>1498.35</ele>
        <time>2015-07-21T13:43:27Z</time>
      </trkpt>
      <trkpt lat="42.45423" lon="2.06652">
        <ele>1499.79</ele>
        <time>2015-07-21T13:43:38Z</time>
      </trkpt>
      <trkpt lat="42.45409" lon="2.06634">
        <ele>1500.76</ele>
        <time>2015-07-21T13:43:53Z</time>
      </trkpt>
      <trkpt lat="42.45409" lon="2.06629">
        <ele>1500.76</ele>
        <time>2015-07-21T13:44:10Z</time>
      </trkpt>
      <trkpt lat="42.45409" lon="2.06628">
        <ele>1501.24</ele>
        <time>2015-07-21T13:44:32Z</time>
      </trkpt>
      <trkpt lat="42.45412" lon="2.06625">
        <ele>1500.76</ele>
        <time>2015-07-21T13:44:51Z</time>
      </trkpt>
      <trkpt lat="42.45414" lon="2.06623">
        <ele>1500.27</ele>
        <time>2015-07-21T13:45:18Z</time>
      </trkpt>
      <trkpt lat="42.45417" lon="2.0662">
        <ele>1500.27</ele>
        <time>2015-07-21T13:45:37Z</time>
      </trkpt>
      <trkpt lat="42.4542" lon="2.06618">
        <ele>1500.27</ele>
        <time>2015-07-21T13:46:04Z</time>
      </trkpt>
      <trkpt lat="42.45421" lon="2.06617">
        <ele>1500.27</ele>
        <time>2015-07-21T13:46:35Z</time>
      </trkpt>
      <trkpt lat="42.45422" lon="2.06616">
        <ele>1500.76</ele>
        <time>2015-07-21T13:46:59Z</time>
      </trkpt>
      <trkpt lat="42.45417" lon="2.0662">
        <ele>1502.68</ele>
        <time>2015-07-21T13:47:13Z</time>
      </trkpt>
      <trkpt lat="42.45418" lon="2.06618">
        <ele>1502.68</ele>
        <time>2015-07-21T13:47:17Z</time>
      </trkpt>
      <trkpt lat="42.45426" lon="2.06609">
        <ele>1505.08</ele>
        <time>2015-07-21T13:47:30Z</time>
      </trkpt>
      <trkpt lat="42.45434" lon="2.06605">
        <ele>1507</ele>
        <time>2015-07-21T13:47:43Z</time>
      </trkpt>
      <trkpt lat="42.45437" lon="2.06603">
        <ele>1507.48</ele>
        <time>2015-07-21T13:47:45Z</time>
      </trkpt>
      <trkpt lat="42.45449" lon="2.06598">
        <ele>1509.41</ele>
        <time>2015-07-21T13:47:58Z</time>
      </trkpt>
      <trkpt lat="42.45459" lon="2.06594">
        <ele>1511.81</ele>
        <time>2015-07-21T13:48:08Z</time>
      </trkpt>
      <trkpt lat="42.4546" lon="2.06594">
        <ele>1511.81</ele>
        <time>2015-07-21T13:48:10Z</time>
      </trkpt>
      <trkpt lat="42.4547" lon="2.06593">
        <ele>1512.77</ele>
        <time>2015-07-21T13:48:18Z</time>
      </trkpt>
      <trkpt lat="42.45484" lon="2.066">
        <ele>1513.73</ele>
        <time>2015-07-21T13:48:29Z</time>
      </trkpt>
      <trkpt lat="42.4549" lon="2.06613">
        <ele>1514.21</ele>
        <time>2015-07-21T13:48:39Z</time>
      </trkpt>
      <trkpt lat="42.45493" lon="2.06624">
        <ele>1514.69</ele>
        <time>2015-07-21T13:48:46Z</time>
      </trkpt>
      <trkpt lat="42.45496" lon="2.06629">
        <ele>1515.66</ele>
        <time>2015-07-21T13:48:50Z</time>
      </trkpt>
      <trkpt lat="42.45496" lon="2.06636">
        <ele>1519.02</ele>
        <time>2015-07-21T13:49:01Z</time>
      </trkpt>
      <trkpt lat="42.45492" lon="2.06644">
        <ele>1522.39</ele>
        <time>2015-07-21T13:49:12Z</time>
      </trkpt>
      <trkpt lat="42.45489" lon="2.06651">
        <ele>1523.83</ele>
        <time>2015-07-21T13:49:23Z</time>
      </trkpt>
      <trkpt lat="42.45488" lon="2.06652">
        <ele>1526.23</ele>
        <time>2015-07-21T13:49:30Z</time>
      </trkpt>
      <trkpt lat="42.45483" lon="2.06653">
        <ele>1529.11</ele>
        <time>2015-07-21T13:49:42Z</time>
      </trkpt>
      <trkpt lat="42.45479" lon="2.06654">
        <ele>1531.04</ele>
        <time>2015-07-21T13:49:50Z</time>
      </trkpt>
      <trkpt lat="42.45476" lon="2.06655">
        <ele>1533.92</ele>
        <time>2015-07-21T13:49:58Z</time>
      </trkpt>
      <trkpt lat="42.45471" lon="2.06657">
        <ele>1534.88</ele>
        <time>2015-07-21T13:50:10Z</time>
      </trkpt>
      <trkpt lat="42.45469" lon="2.06656">
        <ele>1533.44</ele>
        <time>2015-07-21T13:50:21Z</time>
      </trkpt>
      <trkpt lat="42.4547" lon="2.06647">
        <ele>1532.96</ele>
        <time>2015-07-21T13:50:33Z</time>
      </trkpt>
      <trkpt lat="42.45465" lon="2.06644">
        <ele>1532</ele>
        <time>2015-07-21T13:50:47Z</time>
      </trkpt>
      <trkpt lat="42.45461" lon="2.0664">
        <ele>1532</ele>
        <time>2015-07-21T13:50:58Z</time>
      </trkpt>
      <trkpt lat="42.45462" lon="2.06639">
        <ele>1531.52</ele>
        <time>2015-07-21T13:51:10Z</time>
      </trkpt>
      <trkpt lat="42.45464" lon="2.06638">
        <ele>1531.52</ele>
        <time>2015-07-21T13:51:24Z</time>
      </trkpt>
      <trkpt lat="42.45465" lon="2.0664">
        <ele>1532</ele>
        <time>2015-07-21T13:51:36Z</time>
      </trkpt>
      <trkpt lat="42.45468" lon="2.06644">
        <ele>1531.52</ele>
        <time>2015-07-21T13:51:57Z</time>
      </trkpt>
      <trkpt lat="42.45469" lon="2.06646">
        <ele>1531.04</ele>
        <time>2015-07-21T13:52:15Z</time>
      </trkpt>
      <trkpt lat="42.4547" lon="2.06648">
        <ele>1530.56</ele>
        <time>2015-07-21T13:52:41Z</time>
      </trkpt>
      <trkpt lat="42.4547" lon="2.06648">
        <ele>1530.08</ele>
        <time>2015-07-21T13:52:56Z</time>
      </trkpt>
      <trkpt lat="42.45471" lon="2.06648">
        <ele>1529.11</ele>
        <time>2015-07-21T13:53:18Z</time>
      </trkpt>
      <trkpt lat="42.45471" lon="2.06648">
        <ele>1529.59</ele>
        <time>2015-07-21T13:53:38Z</time>
      </trkpt>
      <trkpt lat="42.45472" lon="2.06647">
        <ele>1527.67</ele>
        <time>2015-07-21T13:53:54Z</time>
      </trkpt>
      <trkpt lat="42.45474" lon="2.06649">
        <ele>1525.75</ele>
        <time>2015-07-21T13:54:06Z</time>
      </trkpt>
      <trkpt lat="42.45475" lon="2.06652">
        <ele>1524.79</ele>
        <time>2015-07-21T13:54:14Z</time>
      </trkpt>
      <trkpt lat="42.4548" lon="2.06658">
        <ele>1521.9</ele>
        <time>2015-07-21T13:54:26Z</time>
      </trkpt>
      <trkpt lat="42.45482" lon="2.06657">
        <ele>1519.5</ele>
        <time>2015-07-21T13:54:33Z</time>
      </trkpt>
      <trkpt lat="42.45481" lon="2.06656">
        <ele>1518.06</ele>
        <time>2015-07-21T13:54:48Z</time>
      </trkpt>
      <trkpt lat="42.45488" lon="2.06653">
        <ele>1515.18</ele>
        <time>2015-07-21T13:54:59Z</time>
      </trkpt>
      <trkpt lat="42.4549" lon="2.06653">
        <ele>1513.25</ele>
        <time>2015-07-21T13:55:15Z</time>
      </trkpt>
      <trkpt lat="42.45494" lon="2.06646">
        <ele>1510.37</ele>
        <time>2015-07-21T13:55:29Z</time>
      </trkpt>
      <trkpt lat="42.45496" lon="2.06639">
        <ele>1507.97</ele>
        <time>2015-07-21T13:55:41Z</time>
      </trkpt>
      <trkpt lat="42.45489" lon="2.06626">
        <ele>1506.52</ele>
        <time>2015-07-21T13:55:54Z</time>
      </trkpt>
      <trkpt lat="42.45486" lon="2.06613">
        <ele>1506.04</ele>
        <time>2015-07-21T13:56:04Z</time>
      </trkpt>
      <trkpt lat="42.45478" lon="2.06599">
        <ele>1503.64</ele>
        <time>2015-07-21T13:56:19Z</time>
      </trkpt>
      <trkpt lat="42.45462" lon="2.06599">
        <ele>1501.24</ele>
        <time>2015-07-21T13:56:31Z</time>
      </trkpt>
      <trkpt lat="42.45459" lon="2.06599">
        <ele>1500.76</ele>
        <time>2015-07-21T13:56:33Z</time>
      </trkpt>
      <trkpt lat="42.45443" lon="2.06597">
        <ele>1497.87</ele>
        <time>2015-07-21T13:56:45Z</time>
      </trkpt>
      <trkpt lat="42.45436" lon="2.06597">
        <ele>1496.43</ele>
        <time>2015-07-21T13:56:51Z</time>
      </trkpt>
      <trkpt lat="42.4543" lon="2.06603">
        <ele>1495.47</ele>
        <time>2015-07-21T13:56:55Z</time>
      </trkpt>
      <trkpt lat="42.45424" lon="2.06607">
        <ele>1494.51</ele>
        <time>2015-07-21T13:57:00Z</time>
      </trkpt>
      <trkpt lat="42.4542" lon="2.06604">
        <ele>1492.58</ele>
        <time>2015-07-21T13:57:06Z</time>
      </trkpt>
      <trkpt lat="42.45419" lon="2.06602">
        <ele>1492.1</ele>
        <time>2015-07-21T13:57:08Z</time>
      </trkpt>
      <trkpt lat="42.45421" lon="2.06593">
        <ele>1489.22</ele>
        <time>2015-07-21T13:57:18Z</time>
      </trkpt>
      <trkpt lat="42.4543" lon="2.06579">
        <ele>1485.85</ele>
        <time>2015-07-21T13:57:30Z</time>
      </trkpt>
      <trkpt lat="42.45433" lon="2.06563">
        <ele>1482.49</ele>
        <time>2015-07-21T13:57:40Z</time>
      </trkpt>
      <trkpt lat="42.45434" lon="2.06562">
        <ele>1482.01</ele>
        <time>2015-07-21T13:57:41Z</time>
      </trkpt>
      <trkpt lat="42.45439" lon="2.06546">
        <ele>1478.16</ele>
        <time>2015-07-21T13:57:50Z</time>
      </trkpt>
      <trkpt lat="42.45442" lon="2.06525">
        <ele>1475.28</ele>
        <time>2015-07-21T13:58:03Z</time>
      </trkpt>
      <trkpt lat="42.45446" lon="2.06519">
        <ele>1472.4</ele>
        <time>2015-07-21T13:58:13Z</time>
      </trkpt>
      <trkpt lat="42.45448" lon="2.06516">
        <ele>1470.47</ele>
        <time>2015-07-21T13:58:18Z</time>
      </trkpt>
      <trkpt lat="42.4545" lon="2.06506">
        <ele>1467.11</ele>
        <time>2015-07-21T13:58:31Z</time>
      </trkpt>
      <trkpt lat="42.45447" lon="2.06502">
        <ele>1464.71</ele>
        <time>2015-07-21T13:58:39Z</time>
      </trkpt>
      <trkpt lat="42.45444" lon="2.06497">
        <ele>1463.26</ele>
        <time>2015-07-21T13:58:43Z</time>
      </trkpt>
      <trkpt lat="42.4544" lon="2.06488">
        <ele>1459.9</ele>
        <time>2015-07-21T13:58:52Z</time>
      </trkpt>
      <trkpt lat="42.45438" lon="2.06477">
        <ele>1457.98</ele>
        <time>2015-07-21T13:59:00Z</time>
      </trkpt>
      <trkpt lat="42.45436" lon="2.06467">
        <ele>1456.53</ele>
        <time>2015-07-21T13:59:06Z</time>
      </trkpt>
      <trkpt lat="42.45428" lon="2.06451">
        <ele>1453.17</ele>
        <time>2015-07-21T13:59:20Z</time>
      </trkpt>
      <trkpt lat="42.45416" lon="2.06438">
        <ele>1450.77</ele>
        <time>2015-07-21T13:59:33Z</time>
      </trkpt>
      <trkpt lat="42.45421" lon="2.06425">
        <ele>1448.36</ele>
        <time>2015-07-21T13:59:47Z</time>
      </trkpt>
      <trkpt lat="42.45416" lon="2.06419">
        <ele>1445.96</ele>
        <time>2015-07-21T13:59:59Z</time>
      </trkpt>
      <trkpt lat="42.45415" lon="2.06418">
        <ele>1443.08</ele>
        <time>2015-07-21T14:00:11Z</time>
      </trkpt>
      <trkpt lat="42.45411" lon="2.06409">
        <ele>1440.67</ele>
        <time>2015-07-21T14:00:23Z</time>
      </trkpt>
      <trkpt lat="42.45397" lon="2.06388">
        <ele>1439.71</ele>
        <time>2015-07-21T14:00:33Z</time>
      </trkpt>
      <trkpt lat="42.45424" lon="2.06375">
        <ele>1440.19</ele>
        <time>2015-07-21T14:00:49Z</time>
      </trkpt>
      <trkpt lat="42.45442" lon="2.06365">
        <ele>1439.23</ele>
        <time>2015-07-21T14:01:02Z</time>
      </trkpt>
      <trkpt lat="42.45461" lon="2.06364">
        <ele>1438.27</ele>
        <time>2015-07-21T14:01:16Z</time>
      </trkpt>
      <trkpt lat="42.45465" lon="2.06361">
        <ele>1438.27</ele>
        <time>2015-07-21T14:01:21Z</time>
      </trkpt>
      <trkpt lat="42.45466" lon="2.06358">
        <ele>1437.79</ele>
        <time>2015-07-21T14:01:23Z</time>
      </trkpt>
      <trkpt lat="42.45458" lon="2.06334">
        <ele>1436.83</ele>
        <time>2015-07-21T14:01:39Z</time>
      </trkpt>
      <trkpt lat="42.45459" lon="2.06328">
        <ele>1436.83</ele>
        <time>2015-07-21T14:01:56Z</time>
      </trkpt>
      <trkpt lat="42.45462" lon="2.06313">
        <ele>1435.87</ele>
        <time>2015-07-21T14:02:11Z</time>
      </trkpt>
      <trkpt lat="42.45465" lon="2.06283">
        <ele>1433.94</ele>
        <time>2015-07-21T14:02:30Z</time>
      </trkpt>
      <trkpt lat="42.45462" lon="2.06267">
        <ele>1432.98</ele>
        <time>2015-07-21T14:02:41Z</time>
      </trkpt>
      <trkpt lat="42.45457" lon="2.06247">
        <ele>1432.5</ele>
        <time>2015-07-21T14:02:55Z</time>
      </trkpt>
      <trkpt lat="42.4546" lon="2.06224">
        <ele>1432.02</ele>
        <time>2015-07-21T14:03:11Z</time>
      </trkpt>
      <trkpt lat="42.45463" lon="2.06196">
        <ele>1430.1</ele>
        <time>2015-07-21T14:03:27Z</time>
      </trkpt>
      <trkpt lat="42.45447" lon="2.06174">
        <ele>1427.21</ele>
        <time>2015-07-21T14:03:43Z</time>
      </trkpt>
      <trkpt lat="42.45436" lon="2.06168">
        <ele>1426.73</ele>
        <time>2015-07-21T14:03:47Z</time>
      </trkpt>
      <trkpt lat="42.45431" lon="2.06159">
        <ele>1425.29</ele>
        <time>2015-07-21T14:04:01Z</time>
      </trkpt>
      <trkpt lat="42.4543" lon="2.06158">
        <ele>1425.77</ele>
        <time>2015-07-21T14:04:28Z</time>
      </trkpt>
      <trkpt lat="42.45429" lon="2.06155">
        <ele>1425.77</ele>
        <time>2015-07-21T14:04:54Z</time>
      </trkpt>
      <trkpt lat="42.45428" lon="2.06154">
        <ele>1427.21</ele>
        <time>2015-07-21T14:05:00Z</time>
      </trkpt>
      <trkpt lat="42.45431" lon="2.06142">
        <ele>1425.77</ele>
        <time>2015-07-21T14:05:09Z</time>
      </trkpt>
      <trkpt lat="42.45427" lon="2.06136">
        <ele>1424.81</ele>
        <time>2015-07-21T14:05:14Z</time>
      </trkpt>
      <trkpt lat="42.45423" lon="2.06131">
        <ele>1424.81</ele>
        <time>2015-07-21T14:05:19Z</time>
      </trkpt>
      <trkpt lat="42.4542" lon="2.06123">
        <ele>1424.33</ele>
        <time>2015-07-21T14:05:25Z</time>
      </trkpt>
      <trkpt lat="42.45419" lon="2.06115">
        <ele>1423.85</ele>
        <time>2015-07-21T14:05:32Z</time>
      </trkpt>
      <trkpt lat="42.45421" lon="2.06109">
        <ele>1424.33</ele>
        <time>2015-07-21T14:05:36Z</time>
      </trkpt>
      <trkpt lat="42.45437" lon="2.06095">
        <ele>1424.33</ele>
        <time>2015-07-21T14:05:52Z</time>
      </trkpt>
      <trkpt lat="42.45455" lon="2.06096">
        <ele>1424.33</ele>
        <time>2015-07-21T14:06:06Z</time>
      </trkpt>
      <trkpt lat="42.45459" lon="2.06079">
        <ele>1422.89</ele>
        <time>2015-07-21T14:06:16Z</time>
      </trkpt>
      <trkpt lat="42.45464" lon="2.06052">
        <ele>1420.97</ele>
        <time>2015-07-21T14:06:31Z</time>
      </trkpt>
      <trkpt lat="42.4546" lon="2.0603">
        <ele>1418.56</ele>
        <time>2015-07-21T14:06:45Z</time>
      </trkpt>
      <trkpt lat="42.45459" lon="2.0603">
        <ele>1418.56</ele>
        <time>2015-07-21T14:06:47Z</time>
      </trkpt>
      <trkpt lat="42.45458" lon="2.06029">
        <ele>1419.04</ele>
        <time>2015-07-21T14:06:50Z</time>
      </trkpt>
      <trkpt lat="42.4546" lon="2.06017">
        <ele>1417.6</ele>
        <time>2015-07-21T14:06:57Z</time>
      </trkpt>
      <trkpt lat="42.45463" lon="2.05992">
        <ele>1416.16</ele>
        <time>2015-07-21T14:07:11Z</time>
      </trkpt>
      <trkpt lat="42.45463" lon="2.0598">
        <ele>1415.2</ele>
        <time>2015-07-21T14:07:19Z</time>
      </trkpt>
      <trkpt lat="42.45469" lon="2.05949">
        <ele>1413.28</ele>
        <time>2015-07-21T14:07:34Z</time>
      </trkpt>
      <trkpt lat="42.45474" lon="2.05921">
        <ele>1411.35</ele>
        <time>2015-07-21T14:07:48Z</time>
      </trkpt>
      <trkpt lat="42.45479" lon="2.05897">
        <ele>1409.91</ele>
        <time>2015-07-21T14:08:00Z</time>
      </trkpt>
      <trkpt lat="42.45484" lon="2.05875">
        <ele>1408.47</ele>
        <time>2015-07-21T14:08:13Z</time>
      </trkpt>
      <trkpt lat="42.45487" lon="2.05863">
        <ele>1407.99</ele>
        <time>2015-07-21T14:08:21Z</time>
      </trkpt>
      <trkpt lat="42.45495" lon="2.05841">
        <ele>1406.07</ele>
        <time>2015-07-21T14:08:34Z</time>
      </trkpt>
      <trkpt lat="42.45502" lon="2.05823">
        <ele>1404.62</ele>
        <time>2015-07-21T14:08:45Z</time>
      </trkpt>
      <trkpt lat="42.45509" lon="2.05807">
        <ele>1403.18</ele>
        <time>2015-07-21T14:08:56Z</time>
      </trkpt>
      <trkpt lat="42.45517" lon="2.05788">
        <ele>1401.74</ele>
        <time>2015-07-21T14:09:09Z</time>
      </trkpt>
      <trkpt lat="42.45518" lon="2.05787">
        <ele>1401.26</ele>
        <time>2015-07-21T14:09:10Z</time>
      </trkpt>
      <trkpt lat="42.45526" lon="2.05771">
        <ele>1399.82</ele>
        <time>2015-07-21T14:09:23Z</time>
      </trkpt>
      <trkpt lat="42.45532" lon="2.05759">
        <ele>1398.37</ele>
        <time>2015-07-21T14:09:33Z</time>
      </trkpt>
      <trkpt lat="42.45537" lon="2.05746">
        <ele>1397.41</ele>
        <time>2015-07-21T14:09:41Z</time>
      </trkpt>
      <trkpt lat="42.45548" lon="2.05723">
        <ele>1395.97</ele>
        <time>2015-07-21T14:09:55Z</time>
      </trkpt>
      <trkpt lat="42.4556" lon="2.057">
        <ele>1395.49</ele>
        <time>2015-07-21T14:10:10Z</time>
      </trkpt>
      <trkpt lat="42.45566" lon="2.05677">
        <ele>1393.09</ele>
        <time>2015-07-21T14:10:23Z</time>
      </trkpt>
      <trkpt lat="42.45571" lon="2.05651">
        <ele>1391.17</ele>
        <time>2015-07-21T14:10:37Z</time>
      </trkpt>
      <trkpt lat="42.45572" lon="2.05649">
        <ele>1390.68</ele>
        <time>2015-07-21T14:10:38Z</time>
      </trkpt>
      <trkpt lat="42.45574" lon="2.05637">
        <ele>1389.72</ele>
        <time>2015-07-21T14:10:46Z</time>
      </trkpt>
      <trkpt lat="42.45576" lon="2.05618">
        <ele>1388.28</ele>
        <time>2015-07-21T14:10:59Z</time>
      </trkpt>
      <trkpt lat="42.45578" lon="2.05595">
        <ele>1386.84</ele>
        <time>2015-07-21T14:11:11Z</time>
      </trkpt>
      <trkpt lat="42.45584" lon="2.05568">
        <ele>1385.4</ele>
        <time>2015-07-21T14:11:26Z</time>
      </trkpt>
      <trkpt lat="42.45598" lon="2.05548">
        <ele>1384.44</ele>
        <time>2015-07-21T14:11:41Z</time>
      </trkpt>
      <trkpt lat="42.45607" lon="2.0554">
        <ele>1383.47</ele>
        <time>2015-07-21T14:11:48Z</time>
      </trkpt>
      <trkpt lat="42.45613" lon="2.05539">
        <ele>1382.99</ele>
        <time>2015-07-21T14:11:53Z</time>
      </trkpt>
      <trkpt lat="42.45633" lon="2.05539">
        <ele>1381.07</ele>
        <time>2015-07-21T14:12:07Z</time>
      </trkpt>
      <trkpt lat="42.45638" lon="2.05539">
        <ele>1382.03</ele>
        <time>2015-07-21T14:12:10Z</time>
      </trkpt>
      <trkpt lat="42.45646" lon="2.0554">
        <ele>1380.11</ele>
        <time>2015-07-21T14:12:16Z</time>
      </trkpt>
      <trkpt lat="42.45665" lon="2.05544">
        <ele>1379.15</ele>
        <time>2015-07-21T14:12:31Z</time>
      </trkpt>
      <trkpt lat="42.45672" lon="2.05529">
        <ele>1378.19</ele>
        <time>2015-07-21T14:12:43Z</time>
      </trkpt>
      <trkpt lat="42.45671" lon="2.05521">
        <ele>1378.19</ele>
        <time>2015-07-21T14:12:47Z</time>
      </trkpt>
      <trkpt lat="42.45661" lon="2.05504">
        <ele>1376.75</ele>
        <time>2015-07-21T14:13:02Z</time>
      </trkpt>
      <trkpt lat="42.45656" lon="2.055">
        <ele>1376.26</ele>
        <time>2015-07-21T14:13:07Z</time>
      </trkpt>
      <trkpt lat="42.4565" lon="2.05483">
        <ele>1374.82</ele>
        <time>2015-07-21T14:13:21Z</time>
      </trkpt>
      <trkpt lat="42.45649" lon="2.05482">
        <ele>1374.34</ele>
        <time>2015-07-21T14:13:22Z</time>
      </trkpt>
      <trkpt lat="42.45645" lon="2.05472">
        <ele>1373.38</ele>
        <time>2015-07-21T14:13:30Z</time>
      </trkpt>
      <trkpt lat="42.45636" lon="2.05454">
        <ele>1372.42</ele>
        <time>2015-07-21T14:13:41Z</time>
      </trkpt>
      <trkpt lat="42.45632" lon="2.05451">
        <ele>1371.94</ele>
        <time>2015-07-21T14:13:44Z</time>
      </trkpt>
      <trkpt lat="42.45626" lon="2.05424">
        <ele>1370.02</ele>
        <time>2015-07-21T14:14:00Z</time>
      </trkpt>
      <trkpt lat="42.45615" lon="2.05404">
        <ele>1368.57</ele>
        <time>2015-07-21T14:14:12Z</time>
      </trkpt>
      <trkpt lat="42.45609" lon="2.05381">
        <ele>1367.13</ele>
        <time>2015-07-21T14:14:25Z</time>
      </trkpt>
      <trkpt lat="42.45602" lon="2.05367">
        <ele>1366.17</ele>
        <time>2015-07-21T14:14:34Z</time>
      </trkpt>
      <trkpt lat="42.45593" lon="2.05359">
        <ele>1365.21</ele>
        <time>2015-07-21T14:14:41Z</time>
      </trkpt>
      <trkpt lat="42.45591" lon="2.05355">
        <ele>1364.73</ele>
        <time>2015-07-21T14:14:44Z</time>
      </trkpt>
      <trkpt lat="42.45581" lon="2.0534">
        <ele>1363.77</ele>
        <time>2015-07-21T14:14:56Z</time>
      </trkpt>
      <trkpt lat="42.45577" lon="2.05331">
        <ele>1362.81</ele>
        <time>2015-07-21T14:15:03Z</time>
      </trkpt>
      <trkpt lat="42.4557" lon="2.05324">
        <ele>1362.33</ele>
        <time>2015-07-21T14:15:08Z</time>
      </trkpt>
      <trkpt lat="42.45569" lon="2.05321">
        <ele>1362.33</ele>
        <time>2015-07-21T14:15:10Z</time>
      </trkpt>
      <trkpt lat="42.45564" lon="2.05313">
        <ele>1361.84</ele>
        <time>2015-07-21T14:15:15Z</time>
      </trkpt>
      <trkpt lat="42.45555" lon="2.05301">
        <ele>1360.88</ele>
        <time>2015-07-21T14:15:24Z</time>
      </trkpt>
      <trkpt lat="42.45545" lon="2.05285">
        <ele>1359.44</ele>
        <time>2015-07-21T14:15:36Z</time>
      </trkpt>
      <trkpt lat="42.45537" lon="2.05266">
        <ele>1358</ele>
        <time>2015-07-21T14:15:51Z</time>
      </trkpt>
      <trkpt lat="42.45535" lon="2.05255">
        <ele>1357.52</ele>
        <time>2015-07-21T14:15:58Z</time>
      </trkpt>
      <trkpt lat="42.45533" lon="2.05247">
        <ele>1357.04</ele>
        <time>2015-07-21T14:16:02Z</time>
      </trkpt>
      <trkpt lat="42.4553" lon="2.0522">
        <ele>1355.6</ele>
        <time>2015-07-21T14:16:17Z</time>
      </trkpt>
      <trkpt lat="42.45529" lon="2.05197">
        <ele>1354.63</ele>
        <time>2015-07-21T14:16:30Z</time>
      </trkpt>
      <trkpt lat="42.45528" lon="2.05184">
        <ele>1353.67</ele>
        <time>2015-07-21T14:16:43Z</time>
      </trkpt>
      <trkpt lat="42.45527" lon="2.05179">
        <ele>1353.67</ele>
        <time>2015-07-21T14:16:57Z</time>
      </trkpt>
      <trkpt lat="42.45527" lon="2.05176">
        <ele>1353.67</ele>
        <time>2015-07-21T14:16:59Z</time>
      </trkpt>
      <trkpt lat="42.45525" lon="2.0515">
        <ele>1353.19</ele>
        <time>2015-07-21T14:17:13Z</time>
      </trkpt>
      <trkpt lat="42.45528" lon="2.05122">
        <ele>1352.71</ele>
        <time>2015-07-21T14:17:28Z</time>
      </trkpt>
      <trkpt lat="42.45528" lon="2.05096">
        <ele>1352.23</ele>
        <time>2015-07-21T14:17:42Z</time>
      </trkpt>
      <trkpt lat="42.45532" lon="2.05073">
        <ele>1350.79</ele>
        <time>2015-07-21T14:17:56Z</time>
      </trkpt>
      <trkpt lat="42.45532" lon="2.0507">
        <ele>1350.79</ele>
        <time>2015-07-21T14:17:58Z</time>
      </trkpt>
      <trkpt lat="42.45538" lon="2.05043">
        <ele>1349.83</ele>
        <time>2015-07-21T14:18:13Z</time>
      </trkpt>
      <trkpt lat="42.45543" lon="2.05031">
        <ele>1349.35</ele>
        <time>2015-07-21T14:18:22Z</time>
      </trkpt>
      <trkpt lat="42.45555" lon="2.05014">
        <ele>1348.87</ele>
        <time>2015-07-21T14:18:34Z</time>
      </trkpt>
      <trkpt lat="42.45568" lon="2.0499">
        <ele>1347.91</ele>
        <time>2015-07-21T14:18:48Z</time>
      </trkpt>
      <trkpt lat="42.45582" lon="2.0497">
        <ele>1346.94</ele>
        <time>2015-07-21T14:19:02Z</time>
      </trkpt>
      <trkpt lat="42.4559" lon="2.04951">
        <ele>1345.98</ele>
        <time>2015-07-21T14:19:15Z</time>
      </trkpt>
      <trkpt lat="42.45599" lon="2.04934">
        <ele>1345.02</ele>
        <time>2015-07-21T14:19:28Z</time>
      </trkpt>
      <trkpt lat="42.45606" lon="2.04914">
        <ele>1344.54</ele>
        <time>2015-07-21T14:19:41Z</time>
      </trkpt>
      <trkpt lat="42.45617" lon="2.04883">
        <ele>1343.58</ele>
        <time>2015-07-21T14:19:57Z</time>
      </trkpt>
      <trkpt lat="42.45623" lon="2.04863">
        <ele>1342.62</ele>
        <time>2015-07-21T14:20:08Z</time>
      </trkpt>
      <trkpt lat="42.45631" lon="2.04843">
        <ele>1341.66</ele>
        <time>2015-07-21T14:20:21Z</time>
      </trkpt>
      <trkpt lat="42.45638" lon="2.04823">
        <ele>1341.18</ele>
        <time>2015-07-21T14:20:33Z</time>
      </trkpt>
      <trkpt lat="42.45638" lon="2.04795">
        <ele>1339.73</ele>
        <time>2015-07-21T14:20:48Z</time>
      </trkpt>
      <trkpt lat="42.4564" lon="2.04771">
        <ele>1338.29</ele>
        <time>2015-07-21T14:21:01Z</time>
      </trkpt>
      <trkpt lat="42.45639" lon="2.04748">
        <ele>1337.33</ele>
        <time>2015-07-21T14:21:13Z</time>
      </trkpt>
      <trkpt lat="42.45639" lon="2.04745">
        <ele>1337.33</ele>
        <time>2015-07-21T14:21:15Z</time>
      </trkpt>
      <trkpt lat="42.4564" lon="2.04741">
        <ele>1336.85</ele>
        <time>2015-07-21T14:21:18Z</time>
      </trkpt>
      <trkpt lat="42.45641" lon="2.04734">
        <ele>1336.85</ele>
        <time>2015-07-21T14:21:23Z</time>
      </trkpt>
      <trkpt lat="42.45648" lon="2.04707">
        <ele>1334.93</ele>
        <time>2015-07-21T14:21:38Z</time>
      </trkpt>
      <trkpt lat="42.45658" lon="2.04684">
        <ele>1333.49</ele>
        <time>2015-07-21T14:21:53Z</time>
      </trkpt>
      <trkpt lat="42.45659" lon="2.04682">
        <ele>1333.01</ele>
        <time>2015-07-21T14:21:54Z</time>
      </trkpt>
      <trkpt lat="42.4566" lon="2.04679">
        <ele>1332.52</ele>
        <time>2015-07-21T14:21:56Z</time>
      </trkpt>
      <trkpt lat="42.45667" lon="2.04664">
        <ele>1331.56</ele>
        <time>2015-07-21T14:22:08Z</time>
      </trkpt>
      <trkpt lat="42.45668" lon="2.04653">
        <ele>1331.08</ele>
        <time>2015-07-21T14:22:15Z</time>
      </trkpt>
      <trkpt lat="42.45668" lon="2.04644">
        <ele>1330.6</ele>
        <time>2015-07-21T14:22:20Z</time>
      </trkpt>
      <trkpt lat="42.45668" lon="2.04624">
        <ele>1330.12</ele>
        <time>2015-07-21T14:22:31Z</time>
      </trkpt>
      <trkpt lat="42.45665" lon="2.0462">
        <ele>1330.12</ele>
        <time>2015-07-21T14:22:33Z</time>
      </trkpt>
      <trkpt lat="42.4566" lon="2.0459">
        <ele>1329.16</ele>
        <time>2015-07-21T14:22:51Z</time>
      </trkpt>
      <trkpt lat="42.45659" lon="2.04577">
        <ele>1329.64</ele>
        <time>2015-07-21T14:22:58Z</time>
      </trkpt>
      <trkpt lat="42.45661" lon="2.0457">
        <ele>1329.64</ele>
        <time>2015-07-21T14:23:02Z</time>
      </trkpt>
      <trkpt lat="42.45676" lon="2.04542">
        <ele>1329.16</ele>
        <time>2015-07-21T14:23:18Z</time>
      </trkpt>
      <trkpt lat="42.45683" lon="2.0453">
        <ele>1329.16</ele>
        <time>2015-07-21T14:23:26Z</time>
      </trkpt>
      <trkpt lat="42.45695" lon="2.04509">
        <ele>1329.16</ele>
        <time>2015-07-21T14:23:40Z</time>
      </trkpt>
      <trkpt lat="42.4571" lon="2.04492">
        <ele>1329.16</ele>
        <time>2015-07-21T14:23:55Z</time>
      </trkpt>
      <trkpt lat="42.4572" lon="2.04471">
        <ele>1328.2</ele>
        <time>2015-07-21T14:24:09Z</time>
      </trkpt>
      <trkpt lat="42.45725" lon="2.04448">
        <ele>1327.24</ele>
        <time>2015-07-21T14:24:22Z</time>
      </trkpt>
      <trkpt lat="42.45729" lon="2.04435">
        <ele>1326.28</ele>
        <time>2015-07-21T14:24:33Z</time>
      </trkpt>
      <trkpt lat="42.45731" lon="2.04419">
        <ele>1326.28</ele>
        <time>2015-07-21T14:24:45Z</time>
      </trkpt>
      <trkpt lat="42.45734" lon="2.0441">
        <ele>1325.8</ele>
        <time>2015-07-21T14:24:58Z</time>
      </trkpt>
      <trkpt lat="42.4574" lon="2.04381">
        <ele>1324.83</ele>
        <time>2015-07-21T14:25:14Z</time>
      </trkpt>
      <trkpt lat="42.45741" lon="2.04377">
        <ele>1324.83</ele>
        <time>2015-07-21T14:25:16Z</time>
      </trkpt>
      <trkpt lat="42.45749" lon="2.04345">
        <ele>1323.39</ele>
        <time>2015-07-21T14:25:31Z</time>
      </trkpt>
      <trkpt lat="42.45753" lon="2.04326">
        <ele>1322.43</ele>
        <time>2015-07-21T14:25:41Z</time>
      </trkpt>
      <trkpt lat="42.45769" lon="2.04314">
        <ele>1323.39</ele>
        <time>2015-07-21T14:25:54Z</time>
      </trkpt>
      <trkpt lat="42.45786" lon="2.04317">
        <ele>1324.83</ele>
        <time>2015-07-21T14:26:09Z</time>
      </trkpt>
      <trkpt lat="42.45802" lon="2.04321">
        <ele>1326.76</ele>
        <time>2015-07-21T14:26:22Z</time>
      </trkpt>
      <trkpt lat="42.45811" lon="2.04321">
        <ele>1327.72</ele>
        <time>2015-07-21T14:26:29Z</time>
      </trkpt>
      <trkpt lat="42.45814" lon="2.04317">
        <ele>1328.2</ele>
        <time>2015-07-21T14:26:33Z</time>
      </trkpt>
      <trkpt lat="42.45818" lon="2.04312">
        <ele>1328.2</ele>
        <time>2015-07-21T14:26:37Z</time>
      </trkpt>
      <trkpt lat="42.45825" lon="2.04291">
        <ele>1330.12</ele>
        <time>2015-07-21T14:26:53Z</time>
      </trkpt>
      <trkpt lat="42.4583" lon="2.04269">
        <ele>1330.12</ele>
        <time>2015-07-21T14:27:07Z</time>
      </trkpt>
      <trkpt lat="42.45833" lon="2.04264">
        <ele>1331.08</ele>
        <time>2015-07-21T14:27:20Z</time>
      </trkpt>
      <trkpt lat="42.45835" lon="2.04264">
        <ele>1333.01</ele>
        <time>2015-07-21T14:27:27Z</time>
      </trkpt>
      <trkpt lat="42.45842" lon="2.04261">
        <ele>1334.45</ele>
        <time>2015-07-21T14:27:38Z</time>
      </trkpt>
      <trkpt lat="42.45843" lon="2.0426">
        <ele>1334.45</ele>
        <time>2015-07-21T14:27:57Z</time>
      </trkpt>
      <trkpt lat="42.45841" lon="2.04259">
        <ele>1333.97</ele>
        <time>2015-07-21T14:28:20Z</time>
      </trkpt>
      <trkpt lat="42.45836" lon="2.04255">
        <ele>1332.52</ele>
        <time>2015-07-21T14:28:25Z</time>
      </trkpt>
      <trkpt lat="42.45836" lon="2.04254">
        <ele>1333.49</ele>
        <time>2015-07-21T14:28:26Z</time>
      </trkpt>
      <trkpt lat="42.45836" lon="2.04253">
        <ele>1333.97</ele>
        <time>2015-07-21T14:28:27Z</time>
      </trkpt>
      <trkpt lat="42.45839" lon="2.04245">
        <ele>1333.97</ele>
        <time>2015-07-21T14:28:47Z</time>
      </trkpt>
      <trkpt lat="42.45843" lon="2.04246">
        <ele>1333.97</ele>
        <time>2015-07-21T14:29:05Z</time>
      </trkpt>
      <trkpt lat="42.45859" lon="2.04288">
        <ele>1333.97</ele>
        <time>2015-07-21T14:29:24Z</time>
      </trkpt>
      <trkpt lat="42.45871" lon="2.04284">
        <ele>1336.37</ele>
        <time>2015-07-21T14:29:34Z</time>
      </trkpt>
      <trkpt lat="42.45873" lon="2.04282">
        <ele>1334.93</ele>
        <time>2015-07-21T14:29:35Z</time>
      </trkpt>
      <trkpt lat="42.45881" lon="2.04264">
        <ele>1334.93</ele>
        <time>2015-07-21T14:29:53Z</time>
      </trkpt>
      <trkpt lat="42.4588" lon="2.04269">
        <ele>1335.41</ele>
        <time>2015-07-21T14:30:24Z</time>
      </trkpt>
      <trkpt lat="42.45845" lon="2.04277">
        <ele>1335.89</ele>
        <time>2015-07-21T14:32:06Z</time>
      </trkpt>
    </trkseg>
  </trk>
</gpx>